<?xml version="1.0" encoding="UTF-8"?>
<gpx version="1.0" creator="GPSBabel - http://www.gpsbabel.org" xmlns="http://www.topografix.com/GPX/1/0">
  <time>2019-05-14T18:33:10.240Z</time>
  <bounds minlat="35.128322680" minlon="-106.780680560" maxlat="35.142297710" maxlon="-106.769889900"/>
  <trk>
    <name>Volcanos Hike.Pat.2019-05-14</name>
    <trkseg>
      <trkpt lat="35.130511830" lon="-106.780058310">
        <ele>1748.000</ele>
        <time>2019-05-14T14:31:08Z</time>
      </trkpt>
      <trkpt lat="35.130474990" lon="-106.780044310">
        <ele>1746.000</ele>
        <time>2019-05-14T14:31:15Z</time>
      </trkpt>
      <trkpt lat="35.130467780" lon="-106.779995910">
        <ele>1747.000</ele>
        <time>2019-05-14T14:31:37Z</time>
      </trkpt>
      <trkpt lat="35.130446620" lon="-106.779951840">
        <ele>1747.000</ele>
        <time>2019-05-14T14:31:41Z</time>
      </trkpt>
      <trkpt lat="35.130432120" lon="-106.779905500">
        <ele>1748.000</ele>
        <time>2019-05-14T14:31:46Z</time>
      </trkpt>
      <trkpt lat="35.130408300" lon="-106.779861420">
        <ele>1748.000</ele>
        <time>2019-05-14T14:31:50Z</time>
      </trkpt>
      <trkpt lat="35.130390530" lon="-106.779818380">
        <ele>1749.000</ele>
        <time>2019-05-14T14:31:54Z</time>
      </trkpt>
      <trkpt lat="35.130378840" lon="-106.779771080">
        <ele>1750.000</ele>
        <time>2019-05-14T14:31:59Z</time>
      </trkpt>
      <trkpt lat="35.130359440" lon="-106.779730450">
        <ele>1748.000</ele>
        <time>2019-05-14T14:32:11Z</time>
      </trkpt>
      <trkpt lat="35.130348650" lon="-106.779685870">
        <ele>1748.000</ele>
        <time>2019-05-14T14:32:19Z</time>
      </trkpt>
      <trkpt lat="35.130335350" lon="-106.779636510">
        <ele>1747.000</ele>
        <time>2019-05-14T14:32:25Z</time>
      </trkpt>
      <trkpt lat="35.130323620" lon="-106.779592140">
        <ele>1748.000</ele>
        <time>2019-05-14T14:32:47Z</time>
      </trkpt>
      <trkpt lat="35.130300060" lon="-106.779552460">
        <ele>1747.000</ele>
        <time>2019-05-14T14:32:57Z</time>
      </trkpt>
      <trkpt lat="35.130289030" lon="-106.779498090">
        <ele>1748.000</ele>
        <time>2019-05-14T14:33:01Z</time>
      </trkpt>
      <trkpt lat="35.130276160" lon="-106.779451010">
        <ele>1748.000</ele>
        <time>2019-05-14T14:33:05Z</time>
      </trkpt>
      <trkpt lat="35.130266240" lon="-106.779407090">
        <ele>1748.000</ele>
        <time>2019-05-14T14:33:08Z</time>
      </trkpt>
      <trkpt lat="35.130249400" lon="-106.779362420">
        <ele>1749.000</ele>
        <time>2019-05-14T14:33:11Z</time>
      </trkpt>
      <trkpt lat="35.130227550" lon="-106.779306400">
        <ele>1749.000</ele>
        <time>2019-05-14T14:33:14Z</time>
      </trkpt>
      <trkpt lat="35.130199660" lon="-106.779264470">
        <ele>1750.000</ele>
        <time>2019-05-14T14:33:17Z</time>
      </trkpt>
      <trkpt lat="35.130178970" lon="-106.779213220">
        <ele>1750.000</ele>
        <time>2019-05-14T14:33:20Z</time>
      </trkpt>
      <trkpt lat="35.130162380" lon="-106.779164440">
        <ele>1751.000</ele>
        <time>2019-05-14T14:33:23Z</time>
      </trkpt>
      <trkpt lat="35.130138640" lon="-106.779116860">
        <ele>1751.000</ele>
        <time>2019-05-14T14:33:26Z</time>
      </trkpt>
      <trkpt lat="35.130118040" lon="-106.779073070">
        <ele>1751.000</ele>
        <time>2019-05-14T14:33:29Z</time>
      </trkpt>
      <trkpt lat="35.130100670" lon="-106.779026380">
        <ele>1752.000</ele>
        <time>2019-05-14T14:33:32Z</time>
      </trkpt>
      <trkpt lat="35.130083850" lon="-106.778981710">
        <ele>1752.000</ele>
        <time>2019-05-14T14:33:35Z</time>
      </trkpt>
      <trkpt lat="35.130061100" lon="-106.778932290">
        <ele>1753.000</ele>
        <time>2019-05-14T14:33:39Z</time>
      </trkpt>
      <trkpt lat="35.130040970" lon="-106.778885350">
        <ele>1752.000</ele>
        <time>2019-05-14T14:33:43Z</time>
      </trkpt>
      <trkpt lat="35.130021090" lon="-106.778838400">
        <ele>1751.000</ele>
        <time>2019-05-14T14:33:48Z</time>
      </trkpt>
      <trkpt lat="35.130008890" lon="-106.778792900">
        <ele>1753.000</ele>
        <time>2019-05-14T14:33:52Z</time>
      </trkpt>
      <trkpt lat="35.129991530" lon="-106.778751860">
        <ele>1753.000</ele>
        <time>2019-05-14T14:33:56Z</time>
      </trkpt>
      <trkpt lat="35.129972290" lon="-106.778710180">
        <ele>1752.000</ele>
        <time>2019-05-14T14:34:00Z</time>
      </trkpt>
      <trkpt lat="35.129953420" lon="-106.778663970">
        <ele>1753.000</ele>
        <time>2019-05-14T14:34:04Z</time>
      </trkpt>
      <trkpt lat="35.129931990" lon="-106.778627500">
        <ele>1752.000</ele>
        <time>2019-05-14T14:34:08Z</time>
      </trkpt>
      <trkpt lat="35.129918850" lon="-106.778582730">
        <ele>1752.000</ele>
        <time>2019-05-14T14:34:12Z</time>
      </trkpt>
      <trkpt lat="35.129903880" lon="-106.778539240">
        <ele>1753.000</ele>
        <time>2019-05-14T14:34:16Z</time>
      </trkpt>
      <trkpt lat="35.129880230" lon="-106.778499150">
        <ele>1753.000</ele>
        <time>2019-05-14T14:34:20Z</time>
      </trkpt>
      <trkpt lat="35.129862050" lon="-106.778449630">
        <ele>1752.000</ele>
        <time>2019-05-14T14:34:25Z</time>
      </trkpt>
      <trkpt lat="35.129844000" lon="-106.778403830">
        <ele>1751.000</ele>
        <time>2019-05-14T14:34:30Z</time>
      </trkpt>
      <trkpt lat="35.129831980" lon="-106.778361610">
        <ele>1752.000</ele>
        <time>2019-05-14T14:34:34Z</time>
      </trkpt>
      <trkpt lat="35.129819970" lon="-106.778314160">
        <ele>1753.000</ele>
        <time>2019-05-14T14:34:38Z</time>
      </trkpt>
      <trkpt lat="35.129797650" lon="-106.778273990">
        <ele>1753.000</ele>
        <time>2019-05-14T14:34:42Z</time>
      </trkpt>
      <trkpt lat="35.129778570" lon="-106.778232290">
        <ele>1752.000</ele>
        <time>2019-05-14T14:34:47Z</time>
      </trkpt>
      <trkpt lat="35.129750720" lon="-106.778187160">
        <ele>1752.000</ele>
        <time>2019-05-14T14:34:51Z</time>
      </trkpt>
      <trkpt lat="35.129720790" lon="-106.778146550">
        <ele>1751.000</ele>
        <time>2019-05-14T14:34:56Z</time>
      </trkpt>
      <trkpt lat="35.129699090" lon="-106.778102340">
        <ele>1751.000</ele>
        <time>2019-05-14T14:35:00Z</time>
      </trkpt>
      <trkpt lat="35.129682950" lon="-106.778062890">
        <ele>1751.000</ele>
        <time>2019-05-14T14:35:04Z</time>
      </trkpt>
      <trkpt lat="35.129655840" lon="-106.778023450">
        <ele>1751.000</ele>
        <time>2019-05-14T14:35:09Z</time>
      </trkpt>
      <trkpt lat="35.129630750" lon="-106.777983650">
        <ele>1751.000</ele>
        <time>2019-05-14T14:35:13Z</time>
      </trkpt>
      <trkpt lat="35.129618980" lon="-106.777936520">
        <ele>1751.000</ele>
        <time>2019-05-14T14:35:17Z</time>
      </trkpt>
      <trkpt lat="35.129594990" lon="-106.777894600">
        <ele>1752.000</ele>
        <time>2019-05-14T14:35:21Z</time>
      </trkpt>
      <trkpt lat="35.129568280" lon="-106.777862850">
        <ele>1751.000</ele>
        <time>2019-05-14T14:35:25Z</time>
      </trkpt>
      <trkpt lat="35.129549430" lon="-106.777818250">
        <ele>1752.000</ele>
        <time>2019-05-14T14:35:30Z</time>
      </trkpt>
      <trkpt lat="35.129520130" lon="-106.777777650">
        <ele>1752.000</ele>
        <time>2019-05-14T14:35:34Z</time>
      </trkpt>
      <trkpt lat="35.129495890" lon="-106.777743590">
        <ele>1752.000</ele>
        <time>2019-05-14T14:35:38Z</time>
      </trkpt>
      <trkpt lat="35.129472000" lon="-106.777700630">
        <ele>1752.000</ele>
        <time>2019-05-14T14:35:42Z</time>
      </trkpt>
      <trkpt lat="35.129446420" lon="-106.777663180">
        <ele>1752.000</ele>
        <time>2019-05-14T14:35:47Z</time>
      </trkpt>
      <trkpt lat="35.129426680" lon="-106.777621460">
        <ele>1752.000</ele>
        <time>2019-05-14T14:35:51Z</time>
      </trkpt>
      <trkpt lat="35.129407840" lon="-106.777574380">
        <ele>1752.000</ele>
        <time>2019-05-14T14:35:55Z</time>
      </trkpt>
      <trkpt lat="35.129385850" lon="-106.777539040">
        <ele>1753.000</ele>
        <time>2019-05-14T14:36:00Z</time>
      </trkpt>
      <trkpt lat="35.129375630" lon="-106.777491590">
        <ele>1754.000</ele>
        <time>2019-05-14T14:36:04Z</time>
      </trkpt>
      <trkpt lat="35.129366190" lon="-106.777436710">
        <ele>1754.000</ele>
        <time>2019-05-14T14:36:08Z</time>
      </trkpt>
      <trkpt lat="35.129342840" lon="-106.777401310">
        <ele>1754.000</ele>
        <time>2019-05-14T14:36:12Z</time>
      </trkpt>
      <trkpt lat="35.129328250" lon="-106.777357550">
        <ele>1753.000</ele>
        <time>2019-05-14T14:36:17Z</time>
      </trkpt>
      <trkpt lat="35.129319590" lon="-106.777308120">
        <ele>1754.000</ele>
        <time>2019-05-14T14:36:21Z</time>
      </trkpt>
      <trkpt lat="35.129309610" lon="-106.777263950">
        <ele>1755.000</ele>
        <time>2019-05-14T14:36:25Z</time>
      </trkpt>
      <trkpt lat="35.129292960" lon="-106.777218310">
        <ele>1755.000</ele>
        <time>2019-05-14T14:36:29Z</time>
      </trkpt>
      <trkpt lat="35.129281870" lon="-106.777173590">
        <ele>1754.000</ele>
        <time>2019-05-14T14:36:33Z</time>
      </trkpt>
      <trkpt lat="35.129266090" lon="-106.777124990">
        <ele>1755.000</ele>
        <time>2019-05-14T14:36:37Z</time>
      </trkpt>
      <trkpt lat="35.129249550" lon="-106.777084600">
        <ele>1756.000</ele>
        <time>2019-05-14T14:36:41Z</time>
      </trkpt>
      <trkpt lat="35.129229390" lon="-106.777035380">
        <ele>1756.000</ele>
        <time>2019-05-14T14:36:45Z</time>
      </trkpt>
      <trkpt lat="35.129219170" lon="-106.776989780">
        <ele>1756.000</ele>
        <time>2019-05-14T14:36:49Z</time>
      </trkpt>
      <trkpt lat="35.129201860" lon="-106.776944360">
        <ele>1756.000</ele>
        <time>2019-05-14T14:36:54Z</time>
      </trkpt>
      <trkpt lat="35.129188740" lon="-106.776895790">
        <ele>1755.000</ele>
        <time>2019-05-14T14:36:58Z</time>
      </trkpt>
      <trkpt lat="35.129172510" lon="-106.776850670">
        <ele>1756.000</ele>
        <time>2019-05-14T14:37:02Z</time>
      </trkpt>
      <trkpt lat="35.129153660" lon="-106.776806190">
        <ele>1756.000</ele>
        <time>2019-05-14T14:37:07Z</time>
      </trkpt>
      <trkpt lat="35.129148250" lon="-106.776761220">
        <ele>1756.000</ele>
        <time>2019-05-14T14:37:11Z</time>
      </trkpt>
      <trkpt lat="35.129135250" lon="-106.776716420">
        <ele>1757.000</ele>
        <time>2019-05-14T14:37:15Z</time>
      </trkpt>
      <trkpt lat="35.129103530" lon="-106.776674700">
        <ele>1757.000</ele>
        <time>2019-05-14T14:37:19Z</time>
      </trkpt>
      <trkpt lat="35.129073870" lon="-106.776641460">
        <ele>1757.000</ele>
        <time>2019-05-14T14:37:23Z</time>
      </trkpt>
      <trkpt lat="35.129049370" lon="-106.776603590">
        <ele>1757.000</ele>
        <time>2019-05-14T14:37:27Z</time>
      </trkpt>
      <trkpt lat="35.129023520" lon="-106.776569070">
        <ele>1758.000</ele>
        <time>2019-05-14T14:37:31Z</time>
      </trkpt>
      <trkpt lat="35.128996080" lon="-106.776528800">
        <ele>1758.000</ele>
        <time>2019-05-14T14:37:35Z</time>
      </trkpt>
      <trkpt lat="35.128965430" lon="-106.776499530">
        <ele>1758.000</ele>
        <time>2019-05-14T14:37:39Z</time>
      </trkpt>
      <trkpt lat="35.128937730" lon="-106.776462180">
        <ele>1757.000</ele>
        <time>2019-05-14T14:37:44Z</time>
      </trkpt>
      <trkpt lat="35.128912340" lon="-106.776418680">
        <ele>1758.000</ele>
        <time>2019-05-14T14:37:49Z</time>
      </trkpt>
      <trkpt lat="35.128888170" lon="-106.776384890">
        <ele>1757.000</ele>
        <time>2019-05-14T14:37:53Z</time>
      </trkpt>
      <trkpt lat="35.128864240" lon="-106.776348630">
        <ele>1757.000</ele>
        <time>2019-05-14T14:37:57Z</time>
      </trkpt>
      <trkpt lat="35.128846390" lon="-106.776302940">
        <ele>1757.000</ele>
        <time>2019-05-14T14:38:01Z</time>
      </trkpt>
      <trkpt lat="35.128822530" lon="-106.776259440">
        <ele>1758.000</ele>
        <time>2019-05-14T14:38:05Z</time>
      </trkpt>
      <trkpt lat="35.128803450" lon="-106.776210770">
        <ele>1759.000</ele>
        <time>2019-05-14T14:38:10Z</time>
      </trkpt>
      <trkpt lat="35.128784670" lon="-106.776171100">
        <ele>1758.000</ele>
        <time>2019-05-14T14:38:14Z</time>
      </trkpt>
      <trkpt lat="35.128770750" lon="-106.776129710">
        <ele>1758.000</ele>
        <time>2019-05-14T14:38:18Z</time>
      </trkpt>
      <trkpt lat="35.128772260" lon="-106.776083720">
        <ele>1760.000</ele>
        <time>2019-05-14T14:38:22Z</time>
      </trkpt>
      <trkpt lat="35.128760470" lon="-106.776036490">
        <ele>1760.000</ele>
        <time>2019-05-14T14:38:26Z</time>
      </trkpt>
      <trkpt lat="35.128742680" lon="-106.775989100">
        <ele>1760.000</ele>
        <time>2019-05-14T14:38:31Z</time>
      </trkpt>
      <trkpt lat="35.128720680" lon="-106.775938430">
        <ele>1760.000</ele>
        <time>2019-05-14T14:38:36Z</time>
      </trkpt>
      <trkpt lat="35.128708490" lon="-106.775891770">
        <ele>1760.000</ele>
        <time>2019-05-14T14:38:40Z</time>
      </trkpt>
      <trkpt lat="35.128691650" lon="-106.775846320">
        <ele>1759.000</ele>
        <time>2019-05-14T14:38:44Z</time>
      </trkpt>
      <trkpt lat="35.128670920" lon="-106.775797340">
        <ele>1759.000</ele>
        <time>2019-05-14T14:38:48Z</time>
      </trkpt>
      <trkpt lat="35.128639900" lon="-106.775763270">
        <ele>1757.000</ele>
        <time>2019-05-14T14:38:52Z</time>
      </trkpt>
      <trkpt lat="35.128620790" lon="-106.775715320">
        <ele>1757.000</ele>
        <time>2019-05-14T14:38:57Z</time>
      </trkpt>
      <trkpt lat="35.128605220" lon="-106.775671830">
        <ele>1757.000</ele>
        <time>2019-05-14T14:39:01Z</time>
      </trkpt>
      <trkpt lat="35.128588820" lon="-106.775624110">
        <ele>1756.000</ele>
        <time>2019-05-14T14:39:05Z</time>
      </trkpt>
      <trkpt lat="35.128579540" lon="-106.775580520">
        <ele>1757.000</ele>
        <time>2019-05-14T14:39:09Z</time>
      </trkpt>
      <trkpt lat="35.128573580" lon="-106.775534390">
        <ele>1756.000</ele>
        <time>2019-05-14T14:39:13Z</time>
      </trkpt>
      <trkpt lat="35.128550960" lon="-106.775492680">
        <ele>1755.000</ele>
        <time>2019-05-14T14:39:17Z</time>
      </trkpt>
      <trkpt lat="35.128541970" lon="-106.775444690">
        <ele>1755.000</ele>
        <time>2019-05-14T14:39:21Z</time>
      </trkpt>
      <trkpt lat="35.128528930" lon="-106.775395210">
        <ele>1755.000</ele>
        <time>2019-05-14T14:39:25Z</time>
      </trkpt>
      <trkpt lat="35.128521470" lon="-106.775350180">
        <ele>1756.000</ele>
        <time>2019-05-14T14:39:29Z</time>
      </trkpt>
      <trkpt lat="35.128517490" lon="-106.775303860">
        <ele>1756.000</ele>
        <time>2019-05-14T14:39:33Z</time>
      </trkpt>
      <trkpt lat="35.128504830" lon="-106.775253140">
        <ele>1757.000</ele>
        <time>2019-05-14T14:39:42Z</time>
      </trkpt>
      <trkpt lat="35.128499200" lon="-106.775205650">
        <ele>1757.000</ele>
        <time>2019-05-14T14:39:46Z</time>
      </trkpt>
      <trkpt lat="35.128488920" lon="-106.775152560">
        <ele>1758.000</ele>
        <time>2019-05-14T14:39:51Z</time>
      </trkpt>
      <trkpt lat="35.128478990" lon="-106.775099790">
        <ele>1757.000</ele>
        <time>2019-05-14T14:39:55Z</time>
      </trkpt>
      <trkpt lat="35.128461530" lon="-106.775051180">
        <ele>1757.000</ele>
        <time>2019-05-14T14:39:59Z</time>
      </trkpt>
      <trkpt lat="35.128449070" lon="-106.775006980">
        <ele>1758.000</ele>
        <time>2019-05-14T14:40:03Z</time>
      </trkpt>
      <trkpt lat="35.128435260" lon="-106.774961740">
        <ele>1758.000</ele>
        <time>2019-05-14T14:40:07Z</time>
      </trkpt>
      <trkpt lat="35.128424070" lon="-106.774915520">
        <ele>1759.000</ele>
        <time>2019-05-14T14:40:11Z</time>
      </trkpt>
      <trkpt lat="35.128398040" lon="-106.774867550">
        <ele>1759.000</ele>
        <time>2019-05-14T14:40:16Z</time>
      </trkpt>
      <trkpt lat="35.128373160" lon="-106.774821860">
        <ele>1759.000</ele>
        <time>2019-05-14T14:40:20Z</time>
      </trkpt>
      <trkpt lat="35.128354570" lon="-106.774780670">
        <ele>1759.000</ele>
        <time>2019-05-14T14:40:24Z</time>
      </trkpt>
      <trkpt lat="35.128338980" lon="-106.774737030">
        <ele>1761.000</ele>
        <time>2019-05-14T14:40:28Z</time>
      </trkpt>
      <trkpt lat="35.128322680" lon="-106.774689640">
        <ele>1760.000</ele>
        <time>2019-05-14T14:40:32Z</time>
      </trkpt>
      <trkpt lat="35.128327390" lon="-106.774643230">
        <ele>1760.000</ele>
        <time>2019-05-14T14:40:36Z</time>
      </trkpt>
      <trkpt lat="35.128336370" lon="-106.774600310">
        <ele>1760.000</ele>
        <time>2019-05-14T14:40:40Z</time>
      </trkpt>
      <trkpt lat="35.128359660" lon="-106.774555550">
        <ele>1760.000</ele>
        <time>2019-05-14T14:40:45Z</time>
      </trkpt>
      <trkpt lat="35.128373990" lon="-106.774513670">
        <ele>1757.000</ele>
        <time>2019-05-14T14:40:49Z</time>
      </trkpt>
      <trkpt lat="35.128379030" lon="-106.774468940">
        <ele>1757.000</ele>
        <time>2019-05-14T14:40:53Z</time>
      </trkpt>
      <trkpt lat="35.128399840" lon="-106.774431450">
        <ele>1758.000</ele>
        <time>2019-05-14T14:40:57Z</time>
      </trkpt>
      <trkpt lat="35.128420040" lon="-106.774388720">
        <ele>1758.000</ele>
        <time>2019-05-14T14:41:01Z</time>
      </trkpt>
      <trkpt lat="35.128437760" lon="-106.774346020">
        <ele>1758.000</ele>
        <time>2019-05-14T14:41:05Z</time>
      </trkpt>
      <trkpt lat="35.128456200" lon="-106.774308270">
        <ele>1758.000</ele>
        <time>2019-05-14T14:41:08Z</time>
      </trkpt>
      <trkpt lat="35.128468620" lon="-106.774256660">
        <ele>1758.000</ele>
        <time>2019-05-14T14:41:13Z</time>
      </trkpt>
      <trkpt lat="35.128472740" lon="-106.774212640">
        <ele>1758.000</ele>
        <time>2019-05-14T14:41:17Z</time>
      </trkpt>
      <trkpt lat="35.128487350" lon="-106.774169400">
        <ele>1758.000</ele>
        <time>2019-05-14T14:41:21Z</time>
      </trkpt>
      <trkpt lat="35.128498760" lon="-106.774121630">
        <ele>1758.000</ele>
        <time>2019-05-14T14:41:27Z</time>
      </trkpt>
      <trkpt lat="35.128513810" lon="-106.774076090">
        <ele>1758.000</ele>
        <time>2019-05-14T14:41:32Z</time>
      </trkpt>
      <trkpt lat="35.128537360" lon="-106.774030430">
        <ele>1758.000</ele>
        <time>2019-05-14T14:41:36Z</time>
      </trkpt>
      <trkpt lat="35.128555690" lon="-106.773977250">
        <ele>1758.000</ele>
        <time>2019-05-14T14:41:41Z</time>
      </trkpt>
      <trkpt lat="35.128569520" lon="-106.773922170">
        <ele>1758.000</ele>
        <time>2019-05-14T14:41:45Z</time>
      </trkpt>
      <trkpt lat="35.128580010" lon="-106.773870440">
        <ele>1757.000</ele>
        <time>2019-05-14T14:41:49Z</time>
      </trkpt>
      <trkpt lat="35.128613550" lon="-106.773835290">
        <ele>1759.000</ele>
        <time>2019-05-14T14:41:54Z</time>
      </trkpt>
      <trkpt lat="35.128610280" lon="-106.773788510">
        <ele>1758.000</ele>
        <time>2019-05-14T14:41:57Z</time>
      </trkpt>
      <trkpt lat="35.128624100" lon="-106.773745460">
        <ele>1759.000</ele>
        <time>2019-05-14T14:42:01Z</time>
      </trkpt>
      <trkpt lat="35.128620450" lon="-106.773697170">
        <ele>1760.000</ele>
        <time>2019-05-14T14:42:05Z</time>
      </trkpt>
      <trkpt lat="35.128638920" lon="-106.773656600">
        <ele>1761.000</ele>
        <time>2019-05-14T14:42:09Z</time>
      </trkpt>
      <trkpt lat="35.128631880" lon="-106.773610830">
        <ele>1760.000</ele>
        <time>2019-05-14T14:42:12Z</time>
      </trkpt>
      <trkpt lat="35.128634340" lon="-106.773554830">
        <ele>1759.000</ele>
        <time>2019-05-14T14:42:17Z</time>
      </trkpt>
      <trkpt lat="35.128646850" lon="-106.773511730">
        <ele>1760.000</ele>
        <time>2019-05-14T14:42:21Z</time>
      </trkpt>
      <trkpt lat="35.128643560" lon="-106.773465690">
        <ele>1760.000</ele>
        <time>2019-05-14T14:42:25Z</time>
      </trkpt>
      <trkpt lat="35.128645180" lon="-106.773421280">
        <ele>1759.000</ele>
        <time>2019-05-14T14:42:29Z</time>
      </trkpt>
      <trkpt lat="35.128657270" lon="-106.773376410">
        <ele>1760.000</ele>
        <time>2019-05-14T14:42:33Z</time>
      </trkpt>
      <trkpt lat="35.128674270" lon="-106.773323340">
        <ele>1760.000</ele>
        <time>2019-05-14T14:42:38Z</time>
      </trkpt>
      <trkpt lat="35.128688910" lon="-106.773276430">
        <ele>1760.000</ele>
        <time>2019-05-14T14:42:42Z</time>
      </trkpt>
      <trkpt lat="35.128700330" lon="-106.773224340">
        <ele>1760.000</ele>
        <time>2019-05-14T14:42:46Z</time>
      </trkpt>
      <trkpt lat="35.128714320" lon="-106.773172150">
        <ele>1761.000</ele>
        <time>2019-05-14T14:42:51Z</time>
      </trkpt>
      <trkpt lat="35.128726530" lon="-106.773129550">
        <ele>1761.000</ele>
        <time>2019-05-14T14:42:54Z</time>
      </trkpt>
      <trkpt lat="35.128751910" lon="-106.773090470">
        <ele>1761.000</ele>
        <time>2019-05-14T14:42:57Z</time>
      </trkpt>
      <trkpt lat="35.128774010" lon="-106.773047110">
        <ele>1762.000</ele>
        <time>2019-05-14T14:43:01Z</time>
      </trkpt>
      <trkpt lat="35.128792950" lon="-106.773008150">
        <ele>1761.000</ele>
        <time>2019-05-14T14:43:30Z</time>
      </trkpt>
      <trkpt lat="35.128816500" lon="-106.772962580">
        <ele>1761.000</ele>
        <time>2019-05-14T14:43:34Z</time>
      </trkpt>
      <trkpt lat="35.128837830" lon="-106.772913670">
        <ele>1762.000</ele>
        <time>2019-05-14T14:43:39Z</time>
      </trkpt>
      <trkpt lat="35.128858080" lon="-106.772873360">
        <ele>1762.000</ele>
        <time>2019-05-14T14:43:43Z</time>
      </trkpt>
      <trkpt lat="35.128883930" lon="-106.772823110">
        <ele>1761.000</ele>
        <time>2019-05-14T14:43:47Z</time>
      </trkpt>
      <trkpt lat="35.128889130" lon="-106.772771700">
        <ele>1762.000</ele>
        <time>2019-05-14T14:43:52Z</time>
      </trkpt>
      <trkpt lat="35.128898520" lon="-106.772729100">
        <ele>1761.000</ele>
        <time>2019-05-14T14:43:56Z</time>
      </trkpt>
      <trkpt lat="35.128913790" lon="-106.772679050">
        <ele>1760.000</ele>
        <time>2019-05-14T14:44:00Z</time>
      </trkpt>
      <trkpt lat="35.128934350" lon="-106.772636350">
        <ele>1761.000</ele>
        <time>2019-05-14T14:44:04Z</time>
      </trkpt>
      <trkpt lat="35.128939980" lon="-106.772586710">
        <ele>1762.000</ele>
        <time>2019-05-14T14:44:08Z</time>
      </trkpt>
      <trkpt lat="35.128936860" lon="-106.772537580">
        <ele>1763.000</ele>
        <time>2019-05-14T14:44:12Z</time>
      </trkpt>
      <trkpt lat="35.128940310" lon="-106.772482470">
        <ele>1763.000</ele>
        <time>2019-05-14T14:44:16Z</time>
      </trkpt>
      <trkpt lat="35.128938920" lon="-106.772429630">
        <ele>1762.000</ele>
        <time>2019-05-14T14:44:20Z</time>
      </trkpt>
      <trkpt lat="35.128935600" lon="-106.772379790">
        <ele>1761.000</ele>
        <time>2019-05-14T14:44:24Z</time>
      </trkpt>
      <trkpt lat="35.128933160" lon="-106.772327240">
        <ele>1762.000</ele>
        <time>2019-05-14T14:44:28Z</time>
      </trkpt>
      <trkpt lat="35.128941280" lon="-106.772278640">
        <ele>1762.000</ele>
        <time>2019-05-14T14:44:32Z</time>
      </trkpt>
      <trkpt lat="35.128945220" lon="-106.772228330">
        <ele>1762.000</ele>
        <time>2019-05-14T14:44:36Z</time>
      </trkpt>
      <trkpt lat="35.128943380" lon="-106.772180720">
        <ele>1761.000</ele>
        <time>2019-05-14T14:44:40Z</time>
      </trkpt>
      <trkpt lat="35.128939040" lon="-106.772131030">
        <ele>1761.000</ele>
        <time>2019-05-14T14:44:44Z</time>
      </trkpt>
      <trkpt lat="35.128936690" lon="-106.772083430">
        <ele>1761.000</ele>
        <time>2019-05-14T14:44:48Z</time>
      </trkpt>
      <trkpt lat="35.128938680" lon="-106.772025140">
        <ele>1760.000</ele>
        <time>2019-05-14T14:44:53Z</time>
      </trkpt>
      <trkpt lat="35.128947420" lon="-106.771972080">
        <ele>1760.000</ele>
        <time>2019-05-14T14:44:58Z</time>
      </trkpt>
      <trkpt lat="35.128977470" lon="-106.771933820">
        <ele>1760.000</ele>
        <time>2019-05-14T14:45:04Z</time>
      </trkpt>
      <trkpt lat="35.129012680" lon="-106.771918320">
        <ele>1760.000</ele>
        <time>2019-05-14T14:45:08Z</time>
      </trkpt>
      <trkpt lat="35.129047890" lon="-106.771895850">
        <ele>1759.000</ele>
        <time>2019-05-14T14:45:11Z</time>
      </trkpt>
      <trkpt lat="35.129083480" lon="-106.771871790">
        <ele>1758.000</ele>
        <time>2019-05-14T14:45:15Z</time>
      </trkpt>
      <trkpt lat="35.129118010" lon="-106.771842500">
        <ele>1758.000</ele>
        <time>2019-05-14T14:45:19Z</time>
      </trkpt>
      <trkpt lat="35.129157290" lon="-106.771836070">
        <ele>1759.000</ele>
        <time>2019-05-14T14:45:22Z</time>
      </trkpt>
      <trkpt lat="35.129194180" lon="-106.771827200">
        <ele>1759.000</ele>
        <time>2019-05-14T14:45:27Z</time>
      </trkpt>
      <trkpt lat="35.129237340" lon="-106.771811120">
        <ele>1758.000</ele>
        <time>2019-05-14T14:45:31Z</time>
      </trkpt>
      <trkpt lat="35.129272830" lon="-106.771797860">
        <ele>1757.000</ele>
        <time>2019-05-14T14:45:34Z</time>
      </trkpt>
      <trkpt lat="35.129308780" lon="-106.771784430">
        <ele>1756.000</ele>
        <time>2019-05-14T14:45:38Z</time>
      </trkpt>
      <trkpt lat="35.129349770" lon="-106.771785000">
        <ele>1756.000</ele>
        <time>2019-05-14T14:45:42Z</time>
      </trkpt>
      <trkpt lat="35.129384710" lon="-106.771768850">
        <ele>1758.000</ele>
        <time>2019-05-14T14:45:47Z</time>
      </trkpt>
      <trkpt lat="35.129424770" lon="-106.771743650">
        <ele>1757.000</ele>
        <time>2019-05-14T14:45:51Z</time>
      </trkpt>
      <trkpt lat="35.129458820" lon="-106.771725470">
        <ele>1756.000</ele>
        <time>2019-05-14T14:45:54Z</time>
      </trkpt>
      <trkpt lat="35.129496790" lon="-106.771710960">
        <ele>1756.000</ele>
        <time>2019-05-14T14:45:58Z</time>
      </trkpt>
      <trkpt lat="35.129532800" lon="-106.771719540">
        <ele>1757.000</ele>
        <time>2019-05-14T14:46:02Z</time>
      </trkpt>
      <trkpt lat="35.129572640" lon="-106.771716200">
        <ele>1760.000</ele>
        <time>2019-05-14T14:46:06Z</time>
      </trkpt>
      <trkpt lat="35.129615730" lon="-106.771707530">
        <ele>1760.000</ele>
        <time>2019-05-14T14:46:10Z</time>
      </trkpt>
      <trkpt lat="35.129657050" lon="-106.771708500">
        <ele>1759.000</ele>
        <time>2019-05-14T14:46:14Z</time>
      </trkpt>
      <trkpt lat="35.129697600" lon="-106.771716320">
        <ele>1761.000</ele>
        <time>2019-05-14T14:46:19Z</time>
      </trkpt>
      <trkpt lat="35.129740210" lon="-106.771714820">
        <ele>1761.000</ele>
        <time>2019-05-14T14:46:23Z</time>
      </trkpt>
      <trkpt lat="35.129781140" lon="-106.771708580">
        <ele>1762.000</ele>
        <time>2019-05-14T14:46:27Z</time>
      </trkpt>
      <trkpt lat="35.129817090" lon="-106.771698050">
        <ele>1762.000</ele>
        <time>2019-05-14T14:46:31Z</time>
      </trkpt>
      <trkpt lat="35.129859230" lon="-106.771680470">
        <ele>1760.000</ele>
        <time>2019-05-14T14:46:36Z</time>
      </trkpt>
      <trkpt lat="35.129906560" lon="-106.771677290">
        <ele>1759.000</ele>
        <time>2019-05-14T14:46:41Z</time>
      </trkpt>
      <trkpt lat="35.129948590" lon="-106.771675130">
        <ele>1759.000</ele>
        <time>2019-05-14T14:46:46Z</time>
      </trkpt>
      <trkpt lat="35.129984240" lon="-106.771667960">
        <ele>1759.000</ele>
        <time>2019-05-14T14:46:50Z</time>
      </trkpt>
      <trkpt lat="35.130024300" lon="-106.771663040">
        <ele>1759.000</ele>
        <time>2019-05-14T14:46:54Z</time>
      </trkpt>
      <trkpt lat="35.130060530" lon="-106.771656660">
        <ele>1760.000</ele>
        <time>2019-05-14T14:46:58Z</time>
      </trkpt>
      <trkpt lat="35.130097400" lon="-106.771651100">
        <ele>1761.000</ele>
        <time>2019-05-14T14:47:02Z</time>
      </trkpt>
      <trkpt lat="35.130141450" lon="-106.771634980">
        <ele>1761.000</ele>
        <time>2019-05-14T14:47:06Z</time>
      </trkpt>
      <trkpt lat="35.130181820" lon="-106.771618330">
        <ele>1760.000</ele>
        <time>2019-05-14T14:47:10Z</time>
      </trkpt>
      <trkpt lat="35.130218420" lon="-106.771620140">
        <ele>1761.000</ele>
        <time>2019-05-14T14:47:14Z</time>
      </trkpt>
      <trkpt lat="35.130257050" lon="-106.771612880">
        <ele>1760.000</ele>
        <time>2019-05-14T14:47:18Z</time>
      </trkpt>
      <trkpt lat="35.130291540" lon="-106.771590050">
        <ele>1760.000</ele>
        <time>2019-05-14T14:47:21Z</time>
      </trkpt>
      <trkpt lat="35.130335580" lon="-106.771582350">
        <ele>1761.000</ele>
        <time>2019-05-14T14:47:26Z</time>
      </trkpt>
      <trkpt lat="35.130376360" lon="-106.771565370">
        <ele>1763.000</ele>
        <time>2019-05-14T14:47:31Z</time>
      </trkpt>
      <trkpt lat="35.130419750" lon="-106.771584470">
        <ele>1762.000</ele>
        <time>2019-05-14T14:47:36Z</time>
      </trkpt>
      <trkpt lat="35.130455590" lon="-106.771605260">
        <ele>1763.000</ele>
        <time>2019-05-14T14:47:40Z</time>
      </trkpt>
      <trkpt lat="35.130489350" lon="-106.771631430">
        <ele>1763.000</ele>
        <time>2019-05-14T14:47:44Z</time>
      </trkpt>
      <trkpt lat="35.130524210" lon="-106.771662500">
        <ele>1764.000</ele>
        <time>2019-05-14T14:47:50Z</time>
      </trkpt>
      <trkpt lat="35.130563110" lon="-106.771679800">
        <ele>1763.000</ele>
        <time>2019-05-14T14:47:54Z</time>
      </trkpt>
      <trkpt lat="35.130595080" lon="-106.771706420">
        <ele>1764.000</ele>
        <time>2019-05-14T14:47:58Z</time>
      </trkpt>
      <trkpt lat="35.130634560" lon="-106.771681590">
        <ele>1763.000</ele>
        <time>2019-05-14T14:48:01Z</time>
      </trkpt>
      <trkpt lat="35.130673850" lon="-106.771660730">
        <ele>1764.000</ele>
        <time>2019-05-14T14:48:06Z</time>
      </trkpt>
      <trkpt lat="35.130710470" lon="-106.771640610">
        <ele>1765.000</ele>
        <time>2019-05-14T14:48:11Z</time>
      </trkpt>
      <trkpt lat="35.130747010" lon="-106.771623370">
        <ele>1765.000</ele>
        <time>2019-05-14T14:48:15Z</time>
      </trkpt>
      <trkpt lat="35.130783780" lon="-106.771607410">
        <ele>1766.000</ele>
        <time>2019-05-14T14:48:20Z</time>
      </trkpt>
      <trkpt lat="35.130824320" lon="-106.771589970">
        <ele>1766.000</ele>
        <time>2019-05-14T14:48:24Z</time>
      </trkpt>
      <trkpt lat="35.130858660" lon="-106.771558580">
        <ele>1765.000</ele>
        <time>2019-05-14T14:48:29Z</time>
      </trkpt>
      <trkpt lat="35.130876170" lon="-106.771516780">
        <ele>1766.000</ele>
        <time>2019-05-14T14:48:33Z</time>
      </trkpt>
      <trkpt lat="35.130903210" lon="-106.771477150">
        <ele>1766.000</ele>
        <time>2019-05-14T14:48:39Z</time>
      </trkpt>
      <trkpt lat="35.130924870" lon="-106.771430540">
        <ele>1766.000</ele>
        <time>2019-05-14T14:48:44Z</time>
      </trkpt>
      <trkpt lat="35.130957130" lon="-106.771393110">
        <ele>1767.000</ele>
        <time>2019-05-14T14:48:50Z</time>
      </trkpt>
      <trkpt lat="35.130989340" lon="-106.771365410">
        <ele>1769.000</ele>
        <time>2019-05-14T14:48:56Z</time>
      </trkpt>
      <trkpt lat="35.131021050" lon="-106.771343150">
        <ele>1770.000</ele>
        <time>2019-05-14T14:49:00Z</time>
      </trkpt>
      <trkpt lat="35.131062160" lon="-106.771345890">
        <ele>1771.000</ele>
        <time>2019-05-14T14:49:05Z</time>
      </trkpt>
      <trkpt lat="35.131101290" lon="-106.771326560">
        <ele>1771.000</ele>
        <time>2019-05-14T14:49:09Z</time>
      </trkpt>
      <trkpt lat="35.131142140" lon="-106.771306310">
        <ele>1771.000</ele>
        <time>2019-05-14T14:49:15Z</time>
      </trkpt>
      <trkpt lat="35.131182110" lon="-106.771292130">
        <ele>1772.000</ele>
        <time>2019-05-14T14:49:19Z</time>
      </trkpt>
      <trkpt lat="35.131219040" lon="-106.771274680">
        <ele>1773.000</ele>
        <time>2019-05-14T14:49:24Z</time>
      </trkpt>
      <trkpt lat="35.131257210" lon="-106.771259250">
        <ele>1774.000</ele>
        <time>2019-05-14T14:49:28Z</time>
      </trkpt>
      <trkpt lat="35.131292690" lon="-106.771224910">
        <ele>1773.000</ele>
        <time>2019-05-14T14:49:32Z</time>
      </trkpt>
      <trkpt lat="35.131327520" lon="-106.771193030">
        <ele>1772.000</ele>
        <time>2019-05-14T14:49:37Z</time>
      </trkpt>
      <trkpt lat="35.131347950" lon="-106.771156470">
        <ele>1772.000</ele>
        <time>2019-05-14T14:50:12Z</time>
      </trkpt>
      <trkpt lat="35.131311600" lon="-106.771142380">
        <ele>1770.000</ele>
        <time>2019-05-14T14:51:03Z</time>
      </trkpt>
      <trkpt lat="35.131352350" lon="-106.771150200">
        <ele>1772.000</ele>
        <time>2019-05-14T14:51:37Z</time>
      </trkpt>
      <trkpt lat="35.131397290" lon="-106.771140930">
        <ele>1773.000</ele>
        <time>2019-05-14T14:51:44Z</time>
      </trkpt>
      <trkpt lat="35.131436060" lon="-106.771108450">
        <ele>1773.000</ele>
        <time>2019-05-14T14:51:48Z</time>
      </trkpt>
      <trkpt lat="35.131471820" lon="-106.771079040">
        <ele>1772.000</ele>
        <time>2019-05-14T14:51:52Z</time>
      </trkpt>
      <trkpt lat="35.131503830" lon="-106.771049550">
        <ele>1773.000</ele>
        <time>2019-05-14T14:52:36Z</time>
      </trkpt>
      <trkpt lat="35.131540700" lon="-106.771052970">
        <ele>1774.000</ele>
        <time>2019-05-14T14:52:41Z</time>
      </trkpt>
      <trkpt lat="35.131582610" lon="-106.771050770">
        <ele>1776.000</ele>
        <time>2019-05-14T14:52:46Z</time>
      </trkpt>
      <trkpt lat="35.131618610" lon="-106.771027240">
        <ele>1776.000</ele>
        <time>2019-05-14T14:52:59Z</time>
      </trkpt>
      <trkpt lat="35.131642140" lon="-106.770984600">
        <ele>1776.000</ele>
        <time>2019-05-14T14:53:38Z</time>
      </trkpt>
      <trkpt lat="35.131683790" lon="-106.770972120">
        <ele>1776.000</ele>
        <time>2019-05-14T14:53:43Z</time>
      </trkpt>
      <trkpt lat="35.131725340" lon="-106.770966110">
        <ele>1777.000</ele>
        <time>2019-05-14T14:53:48Z</time>
      </trkpt>
      <trkpt lat="35.131765310" lon="-106.770953680">
        <ele>1778.000</ele>
        <time>2019-05-14T14:53:53Z</time>
      </trkpt>
      <trkpt lat="35.131793530" lon="-106.770923960">
        <ele>1779.000</ele>
        <time>2019-05-14T14:53:57Z</time>
      </trkpt>
      <trkpt lat="35.131806990" lon="-106.770881110">
        <ele>1780.000</ele>
        <time>2019-05-14T14:54:03Z</time>
      </trkpt>
      <trkpt lat="35.131827840" lon="-106.770841010">
        <ele>1781.000</ele>
        <time>2019-05-14T14:54:08Z</time>
      </trkpt>
      <trkpt lat="35.131856210" lon="-106.770809770">
        <ele>1782.000</ele>
        <time>2019-05-14T14:54:13Z</time>
      </trkpt>
      <trkpt lat="35.131901040" lon="-106.770791190">
        <ele>1780.000</ele>
        <time>2019-05-14T14:54:17Z</time>
      </trkpt>
      <trkpt lat="35.131940870" lon="-106.770798300">
        <ele>1783.000</ele>
        <time>2019-05-14T14:54:23Z</time>
      </trkpt>
      <trkpt lat="35.131963110" lon="-106.770763170">
        <ele>1781.000</ele>
        <time>2019-05-14T14:54:28Z</time>
      </trkpt>
      <trkpt lat="35.132000270" lon="-106.770763130">
        <ele>1783.000</ele>
        <time>2019-05-14T14:54:34Z</time>
      </trkpt>
      <trkpt lat="35.132035850" lon="-106.770728420">
        <ele>1783.000</ele>
        <time>2019-05-14T14:54:38Z</time>
      </trkpt>
      <trkpt lat="35.132051440" lon="-106.770684320">
        <ele>1784.000</ele>
        <time>2019-05-14T14:54:42Z</time>
      </trkpt>
      <trkpt lat="35.132051280" lon="-106.770636200">
        <ele>1783.000</ele>
        <time>2019-05-14T14:54:48Z</time>
      </trkpt>
      <trkpt lat="35.132051160" lon="-106.770585380">
        <ele>1782.000</ele>
        <time>2019-05-14T14:56:25Z</time>
      </trkpt>
      <trkpt lat="35.132088140" lon="-106.770589600">
        <ele>1780.000</ele>
        <time>2019-05-14T14:57:11Z</time>
      </trkpt>
      <trkpt lat="35.132106050" lon="-106.770629910">
        <ele>1779.000</ele>
        <time>2019-05-14T14:57:16Z</time>
      </trkpt>
      <trkpt lat="35.132134510" lon="-106.770672160">
        <ele>1778.000</ele>
        <time>2019-05-14T14:57:33Z</time>
      </trkpt>
      <trkpt lat="35.132169230" lon="-106.770687940">
        <ele>1781.000</ele>
        <time>2019-05-14T14:57:52Z</time>
      </trkpt>
      <trkpt lat="35.132213370" lon="-106.770673730">
        <ele>1781.000</ele>
        <time>2019-05-14T14:57:56Z</time>
      </trkpt>
      <trkpt lat="35.132250120" lon="-106.770671540">
        <ele>1781.000</ele>
        <time>2019-05-14T14:58:00Z</time>
      </trkpt>
      <trkpt lat="35.132296230" lon="-106.770656290">
        <ele>1781.000</ele>
        <time>2019-05-14T14:58:05Z</time>
      </trkpt>
      <trkpt lat="35.132333900" lon="-106.770646080">
        <ele>1780.000</ele>
        <time>2019-05-14T14:58:09Z</time>
      </trkpt>
      <trkpt lat="35.132370880" lon="-106.770634700">
        <ele>1780.000</ele>
        <time>2019-05-14T14:58:25Z</time>
      </trkpt>
      <trkpt lat="35.132412090" lon="-106.770630340">
        <ele>1781.000</ele>
        <time>2019-05-14T14:58:37Z</time>
      </trkpt>
      <trkpt lat="35.132453390" lon="-106.770629180">
        <ele>1781.000</ele>
        <time>2019-05-14T14:58:43Z</time>
      </trkpt>
      <trkpt lat="35.132486520" lon="-106.770651890">
        <ele>1783.000</ele>
        <time>2019-05-14T14:59:00Z</time>
      </trkpt>
      <trkpt lat="35.132525430" lon="-106.770650970">
        <ele>1784.000</ele>
        <time>2019-05-14T14:59:09Z</time>
      </trkpt>
      <trkpt lat="35.132566260" lon="-106.770641860">
        <ele>1784.000</ele>
        <time>2019-05-14T15:00:10Z</time>
      </trkpt>
      <trkpt lat="35.132604210" lon="-106.770634130">
        <ele>1784.000</ele>
        <time>2019-05-14T15:00:16Z</time>
      </trkpt>
      <trkpt lat="35.132611400" lon="-106.770590840">
        <ele>1784.000</ele>
        <time>2019-05-14T15:00:44Z</time>
      </trkpt>
      <trkpt lat="35.132652890" lon="-106.770619020">
        <ele>1782.000</ele>
        <time>2019-05-14T15:02:15Z</time>
      </trkpt>
      <trkpt lat="35.132668490" lon="-106.770663880">
        <ele>1782.000</ele>
        <time>2019-05-14T15:02:21Z</time>
      </trkpt>
      <trkpt lat="35.132656720" lon="-106.770706860">
        <ele>1783.000</ele>
        <time>2019-05-14T15:02:31Z</time>
      </trkpt>
      <trkpt lat="35.132691430" lon="-106.770689360">
        <ele>1785.000</ele>
        <time>2019-05-14T15:03:02Z</time>
      </trkpt>
      <trkpt lat="35.132725880" lon="-106.770721780">
        <ele>1787.000</ele>
        <time>2019-05-14T15:03:06Z</time>
      </trkpt>
      <trkpt lat="35.132760940" lon="-106.770746720">
        <ele>1786.000</ele>
        <time>2019-05-14T15:03:10Z</time>
      </trkpt>
      <trkpt lat="35.132795570" lon="-106.770767090">
        <ele>1785.000</ele>
        <time>2019-05-14T15:03:14Z</time>
      </trkpt>
      <trkpt lat="35.132820820" lon="-106.770799650">
        <ele>1786.000</ele>
        <time>2019-05-14T15:03:18Z</time>
      </trkpt>
      <trkpt lat="35.132851980" lon="-106.770822600">
        <ele>1786.000</ele>
        <time>2019-05-14T15:03:22Z</time>
      </trkpt>
      <trkpt lat="35.132890870" lon="-106.770839590">
        <ele>1785.000</ele>
        <time>2019-05-14T15:03:27Z</time>
      </trkpt>
      <trkpt lat="35.132924090" lon="-106.770871380">
        <ele>1786.000</ele>
        <time>2019-05-14T15:03:32Z</time>
      </trkpt>
      <trkpt lat="35.132950110" lon="-106.770907670">
        <ele>1788.000</ele>
        <time>2019-05-14T15:03:37Z</time>
      </trkpt>
      <trkpt lat="35.132988710" lon="-106.770917370">
        <ele>1788.000</ele>
        <time>2019-05-14T15:03:42Z</time>
      </trkpt>
      <trkpt lat="35.133024040" lon="-106.770932880">
        <ele>1787.000</ele>
        <time>2019-05-14T15:04:11Z</time>
      </trkpt>
      <trkpt lat="35.133060560" lon="-106.770934220">
        <ele>1787.000</ele>
        <time>2019-05-14T15:04:15Z</time>
      </trkpt>
      <trkpt lat="35.133100250" lon="-106.770945060">
        <ele>1786.000</ele>
        <time>2019-05-14T15:04:20Z</time>
      </trkpt>
      <trkpt lat="35.133130800" lon="-106.770974520">
        <ele>1787.000</ele>
        <time>2019-05-14T15:05:11Z</time>
      </trkpt>
      <trkpt lat="35.133152740" lon="-106.771011550">
        <ele>1786.000</ele>
        <time>2019-05-14T15:05:33Z</time>
      </trkpt>
      <trkpt lat="35.133169680" lon="-106.771053140">
        <ele>1787.000</ele>
        <time>2019-05-14T15:05:37Z</time>
      </trkpt>
      <trkpt lat="35.133195370" lon="-106.771097910">
        <ele>1786.000</ele>
        <time>2019-05-14T15:05:41Z</time>
      </trkpt>
      <trkpt lat="35.133198930" lon="-106.771153950">
        <ele>1786.000</ele>
        <time>2019-05-14T15:05:45Z</time>
      </trkpt>
      <trkpt lat="35.133225700" lon="-106.771194050">
        <ele>1786.000</ele>
        <time>2019-05-14T15:06:06Z</time>
      </trkpt>
      <trkpt lat="35.133239630" lon="-106.771238050">
        <ele>1785.000</ele>
        <time>2019-05-14T15:06:10Z</time>
      </trkpt>
      <trkpt lat="35.133252580" lon="-106.771281430">
        <ele>1786.000</ele>
        <time>2019-05-14T15:06:14Z</time>
      </trkpt>
      <trkpt lat="35.133273690" lon="-106.771326370">
        <ele>1786.000</ele>
        <time>2019-05-14T15:06:18Z</time>
      </trkpt>
      <trkpt lat="35.133292340" lon="-106.771377610">
        <ele>1787.000</ele>
        <time>2019-05-14T15:06:22Z</time>
      </trkpt>
      <trkpt lat="35.133319680" lon="-106.771424670">
        <ele>1786.000</ele>
        <time>2019-05-14T15:06:26Z</time>
      </trkpt>
      <trkpt lat="35.133338130" lon="-106.771470100">
        <ele>1786.000</ele>
        <time>2019-05-14T15:06:30Z</time>
      </trkpt>
      <trkpt lat="35.133351210" lon="-106.771512550">
        <ele>1787.000</ele>
        <time>2019-05-14T15:06:34Z</time>
      </trkpt>
      <trkpt lat="35.133354620" lon="-106.771558040">
        <ele>1788.000</ele>
        <time>2019-05-14T15:06:38Z</time>
      </trkpt>
      <trkpt lat="35.133378440" lon="-106.771591810">
        <ele>1788.000</ele>
        <time>2019-05-14T15:06:41Z</time>
      </trkpt>
      <trkpt lat="35.133403690" lon="-106.771638760">
        <ele>1787.000</ele>
        <time>2019-05-14T15:06:46Z</time>
      </trkpt>
      <trkpt lat="35.133418460" lon="-106.771685830">
        <ele>1788.000</ele>
        <time>2019-05-14T15:06:51Z</time>
      </trkpt>
      <trkpt lat="35.133413600" lon="-106.771731660">
        <ele>1788.000</ele>
        <time>2019-05-14T15:06:55Z</time>
      </trkpt>
      <trkpt lat="35.133410290" lon="-106.771775930">
        <ele>1788.000</ele>
        <time>2019-05-14T15:07:00Z</time>
      </trkpt>
      <trkpt lat="35.133372710" lon="-106.771757500">
        <ele>1790.000</ele>
        <time>2019-05-14T15:08:45Z</time>
      </trkpt>
      <trkpt lat="35.133333620" lon="-106.771747080">
        <ele>1791.000</ele>
        <time>2019-05-14T15:08:49Z</time>
      </trkpt>
      <trkpt lat="35.133298930" lon="-106.771731820">
        <ele>1790.000</ele>
        <time>2019-05-14T15:08:53Z</time>
      </trkpt>
      <trkpt lat="35.133256200" lon="-106.771730890">
        <ele>1791.000</ele>
        <time>2019-05-14T15:08:57Z</time>
      </trkpt>
      <trkpt lat="35.133219080" lon="-106.771731000">
        <ele>1792.000</ele>
        <time>2019-05-14T15:09:01Z</time>
      </trkpt>
      <trkpt lat="35.133184420" lon="-106.771745220">
        <ele>1793.000</ele>
        <time>2019-05-14T15:09:05Z</time>
      </trkpt>
      <trkpt lat="35.133141170" lon="-106.771768160">
        <ele>1793.000</ele>
        <time>2019-05-14T15:09:10Z</time>
      </trkpt>
      <trkpt lat="35.133110890" lon="-106.771792370">
        <ele>1795.000</ele>
        <time>2019-05-14T15:09:15Z</time>
      </trkpt>
      <trkpt lat="35.133076870" lon="-106.771775800">
        <ele>1796.000</ele>
        <time>2019-05-14T15:09:35Z</time>
      </trkpt>
      <trkpt lat="35.133042530" lon="-106.771795600">
        <ele>1797.000</ele>
        <time>2019-05-14T15:09:54Z</time>
      </trkpt>
      <trkpt lat="35.133015130" lon="-106.771827800">
        <ele>1797.000</ele>
        <time>2019-05-14T15:09:59Z</time>
      </trkpt>
      <trkpt lat="35.132979180" lon="-106.771843990">
        <ele>1795.000</ele>
        <time>2019-05-14T15:10:11Z</time>
      </trkpt>
      <trkpt lat="35.132936560" lon="-106.771862410">
        <ele>1796.000</ele>
        <time>2019-05-14T15:10:16Z</time>
      </trkpt>
      <trkpt lat="35.132894460" lon="-106.771876860">
        <ele>1797.000</ele>
        <time>2019-05-14T15:10:21Z</time>
      </trkpt>
      <trkpt lat="35.132856160" lon="-106.771874310">
        <ele>1796.000</ele>
        <time>2019-05-14T15:10:25Z</time>
      </trkpt>
      <trkpt lat="35.132815360" lon="-106.771857690">
        <ele>1797.000</ele>
        <time>2019-05-14T15:10:30Z</time>
      </trkpt>
      <trkpt lat="35.132775080" lon="-106.771844370">
        <ele>1798.000</ele>
        <time>2019-05-14T15:10:35Z</time>
      </trkpt>
      <trkpt lat="35.132743170" lon="-106.771818710">
        <ele>1799.000</ele>
        <time>2019-05-14T15:10:39Z</time>
      </trkpt>
      <trkpt lat="35.132704890" lon="-106.771797960">
        <ele>1801.000</ele>
        <time>2019-05-14T15:10:44Z</time>
      </trkpt>
      <trkpt lat="35.132666310" lon="-106.771775730">
        <ele>1802.000</ele>
        <time>2019-05-14T15:10:48Z</time>
      </trkpt>
      <trkpt lat="35.132634840" lon="-106.771745940">
        <ele>1801.000</ele>
        <time>2019-05-14T15:10:52Z</time>
      </trkpt>
      <trkpt lat="35.132594800" lon="-106.771716630">
        <ele>1801.000</ele>
        <time>2019-05-14T15:10:57Z</time>
      </trkpt>
      <trkpt lat="35.132567030" lon="-106.771688230">
        <ele>1802.000</ele>
        <time>2019-05-14T15:11:02Z</time>
      </trkpt>
      <trkpt lat="35.132546370" lon="-106.771732210">
        <ele>1802.000</ele>
        <time>2019-05-14T15:12:23Z</time>
      </trkpt>
      <trkpt lat="35.132543930" lon="-106.771781060">
        <ele>1800.000</ele>
        <time>2019-05-14T15:12:28Z</time>
      </trkpt>
      <trkpt lat="35.132536730" lon="-106.771826490">
        <ele>1801.000</ele>
        <time>2019-05-14T15:12:32Z</time>
      </trkpt>
      <trkpt lat="35.132531480" lon="-106.771881020">
        <ele>1800.000</ele>
        <time>2019-05-14T15:12:54Z</time>
      </trkpt>
      <trkpt lat="35.132532130" lon="-106.771935010">
        <ele>1801.000</ele>
        <time>2019-05-14T15:12:58Z</time>
      </trkpt>
      <trkpt lat="35.132545690" lon="-106.771982040">
        <ele>1800.000</ele>
        <time>2019-05-14T15:13:02Z</time>
      </trkpt>
      <trkpt lat="35.132551860" lon="-106.772025960">
        <ele>1801.000</ele>
        <time>2019-05-14T15:13:05Z</time>
      </trkpt>
      <trkpt lat="35.132557180" lon="-106.772078410">
        <ele>1801.000</ele>
        <time>2019-05-14T15:13:09Z</time>
      </trkpt>
      <trkpt lat="35.132568580" lon="-106.772125320">
        <ele>1801.000</ele>
        <time>2019-05-14T15:13:12Z</time>
      </trkpt>
      <trkpt lat="35.132567070" lon="-106.772179460">
        <ele>1801.000</ele>
        <time>2019-05-14T15:13:16Z</time>
      </trkpt>
      <trkpt lat="35.132557330" lon="-106.772233310">
        <ele>1801.000</ele>
        <time>2019-05-14T15:13:20Z</time>
      </trkpt>
      <trkpt lat="35.132552740" lon="-106.772286190">
        <ele>1801.000</ele>
        <time>2019-05-14T15:13:24Z</time>
      </trkpt>
      <trkpt lat="35.132545640" lon="-106.772343160">
        <ele>1801.000</ele>
        <time>2019-05-14T15:13:28Z</time>
      </trkpt>
      <trkpt lat="35.132540620" lon="-106.772400100">
        <ele>1801.000</ele>
        <time>2019-05-14T15:13:32Z</time>
      </trkpt>
      <trkpt lat="35.132541650" lon="-106.772458230">
        <ele>1802.000</ele>
        <time>2019-05-14T15:13:36Z</time>
      </trkpt>
      <trkpt lat="35.132551360" lon="-106.772508380">
        <ele>1801.000</ele>
        <time>2019-05-14T15:13:40Z</time>
      </trkpt>
      <trkpt lat="35.132560310" lon="-106.772559020">
        <ele>1801.000</ele>
        <time>2019-05-14T15:13:44Z</time>
      </trkpt>
      <trkpt lat="35.132557960" lon="-106.772616310">
        <ele>1802.000</ele>
        <time>2019-05-14T15:13:48Z</time>
      </trkpt>
      <trkpt lat="35.132554830" lon="-106.772670750">
        <ele>1802.000</ele>
        <time>2019-05-14T15:13:52Z</time>
      </trkpt>
      <trkpt lat="35.132562690" lon="-106.772726120">
        <ele>1803.000</ele>
        <time>2019-05-14T15:13:56Z</time>
      </trkpt>
      <trkpt lat="35.132587450" lon="-106.772765210">
        <ele>1804.000</ele>
        <time>2019-05-14T15:14:00Z</time>
      </trkpt>
      <trkpt lat="35.132626780" lon="-106.772770490">
        <ele>1804.000</ele>
        <time>2019-05-14T15:14:05Z</time>
      </trkpt>
      <trkpt lat="35.132592150" lon="-106.772749700">
        <ele>1803.000</ele>
        <time>2019-05-14T15:19:11Z</time>
      </trkpt>
      <trkpt lat="35.132565790" lon="-106.772716170">
        <ele>1803.000</ele>
        <time>2019-05-14T15:19:17Z</time>
      </trkpt>
      <trkpt lat="35.132561020" lon="-106.772665730">
        <ele>1804.000</ele>
        <time>2019-05-14T15:19:24Z</time>
      </trkpt>
      <trkpt lat="35.132577430" lon="-106.772615030">
        <ele>1804.000</ele>
        <time>2019-05-14T15:19:29Z</time>
      </trkpt>
      <trkpt lat="35.132584540" lon="-106.772568340">
        <ele>1805.000</ele>
        <time>2019-05-14T15:19:33Z</time>
      </trkpt>
      <trkpt lat="35.132571740" lon="-106.772522850">
        <ele>1805.000</ele>
        <time>2019-05-14T15:19:37Z</time>
      </trkpt>
      <trkpt lat="35.132563970" lon="-106.772472100">
        <ele>1805.000</ele>
        <time>2019-05-14T15:19:42Z</time>
      </trkpt>
      <trkpt lat="35.132562090" lon="-106.772425030">
        <ele>1805.000</ele>
        <time>2019-05-14T15:19:47Z</time>
      </trkpt>
      <trkpt lat="35.132565130" lon="-106.772379770">
        <ele>1805.000</ele>
        <time>2019-05-14T15:19:51Z</time>
      </trkpt>
      <trkpt lat="35.132559860" lon="-106.772324870">
        <ele>1805.000</ele>
        <time>2019-05-14T15:19:56Z</time>
      </trkpt>
      <trkpt lat="35.132561580" lon="-106.772280620">
        <ele>1803.000</ele>
        <time>2019-05-14T15:20:00Z</time>
      </trkpt>
      <trkpt lat="35.132568470" lon="-106.772232970">
        <ele>1803.000</ele>
        <time>2019-05-14T15:20:05Z</time>
      </trkpt>
      <trkpt lat="35.132575350" lon="-106.772188070">
        <ele>1803.000</ele>
        <time>2019-05-14T15:20:10Z</time>
      </trkpt>
      <trkpt lat="35.132599750" lon="-106.772153990">
        <ele>1802.000</ele>
        <time>2019-05-14T15:20:14Z</time>
      </trkpt>
      <trkpt lat="35.132624790" lon="-106.772115440">
        <ele>1802.000</ele>
        <time>2019-05-14T15:20:19Z</time>
      </trkpt>
      <trkpt lat="35.132657190" lon="-106.772080630">
        <ele>1802.000</ele>
        <time>2019-05-14T15:20:24Z</time>
      </trkpt>
      <trkpt lat="35.132685560" lon="-106.772043110">
        <ele>1802.000</ele>
        <time>2019-05-14T15:20:28Z</time>
      </trkpt>
      <trkpt lat="35.132713420" lon="-106.772007900">
        <ele>1801.000</ele>
        <time>2019-05-14T15:20:32Z</time>
      </trkpt>
      <trkpt lat="35.132747880" lon="-106.771978030">
        <ele>1801.000</ele>
        <time>2019-05-14T15:20:37Z</time>
      </trkpt>
      <trkpt lat="35.132781660" lon="-106.771947790">
        <ele>1800.000</ele>
        <time>2019-05-14T15:20:41Z</time>
      </trkpt>
      <trkpt lat="35.132814840" lon="-106.771919320">
        <ele>1799.000</ele>
        <time>2019-05-14T15:20:45Z</time>
      </trkpt>
      <trkpt lat="35.132853560" lon="-106.771888550">
        <ele>1799.000</ele>
        <time>2019-05-14T15:20:49Z</time>
      </trkpt>
      <trkpt lat="35.132892930" lon="-106.771875470">
        <ele>1798.000</ele>
        <time>2019-05-14T15:20:54Z</time>
      </trkpt>
      <trkpt lat="35.132938910" lon="-106.771870910">
        <ele>1798.000</ele>
        <time>2019-05-14T15:20:58Z</time>
      </trkpt>
      <trkpt lat="35.132976200" lon="-106.771859530">
        <ele>1797.000</ele>
        <time>2019-05-14T15:21:02Z</time>
      </trkpt>
      <trkpt lat="35.133016490" lon="-106.771853820">
        <ele>1798.000</ele>
        <time>2019-05-14T15:21:06Z</time>
      </trkpt>
      <trkpt lat="35.133054230" lon="-106.771836550">
        <ele>1798.000</ele>
        <time>2019-05-14T15:21:12Z</time>
      </trkpt>
      <trkpt lat="35.133091130" lon="-106.771819840">
        <ele>1798.000</ele>
        <time>2019-05-14T15:21:21Z</time>
      </trkpt>
      <trkpt lat="35.133129260" lon="-106.771813140">
        <ele>1797.000</ele>
        <time>2019-05-14T15:21:37Z</time>
      </trkpt>
      <trkpt lat="35.133162940" lon="-106.771794300">
        <ele>1796.000</ele>
        <time>2019-05-14T15:21:42Z</time>
      </trkpt>
      <trkpt lat="35.133198270" lon="-106.771780200">
        <ele>1794.000</ele>
        <time>2019-05-14T15:21:48Z</time>
      </trkpt>
      <trkpt lat="35.133233120" lon="-106.771751690">
        <ele>1793.000</ele>
        <time>2019-05-14T15:21:53Z</time>
      </trkpt>
      <trkpt lat="35.133273190" lon="-106.771751610">
        <ele>1792.000</ele>
        <time>2019-05-14T15:21:58Z</time>
      </trkpt>
      <trkpt lat="35.133315970" lon="-106.771750430">
        <ele>1791.000</ele>
        <time>2019-05-14T15:22:02Z</time>
      </trkpt>
      <trkpt lat="35.133355200" lon="-106.771742610">
        <ele>1790.000</ele>
        <time>2019-05-14T15:22:06Z</time>
      </trkpt>
      <trkpt lat="35.133388610" lon="-106.771760910">
        <ele>1791.000</ele>
        <time>2019-05-14T15:22:10Z</time>
      </trkpt>
      <trkpt lat="35.133402770" lon="-106.771815830">
        <ele>1790.000</ele>
        <time>2019-05-14T15:22:14Z</time>
      </trkpt>
      <trkpt lat="35.133403230" lon="-106.771864720">
        <ele>1790.000</ele>
        <time>2019-05-14T15:22:18Z</time>
      </trkpt>
      <trkpt lat="35.133415190" lon="-106.771910630">
        <ele>1790.000</ele>
        <time>2019-05-14T15:22:22Z</time>
      </trkpt>
      <trkpt lat="35.133428550" lon="-106.771958270">
        <ele>1789.000</ele>
        <time>2019-05-14T15:22:26Z</time>
      </trkpt>
      <trkpt lat="35.133441070" lon="-106.772006660">
        <ele>1789.000</ele>
        <time>2019-05-14T15:22:30Z</time>
      </trkpt>
      <trkpt lat="35.133450840" lon="-106.772059300">
        <ele>1790.000</ele>
        <time>2019-05-14T15:22:34Z</time>
      </trkpt>
      <trkpt lat="35.133477370" lon="-106.772103810">
        <ele>1789.000</ele>
        <time>2019-05-14T15:22:39Z</time>
      </trkpt>
      <trkpt lat="35.133494250" lon="-106.772149290">
        <ele>1788.000</ele>
        <time>2019-05-14T15:22:43Z</time>
      </trkpt>
      <trkpt lat="35.133511650" lon="-106.772201390">
        <ele>1788.000</ele>
        <time>2019-05-14T15:22:47Z</time>
      </trkpt>
      <trkpt lat="35.133543300" lon="-106.772240370">
        <ele>1787.000</ele>
        <time>2019-05-14T15:22:51Z</time>
      </trkpt>
      <trkpt lat="35.133563890" lon="-106.772277400">
        <ele>1788.000</ele>
        <time>2019-05-14T15:22:55Z</time>
      </trkpt>
      <trkpt lat="35.133583410" lon="-106.772317700">
        <ele>1788.000</ele>
        <time>2019-05-14T15:23:01Z</time>
      </trkpt>
      <trkpt lat="35.133616910" lon="-106.772334710">
        <ele>1787.000</ele>
        <time>2019-05-14T15:23:05Z</time>
      </trkpt>
      <trkpt lat="35.133654020" lon="-106.772333770">
        <ele>1786.000</ele>
        <time>2019-05-14T15:23:09Z</time>
      </trkpt>
      <trkpt lat="35.133694230" lon="-106.772333400">
        <ele>1786.000</ele>
        <time>2019-05-14T15:23:14Z</time>
      </trkpt>
      <trkpt lat="35.133734430" lon="-106.772329330">
        <ele>1786.000</ele>
        <time>2019-05-14T15:23:20Z</time>
      </trkpt>
      <trkpt lat="35.133771200" lon="-106.772314380">
        <ele>1785.000</ele>
        <time>2019-05-14T15:23:25Z</time>
      </trkpt>
      <trkpt lat="35.133814320" lon="-106.772314710">
        <ele>1785.000</ele>
        <time>2019-05-14T15:23:31Z</time>
      </trkpt>
      <trkpt lat="35.133850560" lon="-106.772318900">
        <ele>1785.000</ele>
        <time>2019-05-14T15:23:36Z</time>
      </trkpt>
      <trkpt lat="35.133891610" lon="-106.772335000">
        <ele>1785.000</ele>
        <time>2019-05-14T15:23:41Z</time>
      </trkpt>
      <trkpt lat="35.133930390" lon="-106.772361650">
        <ele>1784.000</ele>
        <time>2019-05-14T15:23:46Z</time>
      </trkpt>
      <trkpt lat="35.133963590" lon="-106.772382100">
        <ele>1785.000</ele>
        <time>2019-05-14T15:23:51Z</time>
      </trkpt>
      <trkpt lat="35.133994930" lon="-106.772405940">
        <ele>1785.000</ele>
        <time>2019-05-14T15:23:55Z</time>
      </trkpt>
      <trkpt lat="35.134028400" lon="-106.772428700">
        <ele>1784.000</ele>
        <time>2019-05-14T15:23:59Z</time>
      </trkpt>
      <trkpt lat="35.134063850" lon="-106.772447640">
        <ele>1784.000</ele>
        <time>2019-05-14T15:24:03Z</time>
      </trkpt>
      <trkpt lat="35.134101170" lon="-106.772463410">
        <ele>1783.000</ele>
        <time>2019-05-14T15:24:07Z</time>
      </trkpt>
      <trkpt lat="35.134142600" lon="-106.772475810">
        <ele>1783.000</ele>
        <time>2019-05-14T15:24:11Z</time>
      </trkpt>
      <trkpt lat="35.134177840" lon="-106.772487900">
        <ele>1784.000</ele>
        <time>2019-05-14T15:24:15Z</time>
      </trkpt>
      <trkpt lat="35.134220400" lon="-106.772498440">
        <ele>1782.000</ele>
        <time>2019-05-14T15:24:19Z</time>
      </trkpt>
      <trkpt lat="35.134259730" lon="-106.772494350">
        <ele>1781.000</ele>
        <time>2019-05-14T15:24:23Z</time>
      </trkpt>
      <trkpt lat="35.134296870" lon="-106.772499260">
        <ele>1781.000</ele>
        <time>2019-05-14T15:24:27Z</time>
      </trkpt>
      <trkpt lat="35.134331720" lon="-106.772514970">
        <ele>1781.000</ele>
        <time>2019-05-14T15:24:30Z</time>
      </trkpt>
      <trkpt lat="35.134375750" lon="-106.772538980">
        <ele>1782.000</ele>
        <time>2019-05-14T15:24:40Z</time>
      </trkpt>
      <trkpt lat="35.134423090" lon="-106.772550630">
        <ele>1781.000</ele>
        <time>2019-05-14T15:24:44Z</time>
      </trkpt>
      <trkpt lat="35.134464000" lon="-106.772563890">
        <ele>1779.000</ele>
        <time>2019-05-14T15:24:47Z</time>
      </trkpt>
      <trkpt lat="35.134504410" lon="-106.772584550">
        <ele>1779.000</ele>
        <time>2019-05-14T15:24:52Z</time>
      </trkpt>
      <trkpt lat="35.134541080" lon="-106.772584620">
        <ele>1778.000</ele>
        <time>2019-05-14T15:24:55Z</time>
      </trkpt>
      <trkpt lat="35.134578340" lon="-106.772611340">
        <ele>1780.000</ele>
        <time>2019-05-14T15:24:59Z</time>
      </trkpt>
      <trkpt lat="35.134615110" lon="-106.772642420">
        <ele>1781.000</ele>
        <time>2019-05-14T15:25:03Z</time>
      </trkpt>
      <trkpt lat="35.134653760" lon="-106.772645830">
        <ele>1781.000</ele>
        <time>2019-05-14T15:25:06Z</time>
      </trkpt>
      <trkpt lat="35.134687940" lon="-106.772664360">
        <ele>1779.000</ele>
        <time>2019-05-14T15:25:09Z</time>
      </trkpt>
      <trkpt lat="35.134718370" lon="-106.772702320">
        <ele>1780.000</ele>
        <time>2019-05-14T15:25:13Z</time>
      </trkpt>
      <trkpt lat="35.134752490" lon="-106.772717060">
        <ele>1780.000</ele>
        <time>2019-05-14T15:25:16Z</time>
      </trkpt>
      <trkpt lat="35.134796240" lon="-106.772726710">
        <ele>1780.000</ele>
        <time>2019-05-14T15:25:21Z</time>
      </trkpt>
      <trkpt lat="35.134836650" lon="-106.772747150">
        <ele>1780.000</ele>
        <time>2019-05-14T15:25:26Z</time>
      </trkpt>
      <trkpt lat="35.134871320" lon="-106.772763470">
        <ele>1780.000</ele>
        <time>2019-05-14T15:25:31Z</time>
      </trkpt>
      <trkpt lat="35.134900390" lon="-106.772793730">
        <ele>1779.000</ele>
        <time>2019-05-14T15:25:36Z</time>
      </trkpt>
      <trkpt lat="35.134937640" lon="-106.772811190">
        <ele>1778.000</ele>
        <time>2019-05-14T15:25:42Z</time>
      </trkpt>
      <trkpt lat="35.134977260" lon="-106.772833180">
        <ele>1779.000</ele>
        <time>2019-05-14T15:25:47Z</time>
      </trkpt>
      <trkpt lat="35.135012750" lon="-106.772850250">
        <ele>1777.000</ele>
        <time>2019-05-14T15:25:51Z</time>
      </trkpt>
      <trkpt lat="35.135042140" lon="-106.772875720">
        <ele>1778.000</ele>
        <time>2019-05-14T15:25:55Z</time>
      </trkpt>
      <trkpt lat="35.135080590" lon="-106.772894160">
        <ele>1778.000</ele>
        <time>2019-05-14T15:26:00Z</time>
      </trkpt>
      <trkpt lat="35.135114770" lon="-106.772917990">
        <ele>1778.000</ele>
        <time>2019-05-14T15:26:05Z</time>
      </trkpt>
      <trkpt lat="35.135152780" lon="-106.772934750">
        <ele>1777.000</ele>
        <time>2019-05-14T15:26:10Z</time>
      </trkpt>
      <trkpt lat="35.135189780" lon="-106.772964930">
        <ele>1778.000</ele>
        <time>2019-05-14T15:26:15Z</time>
      </trkpt>
      <trkpt lat="35.135224570" lon="-106.772980510">
        <ele>1776.000</ele>
        <time>2019-05-14T15:26:19Z</time>
      </trkpt>
      <trkpt lat="35.135258530" lon="-106.772995830">
        <ele>1778.000</ele>
        <time>2019-05-14T15:26:23Z</time>
      </trkpt>
      <trkpt lat="35.135294130" lon="-106.773010510">
        <ele>1778.000</ele>
        <time>2019-05-14T15:26:27Z</time>
      </trkpt>
      <trkpt lat="35.135331980" lon="-106.773020950">
        <ele>1779.000</ele>
        <time>2019-05-14T15:26:31Z</time>
      </trkpt>
      <trkpt lat="35.135371890" lon="-106.773003500">
        <ele>1778.000</ele>
        <time>2019-05-14T15:26:35Z</time>
      </trkpt>
      <trkpt lat="35.135408820" lon="-106.772973640">
        <ele>1777.000</ele>
        <time>2019-05-14T15:26:49Z</time>
      </trkpt>
      <trkpt lat="35.135373100" lon="-106.772996260">
        <ele>1777.000</ele>
        <time>2019-05-14T15:26:54Z</time>
      </trkpt>
      <trkpt lat="35.135414010" lon="-106.772974640">
        <ele>1776.000</ele>
        <time>2019-05-14T15:27:08Z</time>
      </trkpt>
      <trkpt lat="35.135450750" lon="-106.772954580">
        <ele>1776.000</ele>
        <time>2019-05-14T15:27:12Z</time>
      </trkpt>
      <trkpt lat="35.135488970" lon="-106.772929360">
        <ele>1776.000</ele>
        <time>2019-05-14T15:27:16Z</time>
      </trkpt>
      <trkpt lat="35.135517250" lon="-106.772880800">
        <ele>1777.000</ele>
        <time>2019-05-14T15:27:20Z</time>
      </trkpt>
      <trkpt lat="35.135537560" lon="-106.772837650">
        <ele>1776.000</ele>
        <time>2019-05-14T15:27:24Z</time>
      </trkpt>
      <trkpt lat="35.135551070" lon="-106.772791420">
        <ele>1776.000</ele>
        <time>2019-05-14T15:27:28Z</time>
      </trkpt>
      <trkpt lat="35.135560410" lon="-106.772731450">
        <ele>1777.000</ele>
        <time>2019-05-14T15:27:33Z</time>
      </trkpt>
      <trkpt lat="35.135556200" lon="-106.772684980">
        <ele>1778.000</ele>
        <time>2019-05-14T15:27:38Z</time>
      </trkpt>
      <trkpt lat="35.135552100" lon="-106.772629520">
        <ele>1778.000</ele>
        <time>2019-05-14T15:27:42Z</time>
      </trkpt>
      <trkpt lat="35.135539150" lon="-106.772585790">
        <ele>1778.000</ele>
        <time>2019-05-14T15:27:46Z</time>
      </trkpt>
      <trkpt lat="35.135532510" lon="-106.772533120">
        <ele>1779.000</ele>
        <time>2019-05-14T15:27:50Z</time>
      </trkpt>
      <trkpt lat="35.135519400" lon="-106.772486500">
        <ele>1779.000</ele>
        <time>2019-05-14T15:27:54Z</time>
      </trkpt>
      <trkpt lat="35.135529910" lon="-106.772427970">
        <ele>1779.000</ele>
        <time>2019-05-14T15:27:58Z</time>
      </trkpt>
      <trkpt lat="35.135552570" lon="-106.772390020">
        <ele>1780.000</ele>
        <time>2019-05-14T15:28:02Z</time>
      </trkpt>
      <trkpt lat="35.135573750" lon="-106.772353700">
        <ele>1779.000</ele>
        <time>2019-05-14T15:28:05Z</time>
      </trkpt>
      <trkpt lat="35.135596610" lon="-106.772312510">
        <ele>1779.000</ele>
        <time>2019-05-14T15:28:09Z</time>
      </trkpt>
      <trkpt lat="35.135620350" lon="-106.772273590">
        <ele>1778.000</ele>
        <time>2019-05-14T15:28:13Z</time>
      </trkpt>
      <trkpt lat="35.135639900" lon="-106.772225610">
        <ele>1778.000</ele>
        <time>2019-05-14T15:28:17Z</time>
      </trkpt>
      <trkpt lat="35.135660070" lon="-106.772179800">
        <ele>1778.000</ele>
        <time>2019-05-14T15:28:21Z</time>
      </trkpt>
      <trkpt lat="35.135681830" lon="-106.772134720">
        <ele>1777.000</ele>
        <time>2019-05-14T15:28:25Z</time>
      </trkpt>
      <trkpt lat="35.135710340" lon="-106.772094030">
        <ele>1777.000</ele>
        <time>2019-05-14T15:28:30Z</time>
      </trkpt>
      <trkpt lat="35.135719270" lon="-106.772051330">
        <ele>1775.000</ele>
        <time>2019-05-14T15:28:41Z</time>
      </trkpt>
      <trkpt lat="35.135747660" lon="-106.772007910">
        <ele>1775.000</ele>
        <time>2019-05-14T15:28:54Z</time>
      </trkpt>
      <trkpt lat="35.135772730" lon="-106.771967680">
        <ele>1775.000</ele>
        <time>2019-05-14T15:28:59Z</time>
      </trkpt>
      <trkpt lat="35.135805630" lon="-106.771935040">
        <ele>1775.000</ele>
        <time>2019-05-14T15:29:04Z</time>
      </trkpt>
      <trkpt lat="35.135841100" lon="-106.771909830">
        <ele>1775.000</ele>
        <time>2019-05-14T15:29:08Z</time>
      </trkpt>
      <trkpt lat="35.135876470" lon="-106.771878910">
        <ele>1775.000</ele>
        <time>2019-05-14T15:29:12Z</time>
      </trkpt>
      <trkpt lat="35.135907360" lon="-106.771841710">
        <ele>1775.000</ele>
        <time>2019-05-14T15:29:16Z</time>
      </trkpt>
      <trkpt lat="35.135935450" lon="-106.771802520">
        <ele>1775.000</ele>
        <time>2019-05-14T15:29:20Z</time>
      </trkpt>
      <trkpt lat="35.135967650" lon="-106.771767970">
        <ele>1774.000</ele>
        <time>2019-05-14T15:29:25Z</time>
      </trkpt>
      <trkpt lat="35.136005790" lon="-106.771743470">
        <ele>1774.000</ele>
        <time>2019-05-14T15:29:29Z</time>
      </trkpt>
      <trkpt lat="35.136042710" lon="-106.771712670">
        <ele>1773.000</ele>
        <time>2019-05-14T15:29:34Z</time>
      </trkpt>
      <trkpt lat="35.136073000" lon="-106.771684040">
        <ele>1773.000</ele>
        <time>2019-05-14T15:29:38Z</time>
      </trkpt>
      <trkpt lat="35.136097550" lon="-106.771651160">
        <ele>1772.000</ele>
        <time>2019-05-14T15:29:41Z</time>
      </trkpt>
      <trkpt lat="35.136131060" lon="-106.771634890">
        <ele>1773.000</ele>
        <time>2019-05-14T15:29:46Z</time>
      </trkpt>
      <trkpt lat="35.136168150" lon="-106.771613680">
        <ele>1772.000</ele>
        <time>2019-05-14T15:29:51Z</time>
      </trkpt>
      <trkpt lat="35.136207910" lon="-106.771619380">
        <ele>1771.000</ele>
        <time>2019-05-14T15:30:00Z</time>
      </trkpt>
      <trkpt lat="35.136252490" lon="-106.771624550">
        <ele>1771.000</ele>
        <time>2019-05-14T15:30:04Z</time>
      </trkpt>
      <trkpt lat="35.136292250" lon="-106.771646650">
        <ele>1771.000</ele>
        <time>2019-05-14T15:30:08Z</time>
      </trkpt>
      <trkpt lat="35.136329900" lon="-106.771662950">
        <ele>1771.000</ele>
        <time>2019-05-14T15:30:12Z</time>
      </trkpt>
      <trkpt lat="35.136364130" lon="-106.771689950">
        <ele>1771.000</ele>
        <time>2019-05-14T15:30:17Z</time>
      </trkpt>
      <trkpt lat="35.136400580" lon="-106.771712110">
        <ele>1770.000</ele>
        <time>2019-05-14T15:30:20Z</time>
      </trkpt>
      <trkpt lat="35.136437370" lon="-106.771747600">
        <ele>1770.000</ele>
        <time>2019-05-14T15:30:24Z</time>
      </trkpt>
      <trkpt lat="35.136469520" lon="-106.771779110">
        <ele>1772.000</ele>
        <time>2019-05-14T15:30:29Z</time>
      </trkpt>
      <trkpt lat="35.136500920" lon="-106.771801770">
        <ele>1771.000</ele>
        <time>2019-05-14T15:30:33Z</time>
      </trkpt>
      <trkpt lat="35.136533210" lon="-106.771829830">
        <ele>1771.000</ele>
        <time>2019-05-14T15:30:38Z</time>
      </trkpt>
      <trkpt lat="35.136571140" lon="-106.771854260">
        <ele>1771.000</ele>
        <time>2019-05-14T15:30:44Z</time>
      </trkpt>
      <trkpt lat="35.136602820" lon="-106.771886650">
        <ele>1771.000</ele>
        <time>2019-05-14T15:30:49Z</time>
      </trkpt>
      <trkpt lat="35.136634950" lon="-106.771922220">
        <ele>1770.000</ele>
        <time>2019-05-14T15:30:53Z</time>
      </trkpt>
      <trkpt lat="35.136670220" lon="-106.771943450">
        <ele>1769.000</ele>
        <time>2019-05-14T15:30:57Z</time>
      </trkpt>
      <trkpt lat="35.136706660" lon="-106.771958520">
        <ele>1768.000</ele>
        <time>2019-05-14T15:31:01Z</time>
      </trkpt>
      <trkpt lat="35.136743840" lon="-106.771973940">
        <ele>1769.000</ele>
        <time>2019-05-14T15:31:05Z</time>
      </trkpt>
      <trkpt lat="35.136790750" lon="-106.771977510">
        <ele>1768.000</ele>
        <time>2019-05-14T15:31:09Z</time>
      </trkpt>
      <trkpt lat="35.136831440" lon="-106.771976000">
        <ele>1767.000</ele>
        <time>2019-05-14T15:31:13Z</time>
      </trkpt>
      <trkpt lat="35.136873830" lon="-106.771970860">
        <ele>1768.000</ele>
        <time>2019-05-14T15:31:17Z</time>
      </trkpt>
      <trkpt lat="35.136915760" lon="-106.771957880">
        <ele>1766.000</ele>
        <time>2019-05-14T15:31:21Z</time>
      </trkpt>
      <trkpt lat="35.136956610" lon="-106.771941860">
        <ele>1766.000</ele>
        <time>2019-05-14T15:31:25Z</time>
      </trkpt>
      <trkpt lat="35.136992450" lon="-106.771923600">
        <ele>1766.000</ele>
        <time>2019-05-14T15:31:29Z</time>
      </trkpt>
      <trkpt lat="35.137024880" lon="-106.771902850">
        <ele>1764.000</ele>
        <time>2019-05-14T15:31:32Z</time>
      </trkpt>
      <trkpt lat="35.137056950" lon="-106.771881140">
        <ele>1763.000</ele>
        <time>2019-05-14T15:31:35Z</time>
      </trkpt>
      <trkpt lat="35.137099350" lon="-106.771862450">
        <ele>1764.000</ele>
        <time>2019-05-14T15:31:39Z</time>
      </trkpt>
      <trkpt lat="35.137133730" lon="-106.771838660">
        <ele>1764.000</ele>
        <time>2019-05-14T15:31:43Z</time>
      </trkpt>
      <trkpt lat="35.137169470" lon="-106.771815920">
        <ele>1764.000</ele>
        <time>2019-05-14T15:31:47Z</time>
      </trkpt>
      <trkpt lat="35.137205650" lon="-106.771793820">
        <ele>1764.000</ele>
        <time>2019-05-14T15:31:51Z</time>
      </trkpt>
      <trkpt lat="35.137243100" lon="-106.771780600">
        <ele>1764.000</ele>
        <time>2019-05-14T15:31:55Z</time>
      </trkpt>
      <trkpt lat="35.137284980" lon="-106.771755540">
        <ele>1764.000</ele>
        <time>2019-05-14T15:31:59Z</time>
      </trkpt>
      <trkpt lat="35.137321670" lon="-106.771730350">
        <ele>1763.000</ele>
        <time>2019-05-14T15:32:03Z</time>
      </trkpt>
      <trkpt lat="35.137360020" lon="-106.771713270">
        <ele>1764.000</ele>
        <time>2019-05-14T15:32:14Z</time>
      </trkpt>
      <trkpt lat="35.137398740" lon="-106.771694740">
        <ele>1763.000</ele>
        <time>2019-05-14T15:32:31Z</time>
      </trkpt>
      <trkpt lat="35.137439610" lon="-106.771673630">
        <ele>1762.000</ele>
        <time>2019-05-14T15:32:35Z</time>
      </trkpt>
      <trkpt lat="35.137479530" lon="-106.771654430">
        <ele>1762.000</ele>
        <time>2019-05-14T15:32:39Z</time>
      </trkpt>
      <trkpt lat="35.137518840" lon="-106.771636870">
        <ele>1761.000</ele>
        <time>2019-05-14T15:32:43Z</time>
      </trkpt>
      <trkpt lat="35.137553720" lon="-106.771609240">
        <ele>1761.000</ele>
        <time>2019-05-14T15:32:47Z</time>
      </trkpt>
      <trkpt lat="35.137593910" lon="-106.771602870">
        <ele>1760.000</ele>
        <time>2019-05-14T15:32:50Z</time>
      </trkpt>
      <trkpt lat="35.137630990" lon="-106.771589820">
        <ele>1760.000</ele>
        <time>2019-05-14T15:32:53Z</time>
      </trkpt>
      <trkpt lat="35.137661770" lon="-106.771551960">
        <ele>1760.000</ele>
        <time>2019-05-14T15:32:57Z</time>
      </trkpt>
      <trkpt lat="35.137700160" lon="-106.771530550">
        <ele>1760.000</ele>
        <time>2019-05-14T15:33:01Z</time>
      </trkpt>
      <trkpt lat="35.137744450" lon="-106.771509460">
        <ele>1758.000</ele>
        <time>2019-05-14T15:33:06Z</time>
      </trkpt>
      <trkpt lat="35.137778310" lon="-106.771480870">
        <ele>1759.000</ele>
        <time>2019-05-14T15:33:35Z</time>
      </trkpt>
      <trkpt lat="35.137802200" lon="-106.771447220">
        <ele>1759.000</ele>
        <time>2019-05-14T15:33:48Z</time>
      </trkpt>
      <trkpt lat="35.137833200" lon="-106.771419890">
        <ele>1759.000</ele>
        <time>2019-05-14T15:33:52Z</time>
      </trkpt>
      <trkpt lat="35.137873380" lon="-106.771403770">
        <ele>1759.000</ele>
        <time>2019-05-14T15:33:57Z</time>
      </trkpt>
      <trkpt lat="35.137909840" lon="-106.771375770">
        <ele>1758.000</ele>
        <time>2019-05-14T15:34:01Z</time>
      </trkpt>
      <trkpt lat="35.137945500" lon="-106.771343420">
        <ele>1758.000</ele>
        <time>2019-05-14T15:34:05Z</time>
      </trkpt>
      <trkpt lat="35.137985580" lon="-106.771316310">
        <ele>1757.000</ele>
        <time>2019-05-14T15:34:09Z</time>
      </trkpt>
      <trkpt lat="35.138020700" lon="-106.771283880">
        <ele>1757.000</ele>
        <time>2019-05-14T15:34:13Z</time>
      </trkpt>
      <trkpt lat="35.138057640" lon="-106.771249170">
        <ele>1757.000</ele>
        <time>2019-05-14T15:34:17Z</time>
      </trkpt>
      <trkpt lat="35.138095320" lon="-106.771216850">
        <ele>1757.000</ele>
        <time>2019-05-14T15:34:21Z</time>
      </trkpt>
      <trkpt lat="35.138124810" lon="-106.771176580">
        <ele>1759.000</ele>
        <time>2019-05-14T15:35:12Z</time>
      </trkpt>
      <trkpt lat="35.138158000" lon="-106.771146160">
        <ele>1759.000</ele>
        <time>2019-05-14T15:35:16Z</time>
      </trkpt>
      <trkpt lat="35.138193260" lon="-106.771114630">
        <ele>1758.000</ele>
        <time>2019-05-14T15:36:37Z</time>
      </trkpt>
      <trkpt lat="35.138218120" lon="-106.771077790">
        <ele>1758.000</ele>
        <time>2019-05-14T15:36:40Z</time>
      </trkpt>
      <trkpt lat="35.138250790" lon="-106.771045930">
        <ele>1757.000</ele>
        <time>2019-05-14T15:36:43Z</time>
      </trkpt>
      <trkpt lat="35.138284220" lon="-106.771005390">
        <ele>1756.000</ele>
        <time>2019-05-14T15:36:46Z</time>
      </trkpt>
      <trkpt lat="35.138312730" lon="-106.770977440">
        <ele>1756.000</ele>
        <time>2019-05-14T15:36:48Z</time>
      </trkpt>
      <trkpt lat="35.138356090" lon="-106.770945150">
        <ele>1760.000</ele>
        <time>2019-05-14T15:37:13Z</time>
      </trkpt>
      <trkpt lat="35.138381900" lon="-106.770910510">
        <ele>1760.000</ele>
        <time>2019-05-14T15:37:16Z</time>
      </trkpt>
      <trkpt lat="35.138407700" lon="-106.770875090">
        <ele>1760.000</ele>
        <time>2019-05-14T15:37:19Z</time>
      </trkpt>
      <trkpt lat="35.138440060" lon="-106.770836650">
        <ele>1759.000</ele>
        <time>2019-05-14T15:37:22Z</time>
      </trkpt>
      <trkpt lat="35.138470100" lon="-106.770797750">
        <ele>1759.000</ele>
        <time>2019-05-14T15:37:25Z</time>
      </trkpt>
      <trkpt lat="35.138494460" lon="-106.770761880">
        <ele>1759.000</ele>
        <time>2019-05-14T15:37:28Z</time>
      </trkpt>
      <trkpt lat="35.138495130" lon="-106.770716360">
        <ele>1758.000</ele>
        <time>2019-05-14T15:37:48Z</time>
      </trkpt>
      <trkpt lat="35.138525120" lon="-106.770682560">
        <ele>1758.000</ele>
        <time>2019-05-14T15:37:51Z</time>
      </trkpt>
      <trkpt lat="35.138545750" lon="-106.770629060">
        <ele>1758.000</ele>
        <time>2019-05-14T15:37:55Z</time>
      </trkpt>
      <trkpt lat="35.138572830" lon="-106.770590050">
        <ele>1758.000</ele>
        <time>2019-05-14T15:37:58Z</time>
      </trkpt>
      <trkpt lat="35.138600200" lon="-106.770549450">
        <ele>1758.000</ele>
        <time>2019-05-14T15:38:01Z</time>
      </trkpt>
      <trkpt lat="35.138632380" lon="-106.770510980">
        <ele>1758.000</ele>
        <time>2019-05-14T15:38:04Z</time>
      </trkpt>
      <trkpt lat="35.138673230" lon="-106.770471510">
        <ele>1758.000</ele>
        <time>2019-05-14T15:38:07Z</time>
      </trkpt>
      <trkpt lat="35.138705070" lon="-106.770436180">
        <ele>1758.000</ele>
        <time>2019-05-14T15:38:10Z</time>
      </trkpt>
      <trkpt lat="35.138738040" lon="-106.770405850">
        <ele>1757.000</ele>
        <time>2019-05-14T15:38:13Z</time>
      </trkpt>
      <trkpt lat="35.138764490" lon="-106.770375500">
        <ele>1758.000</ele>
        <time>2019-05-14T15:38:16Z</time>
      </trkpt>
      <trkpt lat="35.138804120" lon="-106.770345030">
        <ele>1758.000</ele>
        <time>2019-05-14T15:38:19Z</time>
      </trkpt>
      <trkpt lat="35.138835570" lon="-106.770319220">
        <ele>1758.000</ele>
        <time>2019-05-14T15:38:22Z</time>
      </trkpt>
      <trkpt lat="35.138866780" lon="-106.770283270">
        <ele>1757.000</ele>
        <time>2019-05-14T15:38:25Z</time>
      </trkpt>
      <trkpt lat="35.138901440" lon="-106.770262590">
        <ele>1757.000</ele>
        <time>2019-05-14T15:38:28Z</time>
      </trkpt>
      <trkpt lat="35.138939060" lon="-106.770240890">
        <ele>1757.000</ele>
        <time>2019-05-14T15:38:31Z</time>
      </trkpt>
      <trkpt lat="35.138977320" lon="-106.770209450">
        <ele>1757.000</ele>
        <time>2019-05-14T15:38:34Z</time>
      </trkpt>
      <trkpt lat="35.139011880" lon="-106.770180740">
        <ele>1758.000</ele>
        <time>2019-05-14T15:38:37Z</time>
      </trkpt>
      <trkpt lat="35.139043820" lon="-106.770149790">
        <ele>1758.000</ele>
        <time>2019-05-14T15:38:40Z</time>
      </trkpt>
      <trkpt lat="35.139068280" lon="-106.770116260">
        <ele>1757.000</ele>
        <time>2019-05-14T15:38:43Z</time>
      </trkpt>
      <trkpt lat="35.139110460" lon="-106.770088690">
        <ele>1757.000</ele>
        <time>2019-05-14T15:38:46Z</time>
      </trkpt>
      <trkpt lat="35.139150090" lon="-106.770060960">
        <ele>1758.000</ele>
        <time>2019-05-14T15:38:49Z</time>
      </trkpt>
      <trkpt lat="35.139184760" lon="-106.770040600">
        <ele>1757.000</ele>
        <time>2019-05-14T15:38:52Z</time>
      </trkpt>
      <trkpt lat="35.139219890" lon="-106.770015590">
        <ele>1757.000</ele>
        <time>2019-05-14T15:38:55Z</time>
      </trkpt>
      <trkpt lat="35.139257750" lon="-106.769990420">
        <ele>1757.000</ele>
        <time>2019-05-14T15:38:58Z</time>
      </trkpt>
      <trkpt lat="35.139300380" lon="-106.769970610">
        <ele>1756.000</ele>
        <time>2019-05-14T15:39:01Z</time>
      </trkpt>
      <trkpt lat="35.139346390" lon="-106.769948310">
        <ele>1756.000</ele>
        <time>2019-05-14T15:39:05Z</time>
      </trkpt>
      <trkpt lat="35.139383640" lon="-106.769929500">
        <ele>1755.000</ele>
        <time>2019-05-14T15:39:08Z</time>
      </trkpt>
      <trkpt lat="35.139421430" lon="-106.769922010">
        <ele>1754.000</ele>
        <time>2019-05-14T15:39:11Z</time>
      </trkpt>
      <trkpt lat="35.139458150" lon="-106.769918210">
        <ele>1754.000</ele>
        <time>2019-05-14T15:39:14Z</time>
      </trkpt>
      <trkpt lat="35.139495300" lon="-106.769913210">
        <ele>1754.000</ele>
        <time>2019-05-14T15:39:17Z</time>
      </trkpt>
      <trkpt lat="35.139533040" lon="-106.769904330">
        <ele>1755.000</ele>
        <time>2019-05-14T15:39:20Z</time>
      </trkpt>
      <trkpt lat="35.139582880" lon="-106.769897630">
        <ele>1754.000</ele>
        <time>2019-05-14T15:39:24Z</time>
      </trkpt>
      <trkpt lat="35.139631660" lon="-106.769890570">
        <ele>1755.000</ele>
        <time>2019-05-14T15:39:27Z</time>
      </trkpt>
      <trkpt lat="35.139676300" lon="-106.769904910">
        <ele>1756.000</ele>
        <time>2019-05-14T15:39:31Z</time>
      </trkpt>
      <trkpt lat="35.139714210" lon="-106.769917530">
        <ele>1755.000</ele>
        <time>2019-05-14T15:39:35Z</time>
      </trkpt>
      <trkpt lat="35.139752680" lon="-106.769946480">
        <ele>1757.000</ele>
        <time>2019-05-14T15:39:40Z</time>
      </trkpt>
      <trkpt lat="35.139794920" lon="-106.769972600">
        <ele>1757.000</ele>
        <time>2019-05-14T15:39:45Z</time>
      </trkpt>
      <trkpt lat="35.139828970" lon="-106.769994830">
        <ele>1756.000</ele>
        <time>2019-05-14T15:39:50Z</time>
      </trkpt>
      <trkpt lat="35.139866510" lon="-106.770031940">
        <ele>1759.000</ele>
        <time>2019-05-14T15:40:03Z</time>
      </trkpt>
      <trkpt lat="35.139901140" lon="-106.770058360">
        <ele>1758.000</ele>
        <time>2019-05-14T15:40:06Z</time>
      </trkpt>
      <trkpt lat="35.139928640" lon="-106.770093220">
        <ele>1759.000</ele>
        <time>2019-05-14T15:40:09Z</time>
      </trkpt>
      <trkpt lat="35.139965280" lon="-106.770118360">
        <ele>1759.000</ele>
        <time>2019-05-14T15:40:12Z</time>
      </trkpt>
      <trkpt lat="35.140004620" lon="-106.770159490">
        <ele>1759.000</ele>
        <time>2019-05-14T15:40:16Z</time>
      </trkpt>
      <trkpt lat="35.140037650" lon="-106.770189490">
        <ele>1759.000</ele>
        <time>2019-05-14T15:40:19Z</time>
      </trkpt>
      <trkpt lat="35.140073730" lon="-106.770212340">
        <ele>1759.000</ele>
        <time>2019-05-14T15:40:22Z</time>
      </trkpt>
      <trkpt lat="35.140096660" lon="-106.770251110">
        <ele>1759.000</ele>
        <time>2019-05-14T15:40:25Z</time>
      </trkpt>
      <trkpt lat="35.140132320" lon="-106.770277790">
        <ele>1759.000</ele>
        <time>2019-05-14T15:40:29Z</time>
      </trkpt>
      <trkpt lat="35.140165640" lon="-106.770310590">
        <ele>1760.000</ele>
        <time>2019-05-14T15:40:32Z</time>
      </trkpt>
      <trkpt lat="35.140198910" lon="-106.770330220">
        <ele>1759.000</ele>
        <time>2019-05-14T15:40:34Z</time>
      </trkpt>
      <trkpt lat="35.140224310" lon="-106.770369540">
        <ele>1760.000</ele>
        <time>2019-05-14T15:40:38Z</time>
      </trkpt>
      <trkpt lat="35.140257630" lon="-106.770406430">
        <ele>1762.000</ele>
        <time>2019-05-14T15:40:42Z</time>
      </trkpt>
      <trkpt lat="35.140289460" lon="-106.770434470">
        <ele>1762.000</ele>
        <time>2019-05-14T15:40:45Z</time>
      </trkpt>
      <trkpt lat="35.140332070" lon="-106.770460730">
        <ele>1764.000</ele>
        <time>2019-05-14T15:40:49Z</time>
      </trkpt>
      <trkpt lat="35.140377660" lon="-106.770467940">
        <ele>1764.000</ele>
        <time>2019-05-14T15:40:53Z</time>
      </trkpt>
      <trkpt lat="35.140414040" lon="-106.770485640">
        <ele>1764.000</ele>
        <time>2019-05-14T15:40:57Z</time>
      </trkpt>
      <trkpt lat="35.140450290" lon="-106.770493360">
        <ele>1763.000</ele>
        <time>2019-05-14T15:41:00Z</time>
      </trkpt>
      <trkpt lat="35.140488580" lon="-106.770496890">
        <ele>1762.000</ele>
        <time>2019-05-14T15:41:03Z</time>
      </trkpt>
      <trkpt lat="35.140528000" lon="-106.770506060">
        <ele>1761.000</ele>
        <time>2019-05-14T15:41:07Z</time>
      </trkpt>
      <trkpt lat="35.140565040" lon="-106.770544770">
        <ele>1762.000</ele>
        <time>2019-05-14T15:41:12Z</time>
      </trkpt>
      <trkpt lat="35.140602940" lon="-106.770563520">
        <ele>1762.000</ele>
        <time>2019-05-14T15:41:15Z</time>
      </trkpt>
      <trkpt lat="35.140640690" lon="-106.770584470">
        <ele>1762.000</ele>
        <time>2019-05-14T15:41:19Z</time>
      </trkpt>
      <trkpt lat="35.140676190" lon="-106.770601640">
        <ele>1762.000</ele>
        <time>2019-05-14T15:41:22Z</time>
      </trkpt>
      <trkpt lat="35.140716000" lon="-106.770617620">
        <ele>1762.000</ele>
        <time>2019-05-14T15:41:26Z</time>
      </trkpt>
      <trkpt lat="35.140752230" lon="-106.770621370">
        <ele>1762.000</ele>
        <time>2019-05-14T15:41:29Z</time>
      </trkpt>
      <trkpt lat="35.140795590" lon="-106.770629500">
        <ele>1763.000</ele>
        <time>2019-05-14T15:41:33Z</time>
      </trkpt>
      <trkpt lat="35.140843170" lon="-106.770635490">
        <ele>1762.000</ele>
        <time>2019-05-14T15:41:37Z</time>
      </trkpt>
      <trkpt lat="35.140885720" lon="-106.770643490">
        <ele>1763.000</ele>
        <time>2019-05-14T15:41:41Z</time>
      </trkpt>
      <trkpt lat="35.140921920" lon="-106.770633030">
        <ele>1763.000</ele>
        <time>2019-05-14T15:41:45Z</time>
      </trkpt>
      <trkpt lat="35.140959370" lon="-106.770619380">
        <ele>1762.000</ele>
        <time>2019-05-14T15:41:51Z</time>
      </trkpt>
      <trkpt lat="35.141000740" lon="-106.770624930">
        <ele>1763.000</ele>
        <time>2019-05-14T15:41:57Z</time>
      </trkpt>
      <trkpt lat="35.141037550" lon="-106.770626730">
        <ele>1763.000</ele>
        <time>2019-05-14T15:42:02Z</time>
      </trkpt>
      <trkpt lat="35.141076670" lon="-106.770636790">
        <ele>1766.000</ele>
        <time>2019-05-14T15:42:07Z</time>
      </trkpt>
      <trkpt lat="35.141117810" lon="-106.770612150">
        <ele>1764.000</ele>
        <time>2019-05-14T15:42:11Z</time>
      </trkpt>
      <trkpt lat="35.141159710" lon="-106.770612920">
        <ele>1765.000</ele>
        <time>2019-05-14T15:42:16Z</time>
      </trkpt>
      <trkpt lat="35.141196960" lon="-106.770619090">
        <ele>1766.000</ele>
        <time>2019-05-14T15:42:20Z</time>
      </trkpt>
      <trkpt lat="35.141237370" lon="-106.770601630">
        <ele>1765.000</ele>
        <time>2019-05-14T15:42:24Z</time>
      </trkpt>
      <trkpt lat="35.141281990" lon="-106.770598850">
        <ele>1766.000</ele>
        <time>2019-05-14T15:42:28Z</time>
      </trkpt>
      <trkpt lat="35.141322900" lon="-106.770604860">
        <ele>1767.000</ele>
        <time>2019-05-14T15:42:32Z</time>
      </trkpt>
      <trkpt lat="35.141361090" lon="-106.770612630">
        <ele>1767.000</ele>
        <time>2019-05-14T15:42:36Z</time>
      </trkpt>
      <trkpt lat="35.141402210" lon="-106.770619820">
        <ele>1768.000</ele>
        <time>2019-05-14T15:42:40Z</time>
      </trkpt>
      <trkpt lat="35.141442770" lon="-106.770629390">
        <ele>1768.000</ele>
        <time>2019-05-14T15:42:45Z</time>
      </trkpt>
      <trkpt lat="35.141480510" lon="-106.770631670">
        <ele>1769.000</ele>
        <time>2019-05-14T15:42:49Z</time>
      </trkpt>
      <trkpt lat="35.141516560" lon="-106.770636270">
        <ele>1770.000</ele>
        <time>2019-05-14T15:42:56Z</time>
      </trkpt>
      <trkpt lat="35.141559840" lon="-106.770649190">
        <ele>1770.000</ele>
        <time>2019-05-14T15:43:01Z</time>
      </trkpt>
      <trkpt lat="35.141599990" lon="-106.770650570">
        <ele>1770.000</ele>
        <time>2019-05-14T15:43:06Z</time>
      </trkpt>
      <trkpt lat="35.141647980" lon="-106.770646530">
        <ele>1771.000</ele>
        <time>2019-05-14T15:43:10Z</time>
      </trkpt>
      <trkpt lat="35.141691100" lon="-106.770650250">
        <ele>1772.000</ele>
        <time>2019-05-14T15:43:26Z</time>
      </trkpt>
      <trkpt lat="35.141725400" lon="-106.770666990">
        <ele>1772.000</ele>
        <time>2019-05-14T15:43:30Z</time>
      </trkpt>
      <trkpt lat="35.141770900" lon="-106.770669660">
        <ele>1771.000</ele>
        <time>2019-05-14T15:43:33Z</time>
      </trkpt>
      <trkpt lat="35.141810960" lon="-106.770670020">
        <ele>1771.000</ele>
        <time>2019-05-14T15:43:36Z</time>
      </trkpt>
      <trkpt lat="35.141851150" lon="-106.770680530">
        <ele>1769.000</ele>
        <time>2019-05-14T15:43:40Z</time>
      </trkpt>
      <trkpt lat="35.141891270" lon="-106.770686450">
        <ele>1770.000</ele>
        <time>2019-05-14T15:43:44Z</time>
      </trkpt>
      <trkpt lat="35.141921900" lon="-106.770731870">
        <ele>1770.000</ele>
        <time>2019-05-14T15:43:49Z</time>
      </trkpt>
      <trkpt lat="35.141951540" lon="-106.770765280">
        <ele>1773.000</ele>
        <time>2019-05-14T15:43:53Z</time>
      </trkpt>
      <trkpt lat="35.141979560" lon="-106.770807760">
        <ele>1774.000</ele>
        <time>2019-05-14T15:43:58Z</time>
      </trkpt>
      <trkpt lat="35.142004600" lon="-106.770844720">
        <ele>1776.000</ele>
        <time>2019-05-14T15:44:07Z</time>
      </trkpt>
      <trkpt lat="35.142029940" lon="-106.770876730">
        <ele>1776.000</ele>
        <time>2019-05-14T15:44:18Z</time>
      </trkpt>
      <trkpt lat="35.142050790" lon="-106.770916900">
        <ele>1778.000</ele>
        <time>2019-05-14T15:44:25Z</time>
      </trkpt>
      <trkpt lat="35.142062320" lon="-106.770958680">
        <ele>1782.000</ele>
        <time>2019-05-14T15:44:39Z</time>
      </trkpt>
      <trkpt lat="35.142090030" lon="-106.771002980">
        <ele>1782.000</ele>
        <time>2019-05-14T15:44:45Z</time>
      </trkpt>
      <trkpt lat="35.142106960" lon="-106.771047000">
        <ele>1782.000</ele>
        <time>2019-05-14T15:44:50Z</time>
      </trkpt>
      <trkpt lat="35.142110680" lon="-106.771093470">
        <ele>1782.000</ele>
        <time>2019-05-14T15:45:02Z</time>
      </trkpt>
      <trkpt lat="35.142114680" lon="-106.771139170">
        <ele>1784.000</ele>
        <time>2019-05-14T15:45:08Z</time>
      </trkpt>
      <trkpt lat="35.142114680" lon="-106.771187420">
        <ele>1787.000</ele>
        <time>2019-05-14T15:45:13Z</time>
      </trkpt>
      <trkpt lat="35.142108810" lon="-106.771233480">
        <ele>1789.000</ele>
        <time>2019-05-14T15:45:19Z</time>
      </trkpt>
      <trkpt lat="35.142122130" lon="-106.771279810">
        <ele>1790.000</ele>
        <time>2019-05-14T15:45:30Z</time>
      </trkpt>
      <trkpt lat="35.142130570" lon="-106.771323140">
        <ele>1791.000</ele>
        <time>2019-05-14T15:45:35Z</time>
      </trkpt>
      <trkpt lat="35.142139710" lon="-106.771376970">
        <ele>1791.000</ele>
        <time>2019-05-14T15:45:40Z</time>
      </trkpt>
      <trkpt lat="35.142148430" lon="-106.771427610">
        <ele>1791.000</ele>
        <time>2019-05-14T15:45:45Z</time>
      </trkpt>
      <trkpt lat="35.142144130" lon="-106.771472850">
        <ele>1791.000</ele>
        <time>2019-05-14T15:45:49Z</time>
      </trkpt>
      <trkpt lat="35.142129490" lon="-106.771514930">
        <ele>1791.000</ele>
        <time>2019-05-14T15:45:53Z</time>
      </trkpt>
      <trkpt lat="35.142108500" lon="-106.771551810">
        <ele>1792.000</ele>
        <time>2019-05-14T15:45:58Z</time>
      </trkpt>
      <trkpt lat="35.142083610" lon="-106.771598010">
        <ele>1793.000</ele>
        <time>2019-05-14T15:46:04Z</time>
      </trkpt>
      <trkpt lat="35.142070710" lon="-106.771644580">
        <ele>1793.000</ele>
        <time>2019-05-14T15:46:08Z</time>
      </trkpt>
      <trkpt lat="35.142061510" lon="-106.771691700">
        <ele>1792.000</ele>
        <time>2019-05-14T15:46:12Z</time>
      </trkpt>
      <trkpt lat="35.142062790" lon="-106.771746960">
        <ele>1792.000</ele>
        <time>2019-05-14T15:46:16Z</time>
      </trkpt>
      <trkpt lat="35.142084680" lon="-106.771795210">
        <ele>1792.000</ele>
        <time>2019-05-14T15:46:20Z</time>
      </trkpt>
      <trkpt lat="35.142110930" lon="-106.771837170">
        <ele>1792.000</ele>
        <time>2019-05-14T15:46:24Z</time>
      </trkpt>
      <trkpt lat="35.142131570" lon="-106.771874310">
        <ele>1791.000</ele>
        <time>2019-05-14T15:46:27Z</time>
      </trkpt>
      <trkpt lat="35.142158130" lon="-106.771904960">
        <ele>1791.000</ele>
        <time>2019-05-14T15:46:31Z</time>
      </trkpt>
      <trkpt lat="35.142182440" lon="-106.771945600">
        <ele>1790.000</ele>
        <time>2019-05-14T15:46:35Z</time>
      </trkpt>
      <trkpt lat="35.142194230" lon="-106.771990900">
        <ele>1790.000</ele>
        <time>2019-05-14T15:46:39Z</time>
      </trkpt>
      <trkpt lat="35.142215990" lon="-106.772034380">
        <ele>1790.000</ele>
        <time>2019-05-14T15:46:43Z</time>
      </trkpt>
      <trkpt lat="35.142243110" lon="-106.772076310">
        <ele>1789.000</ele>
        <time>2019-05-14T15:46:47Z</time>
      </trkpt>
      <trkpt lat="35.142248750" lon="-106.772120360">
        <ele>1789.000</ele>
        <time>2019-05-14T15:46:50Z</time>
      </trkpt>
      <trkpt lat="35.142262510" lon="-106.772171610">
        <ele>1790.000</ele>
        <time>2019-05-14T15:46:54Z</time>
      </trkpt>
      <trkpt lat="35.142269100" lon="-106.772224970">
        <ele>1790.000</ele>
        <time>2019-05-14T15:46:59Z</time>
      </trkpt>
      <trkpt lat="35.142269200" lon="-106.772275370">
        <ele>1790.000</ele>
        <time>2019-05-14T15:47:04Z</time>
      </trkpt>
      <trkpt lat="35.142297710" lon="-106.772303420">
        <ele>1791.000</ele>
        <time>2019-05-14T15:47:17Z</time>
      </trkpt>
      <trkpt lat="35.142282460" lon="-106.772344430">
        <ele>1788.000</ele>
        <time>2019-05-14T15:49:39Z</time>
      </trkpt>
      <trkpt lat="35.142261180" lon="-106.772389540">
        <ele>1789.000</ele>
        <time>2019-05-14T15:50:32Z</time>
      </trkpt>
      <trkpt lat="35.142253040" lon="-106.772440030">
        <ele>1788.000</ele>
        <time>2019-05-14T15:50:36Z</time>
      </trkpt>
      <trkpt lat="35.142230920" lon="-106.772479390">
        <ele>1788.000</ele>
        <time>2019-05-14T15:50:40Z</time>
      </trkpt>
      <trkpt lat="35.142213110" lon="-106.772527710">
        <ele>1787.000</ele>
        <time>2019-05-14T15:50:57Z</time>
      </trkpt>
      <trkpt lat="35.142188240" lon="-106.772560920">
        <ele>1788.000</ele>
        <time>2019-05-14T15:51:00Z</time>
      </trkpt>
      <trkpt lat="35.142157940" lon="-106.772593900">
        <ele>1788.000</ele>
        <time>2019-05-14T15:51:04Z</time>
      </trkpt>
      <trkpt lat="35.142126510" lon="-106.772627940">
        <ele>1789.000</ele>
        <time>2019-05-14T15:51:08Z</time>
      </trkpt>
      <trkpt lat="35.142098450" lon="-106.772661880">
        <ele>1787.000</ele>
        <time>2019-05-14T15:51:11Z</time>
      </trkpt>
      <trkpt lat="35.142058330" lon="-106.772689370">
        <ele>1788.000</ele>
        <time>2019-05-14T15:51:15Z</time>
      </trkpt>
      <trkpt lat="35.142024390" lon="-106.772714420">
        <ele>1788.000</ele>
        <time>2019-05-14T15:51:19Z</time>
      </trkpt>
      <trkpt lat="35.141984880" lon="-106.772733910">
        <ele>1788.000</ele>
        <time>2019-05-14T15:51:23Z</time>
      </trkpt>
      <trkpt lat="35.141950020" lon="-106.772746270">
        <ele>1788.000</ele>
        <time>2019-05-14T15:51:26Z</time>
      </trkpt>
      <trkpt lat="35.141912980" lon="-106.772771820">
        <ele>1787.000</ele>
        <time>2019-05-14T15:51:29Z</time>
      </trkpt>
      <trkpt lat="35.141877080" lon="-106.772781420">
        <ele>1788.000</ele>
        <time>2019-05-14T15:51:32Z</time>
      </trkpt>
      <trkpt lat="35.141833230" lon="-106.772781310">
        <ele>1788.000</ele>
        <time>2019-05-14T15:51:36Z</time>
      </trkpt>
      <trkpt lat="35.141797000" lon="-106.772782320">
        <ele>1789.000</ele>
        <time>2019-05-14T15:51:39Z</time>
      </trkpt>
      <trkpt lat="35.141757680" lon="-106.772798870">
        <ele>1788.000</ele>
        <time>2019-05-14T15:51:43Z</time>
      </trkpt>
      <trkpt lat="35.141721510" lon="-106.772818770">
        <ele>1788.000</ele>
        <time>2019-05-14T15:51:46Z</time>
      </trkpt>
      <trkpt lat="35.141684580" lon="-106.772856400">
        <ele>1786.000</ele>
        <time>2019-05-14T15:51:50Z</time>
      </trkpt>
      <trkpt lat="35.141659360" lon="-106.772891840">
        <ele>1784.000</ele>
        <time>2019-05-14T15:51:53Z</time>
      </trkpt>
      <trkpt lat="35.141623770" lon="-106.772923250">
        <ele>1783.000</ele>
        <time>2019-05-14T15:51:57Z</time>
      </trkpt>
      <trkpt lat="35.141584150" lon="-106.772950750">
        <ele>1782.000</ele>
        <time>2019-05-14T15:52:01Z</time>
      </trkpt>
      <trkpt lat="35.141559510" lon="-106.772987990">
        <ele>1783.000</ele>
        <time>2019-05-14T15:52:05Z</time>
      </trkpt>
      <trkpt lat="35.141519380" lon="-106.773018720">
        <ele>1782.000</ele>
        <time>2019-05-14T15:52:10Z</time>
      </trkpt>
      <trkpt lat="35.141481340" lon="-106.773020650">
        <ele>1782.000</ele>
        <time>2019-05-14T15:52:13Z</time>
      </trkpt>
      <trkpt lat="35.141445340" lon="-106.773013030">
        <ele>1783.000</ele>
        <time>2019-05-14T15:52:16Z</time>
      </trkpt>
      <trkpt lat="35.141409260" lon="-106.773014310">
        <ele>1783.000</ele>
        <time>2019-05-14T15:52:19Z</time>
      </trkpt>
      <trkpt lat="35.141363350" lon="-106.773000720">
        <ele>1783.000</ele>
        <time>2019-05-14T15:52:23Z</time>
      </trkpt>
      <trkpt lat="35.141317250" lon="-106.772993710">
        <ele>1782.000</ele>
        <time>2019-05-14T15:52:27Z</time>
      </trkpt>
      <trkpt lat="35.141278030" lon="-106.773004150">
        <ele>1781.000</ele>
        <time>2019-05-14T15:52:30Z</time>
      </trkpt>
      <trkpt lat="35.141230750" lon="-106.773014630">
        <ele>1780.000</ele>
        <time>2019-05-14T15:52:34Z</time>
      </trkpt>
      <trkpt lat="35.141190390" lon="-106.773027900">
        <ele>1779.000</ele>
        <time>2019-05-14T15:52:38Z</time>
      </trkpt>
      <trkpt lat="35.141153470" lon="-106.773039480">
        <ele>1779.000</ele>
        <time>2019-05-14T15:52:41Z</time>
      </trkpt>
      <trkpt lat="35.141118260" lon="-106.773075290">
        <ele>1779.000</ele>
        <time>2019-05-14T15:52:45Z</time>
      </trkpt>
      <trkpt lat="35.141085770" lon="-106.773107110">
        <ele>1778.000</ele>
        <time>2019-05-14T15:52:49Z</time>
      </trkpt>
      <trkpt lat="35.141045590" lon="-106.773139050">
        <ele>1776.000</ele>
        <time>2019-05-14T15:52:53Z</time>
      </trkpt>
      <trkpt lat="35.141013190" lon="-106.773173230">
        <ele>1775.000</ele>
        <time>2019-05-14T15:52:56Z</time>
      </trkpt>
      <trkpt lat="35.140984050" lon="-106.773204530">
        <ele>1774.000</ele>
        <time>2019-05-14T15:52:59Z</time>
      </trkpt>
      <trkpt lat="35.140957560" lon="-106.773239250">
        <ele>1773.000</ele>
        <time>2019-05-14T15:53:02Z</time>
      </trkpt>
      <trkpt lat="35.140924130" lon="-106.773278860">
        <ele>1773.000</ele>
        <time>2019-05-14T15:53:06Z</time>
      </trkpt>
      <trkpt lat="35.140900390" lon="-106.773315400">
        <ele>1772.000</ele>
        <time>2019-05-14T15:53:09Z</time>
      </trkpt>
      <trkpt lat="35.140883990" lon="-106.773360820">
        <ele>1771.000</ele>
        <time>2019-05-14T15:53:13Z</time>
      </trkpt>
      <trkpt lat="35.140860110" lon="-106.773404080">
        <ele>1771.000</ele>
        <time>2019-05-14T15:53:17Z</time>
      </trkpt>
      <trkpt lat="35.140844270" lon="-106.773448720">
        <ele>1771.000</ele>
        <time>2019-05-14T15:53:20Z</time>
      </trkpt>
      <trkpt lat="35.140813720" lon="-106.773497750">
        <ele>1772.000</ele>
        <time>2019-05-14T15:53:24Z</time>
      </trkpt>
      <trkpt lat="35.140793800" lon="-106.773539590">
        <ele>1771.000</ele>
        <time>2019-05-14T15:53:28Z</time>
      </trkpt>
      <trkpt lat="35.140773800" lon="-106.773579030">
        <ele>1770.000</ele>
        <time>2019-05-14T15:53:32Z</time>
      </trkpt>
      <trkpt lat="35.140743790" lon="-106.773615790">
        <ele>1771.000</ele>
        <time>2019-05-14T15:53:36Z</time>
      </trkpt>
      <trkpt lat="35.140714040" lon="-106.773649470">
        <ele>1771.000</ele>
        <time>2019-05-14T15:53:44Z</time>
      </trkpt>
      <trkpt lat="35.140674830" lon="-106.773674850">
        <ele>1771.000</ele>
        <time>2019-05-14T15:53:48Z</time>
      </trkpt>
      <trkpt lat="35.140638980" lon="-106.773700760">
        <ele>1771.000</ele>
        <time>2019-05-14T15:53:52Z</time>
      </trkpt>
      <trkpt lat="35.140606610" lon="-106.773722170">
        <ele>1771.000</ele>
        <time>2019-05-14T15:53:56Z</time>
      </trkpt>
      <trkpt lat="35.140561780" lon="-106.773750420">
        <ele>1771.000</ele>
        <time>2019-05-14T15:54:07Z</time>
      </trkpt>
      <trkpt lat="35.140527520" lon="-106.773771430">
        <ele>1771.000</ele>
        <time>2019-05-14T15:54:10Z</time>
      </trkpt>
      <trkpt lat="35.140483810" lon="-106.773799230">
        <ele>1771.000</ele>
        <time>2019-05-14T15:54:14Z</time>
      </trkpt>
      <trkpt lat="35.140448990" lon="-106.773826860">
        <ele>1771.000</ele>
        <time>2019-05-14T15:54:17Z</time>
      </trkpt>
      <trkpt lat="35.140408820" lon="-106.773836890">
        <ele>1771.000</ele>
        <time>2019-05-14T15:54:25Z</time>
      </trkpt>
      <trkpt lat="35.140367050" lon="-106.773832670">
        <ele>1771.000</ele>
        <time>2019-05-14T15:54:29Z</time>
      </trkpt>
      <trkpt lat="35.140327840" lon="-106.773839760">
        <ele>1771.000</ele>
        <time>2019-05-14T15:54:32Z</time>
      </trkpt>
      <trkpt lat="35.140289390" lon="-106.773847770">
        <ele>1772.000</ele>
        <time>2019-05-14T15:54:35Z</time>
      </trkpt>
      <trkpt lat="35.140251430" lon="-106.773850840">
        <ele>1773.000</ele>
        <time>2019-05-14T15:54:38Z</time>
      </trkpt>
      <trkpt lat="35.140212850" lon="-106.773850230">
        <ele>1774.000</ele>
        <time>2019-05-14T15:54:42Z</time>
      </trkpt>
      <trkpt lat="35.140174080" lon="-106.773841910">
        <ele>1774.000</ele>
        <time>2019-05-14T15:54:45Z</time>
      </trkpt>
      <trkpt lat="35.140137000" lon="-106.773833000">
        <ele>1775.000</ele>
        <time>2019-05-14T15:54:48Z</time>
      </trkpt>
      <trkpt lat="35.140091510" lon="-106.773828440">
        <ele>1775.000</ele>
        <time>2019-05-14T15:54:52Z</time>
      </trkpt>
      <trkpt lat="35.140052620" lon="-106.773843860">
        <ele>1770.000</ele>
        <time>2019-05-14T15:57:04Z</time>
      </trkpt>
      <trkpt lat="35.140009970" lon="-106.773828570">
        <ele>1770.000</ele>
        <time>2019-05-14T15:57:09Z</time>
      </trkpt>
      <trkpt lat="35.139973920" lon="-106.773818750">
        <ele>1770.000</ele>
        <time>2019-05-14T15:57:12Z</time>
      </trkpt>
      <trkpt lat="35.139939290" lon="-106.773801530">
        <ele>1769.000</ele>
        <time>2019-05-14T15:57:16Z</time>
      </trkpt>
      <trkpt lat="35.139901370" lon="-106.773783440">
        <ele>1768.000</ele>
        <time>2019-05-14T15:57:20Z</time>
      </trkpt>
      <trkpt lat="35.139864700" lon="-106.773768470">
        <ele>1769.000</ele>
        <time>2019-05-14T15:57:24Z</time>
      </trkpt>
      <trkpt lat="35.139830080" lon="-106.773749740">
        <ele>1768.000</ele>
        <time>2019-05-14T15:57:28Z</time>
      </trkpt>
      <trkpt lat="35.139792210" lon="-106.773724490">
        <ele>1768.000</ele>
        <time>2019-05-14T15:57:32Z</time>
      </trkpt>
      <trkpt lat="35.139752810" lon="-106.773707440">
        <ele>1767.000</ele>
        <time>2019-05-14T15:57:46Z</time>
      </trkpt>
      <trkpt lat="35.139714870" lon="-106.773677420">
        <ele>1767.000</ele>
        <time>2019-05-14T15:57:50Z</time>
      </trkpt>
      <trkpt lat="35.139679980" lon="-106.773658130">
        <ele>1766.000</ele>
        <time>2019-05-14T15:57:53Z</time>
      </trkpt>
      <trkpt lat="35.139641620" lon="-106.773634330">
        <ele>1765.000</ele>
        <time>2019-05-14T15:57:57Z</time>
      </trkpt>
      <trkpt lat="35.139604390" lon="-106.773616630">
        <ele>1766.000</ele>
        <time>2019-05-14T15:58:01Z</time>
      </trkpt>
      <trkpt lat="35.139568800" lon="-106.773597020">
        <ele>1765.000</ele>
        <time>2019-05-14T15:58:05Z</time>
      </trkpt>
      <trkpt lat="35.139520850" lon="-106.773581940">
        <ele>1765.000</ele>
        <time>2019-05-14T15:58:09Z</time>
      </trkpt>
      <trkpt lat="35.139478580" lon="-106.773579530">
        <ele>1765.000</ele>
        <time>2019-05-14T15:58:13Z</time>
      </trkpt>
      <trkpt lat="35.139434680" lon="-106.773564250">
        <ele>1765.000</ele>
        <time>2019-05-14T15:58:17Z</time>
      </trkpt>
      <trkpt lat="35.139392840" lon="-106.773552810">
        <ele>1765.000</ele>
        <time>2019-05-14T15:58:21Z</time>
      </trkpt>
      <trkpt lat="35.139358260" lon="-106.773537120">
        <ele>1764.000</ele>
        <time>2019-05-14T15:58:24Z</time>
      </trkpt>
      <trkpt lat="35.139321110" lon="-106.773521680">
        <ele>1765.000</ele>
        <time>2019-05-14T15:58:27Z</time>
      </trkpt>
      <trkpt lat="35.139284800" lon="-106.773500280">
        <ele>1765.000</ele>
        <time>2019-05-14T15:58:30Z</time>
      </trkpt>
      <trkpt lat="35.139238400" lon="-106.773488020">
        <ele>1765.000</ele>
        <time>2019-05-14T15:58:34Z</time>
      </trkpt>
      <trkpt lat="35.139201610" lon="-106.773475830">
        <ele>1764.000</ele>
        <time>2019-05-14T15:58:37Z</time>
      </trkpt>
      <trkpt lat="35.139160860" lon="-106.773455620">
        <ele>1763.000</ele>
        <time>2019-05-14T15:58:41Z</time>
      </trkpt>
      <trkpt lat="35.139125360" lon="-106.773446600">
        <ele>1762.000</ele>
        <time>2019-05-14T15:58:44Z</time>
      </trkpt>
      <trkpt lat="35.139079070" lon="-106.773427570">
        <ele>1762.000</ele>
        <time>2019-05-14T15:58:48Z</time>
      </trkpt>
      <trkpt lat="35.139034120" lon="-106.773410890">
        <ele>1762.000</ele>
        <time>2019-05-14T15:58:52Z</time>
      </trkpt>
      <trkpt lat="35.138990640" lon="-106.773394080">
        <ele>1761.000</ele>
        <time>2019-05-14T15:58:56Z</time>
      </trkpt>
      <trkpt lat="35.138954480" lon="-106.773377900">
        <ele>1761.000</ele>
        <time>2019-05-14T15:58:59Z</time>
      </trkpt>
      <trkpt lat="35.138915520" lon="-106.773367910">
        <ele>1759.000</ele>
        <time>2019-05-14T15:59:03Z</time>
      </trkpt>
      <trkpt lat="35.138879860" lon="-106.773360350">
        <ele>1758.000</ele>
        <time>2019-05-14T15:59:06Z</time>
      </trkpt>
      <trkpt lat="35.138838490" lon="-106.773344850">
        <ele>1758.000</ele>
        <time>2019-05-14T15:59:10Z</time>
      </trkpt>
      <trkpt lat="35.138804360" lon="-106.773327230">
        <ele>1758.000</ele>
        <time>2019-05-14T15:59:13Z</time>
      </trkpt>
      <trkpt lat="35.138769150" lon="-106.773317330">
        <ele>1758.000</ele>
        <time>2019-05-14T15:59:16Z</time>
      </trkpt>
      <trkpt lat="35.138735620" lon="-106.773298760">
        <ele>1758.000</ele>
        <time>2019-05-14T15:59:19Z</time>
      </trkpt>
      <trkpt lat="35.138699450" lon="-106.773285900">
        <ele>1758.000</ele>
        <time>2019-05-14T15:59:22Z</time>
      </trkpt>
      <trkpt lat="35.138661350" lon="-106.773261600">
        <ele>1759.000</ele>
        <time>2019-05-14T15:59:26Z</time>
      </trkpt>
      <trkpt lat="35.138624150" lon="-106.773252390">
        <ele>1759.000</ele>
        <time>2019-05-14T15:59:29Z</time>
      </trkpt>
      <trkpt lat="35.138583540" lon="-106.773228880">
        <ele>1758.000</ele>
        <time>2019-05-14T15:59:33Z</time>
      </trkpt>
      <trkpt lat="35.138547390" lon="-106.773206980">
        <ele>1759.000</ele>
        <time>2019-05-14T15:59:36Z</time>
      </trkpt>
      <trkpt lat="35.138514280" lon="-106.773188480">
        <ele>1760.000</ele>
        <time>2019-05-14T15:59:39Z</time>
      </trkpt>
      <trkpt lat="35.138478670" lon="-106.773177110">
        <ele>1760.000</ele>
        <time>2019-05-14T15:59:42Z</time>
      </trkpt>
      <trkpt lat="35.138440230" lon="-106.773170960">
        <ele>1760.000</ele>
        <time>2019-05-14T15:59:46Z</time>
      </trkpt>
      <trkpt lat="35.138395070" lon="-106.773158880">
        <ele>1759.000</ele>
        <time>2019-05-14T15:59:50Z</time>
      </trkpt>
      <trkpt lat="35.138358770" lon="-106.773147130">
        <ele>1759.000</ele>
        <time>2019-05-14T15:59:53Z</time>
      </trkpt>
      <trkpt lat="35.138320870" lon="-106.773137670">
        <ele>1759.000</ele>
        <time>2019-05-14T15:59:56Z</time>
      </trkpt>
      <trkpt lat="35.138292210" lon="-106.773105930">
        <ele>1759.000</ele>
        <time>2019-05-14T16:00:00Z</time>
      </trkpt>
      <trkpt lat="35.138258970" lon="-106.773070580">
        <ele>1759.000</ele>
        <time>2019-05-14T16:00:05Z</time>
      </trkpt>
      <trkpt lat="35.138222310" lon="-106.773042670">
        <ele>1760.000</ele>
        <time>2019-05-14T16:00:08Z</time>
      </trkpt>
      <trkpt lat="35.138194670" lon="-106.773010260">
        <ele>1760.000</ele>
        <time>2019-05-14T16:00:11Z</time>
      </trkpt>
      <trkpt lat="35.138153380" lon="-106.772979870">
        <ele>1760.000</ele>
        <time>2019-05-14T16:00:15Z</time>
      </trkpt>
      <trkpt lat="35.138110300" lon="-106.772958610">
        <ele>1760.000</ele>
        <time>2019-05-14T16:00:19Z</time>
      </trkpt>
      <trkpt lat="35.138072340" lon="-106.772927020">
        <ele>1760.000</ele>
        <time>2019-05-14T16:00:23Z</time>
      </trkpt>
      <trkpt lat="35.138032010" lon="-106.772900390">
        <ele>1759.000</ele>
        <time>2019-05-14T16:00:27Z</time>
      </trkpt>
      <trkpt lat="35.138007480" lon="-106.772856060">
        <ele>1759.000</ele>
        <time>2019-05-14T16:00:33Z</time>
      </trkpt>
      <trkpt lat="35.137974320" lon="-106.772825410">
        <ele>1759.000</ele>
        <time>2019-05-14T16:00:37Z</time>
      </trkpt>
      <trkpt lat="35.137938240" lon="-106.772798930">
        <ele>1760.000</ele>
        <time>2019-05-14T16:00:41Z</time>
      </trkpt>
      <trkpt lat="35.137913600" lon="-106.772757700">
        <ele>1760.000</ele>
        <time>2019-05-14T16:00:46Z</time>
      </trkpt>
      <trkpt lat="35.137936350" lon="-106.772710810">
        <ele>1760.000</ele>
        <time>2019-05-14T16:00:51Z</time>
      </trkpt>
      <trkpt lat="35.137979170" lon="-106.772686760">
        <ele>1761.000</ele>
        <time>2019-05-14T16:00:55Z</time>
      </trkpt>
      <trkpt lat="35.138019030" lon="-106.772657270">
        <ele>1760.000</ele>
        <time>2019-05-14T16:00:59Z</time>
      </trkpt>
      <trkpt lat="35.138054490" lon="-106.772636530">
        <ele>1760.000</ele>
        <time>2019-05-14T16:01:02Z</time>
      </trkpt>
      <trkpt lat="35.138093160" lon="-106.772615840">
        <ele>1759.000</ele>
        <time>2019-05-14T16:01:06Z</time>
      </trkpt>
      <trkpt lat="35.138133580" lon="-106.772607240">
        <ele>1759.000</ele>
        <time>2019-05-14T16:01:09Z</time>
      </trkpt>
      <trkpt lat="35.138167010" lon="-106.772587250">
        <ele>1760.000</ele>
        <time>2019-05-14T16:01:12Z</time>
      </trkpt>
      <trkpt lat="35.138209580" lon="-106.772559570">
        <ele>1760.000</ele>
        <time>2019-05-14T16:01:16Z</time>
      </trkpt>
      <trkpt lat="35.138246550" lon="-106.772533790">
        <ele>1760.000</ele>
        <time>2019-05-14T16:01:21Z</time>
      </trkpt>
      <trkpt lat="35.138259390" lon="-106.772492630">
        <ele>1760.000</ele>
        <time>2019-05-14T16:01:24Z</time>
      </trkpt>
      <trkpt lat="35.138272110" lon="-106.772449420">
        <ele>1761.000</ele>
        <time>2019-05-14T16:01:28Z</time>
      </trkpt>
      <trkpt lat="35.138266400" lon="-106.772401880">
        <ele>1760.000</ele>
        <time>2019-05-14T16:01:31Z</time>
      </trkpt>
      <trkpt lat="35.138244310" lon="-106.772360290">
        <ele>1760.000</ele>
        <time>2019-05-14T16:01:36Z</time>
      </trkpt>
      <trkpt lat="35.138238270" lon="-106.772309130">
        <ele>1761.000</ele>
        <time>2019-05-14T16:01:40Z</time>
      </trkpt>
      <trkpt lat="35.138238260" lon="-106.772254590">
        <ele>1762.000</ele>
        <time>2019-05-14T16:01:47Z</time>
      </trkpt>
      <trkpt lat="35.138242180" lon="-106.772199540">
        <ele>1762.000</ele>
        <time>2019-05-14T16:01:51Z</time>
      </trkpt>
      <trkpt lat="35.138250320" lon="-106.772150120">
        <ele>1762.000</ele>
        <time>2019-05-14T16:01:55Z</time>
      </trkpt>
      <trkpt lat="35.138252660" lon="-106.772100180">
        <ele>1762.000</ele>
        <time>2019-05-14T16:01:59Z</time>
      </trkpt>
      <trkpt lat="35.138263250" lon="-106.772048910">
        <ele>1763.000</ele>
        <time>2019-05-14T16:02:03Z</time>
      </trkpt>
      <trkpt lat="35.138266360" lon="-106.772002880">
        <ele>1762.000</ele>
        <time>2019-05-14T16:02:07Z</time>
      </trkpt>
      <trkpt lat="35.138265700" lon="-106.771957920">
        <ele>1764.000</ele>
        <time>2019-05-14T16:02:16Z</time>
      </trkpt>
      <trkpt lat="35.138271710" lon="-106.771913370">
        <ele>1765.000</ele>
        <time>2019-05-14T16:02:20Z</time>
      </trkpt>
      <trkpt lat="35.138282040" lon="-106.771864170">
        <ele>1765.000</ele>
        <time>2019-05-14T16:02:24Z</time>
      </trkpt>
      <trkpt lat="35.138281550" lon="-106.771811190">
        <ele>1764.000</ele>
        <time>2019-05-14T16:02:29Z</time>
      </trkpt>
      <trkpt lat="35.138289090" lon="-106.771760510">
        <ele>1764.000</ele>
        <time>2019-05-14T16:02:33Z</time>
      </trkpt>
      <trkpt lat="35.138296080" lon="-106.771710420">
        <ele>1764.000</ele>
        <time>2019-05-14T16:02:38Z</time>
      </trkpt>
      <trkpt lat="35.138311930" lon="-106.771667900">
        <ele>1765.000</ele>
        <time>2019-05-14T16:02:42Z</time>
      </trkpt>
      <trkpt lat="35.138315240" lon="-106.771621670">
        <ele>1765.000</ele>
        <time>2019-05-14T16:02:46Z</time>
      </trkpt>
      <trkpt lat="35.138312240" lon="-106.771569640">
        <ele>1764.000</ele>
        <time>2019-05-14T16:02:50Z</time>
      </trkpt>
      <trkpt lat="35.138314880" lon="-106.771518220">
        <ele>1763.000</ele>
        <time>2019-05-14T16:02:54Z</time>
      </trkpt>
      <trkpt lat="35.138322160" lon="-106.771463690">
        <ele>1763.000</ele>
        <time>2019-05-14T16:02:58Z</time>
      </trkpt>
      <trkpt lat="35.138334130" lon="-106.771414770">
        <ele>1762.000</ele>
        <time>2019-05-14T16:03:02Z</time>
      </trkpt>
      <trkpt lat="35.138334060" lon="-106.771363680">
        <ele>1761.000</ele>
        <time>2019-05-14T16:03:05Z</time>
      </trkpt>
      <trkpt lat="35.138335680" lon="-106.771310170">
        <ele>1760.000</ele>
        <time>2019-05-14T16:03:09Z</time>
      </trkpt>
      <trkpt lat="35.138337160" lon="-106.771261910">
        <ele>1760.000</ele>
        <time>2019-05-14T16:03:13Z</time>
      </trkpt>
      <trkpt lat="35.138349620" lon="-106.771219640">
        <ele>1760.000</ele>
        <time>2019-05-14T16:03:16Z</time>
      </trkpt>
      <trkpt lat="35.138359000" lon="-106.771160580">
        <ele>1759.000</ele>
        <time>2019-05-14T16:03:20Z</time>
      </trkpt>
      <trkpt lat="35.138369770" lon="-106.771110490">
        <ele>1759.000</ele>
        <time>2019-05-14T16:03:24Z</time>
      </trkpt>
      <trkpt lat="35.138378880" lon="-106.771056500">
        <ele>1759.000</ele>
        <time>2019-05-14T16:03:28Z</time>
      </trkpt>
      <trkpt lat="35.138393080" lon="-106.771009680">
        <ele>1759.000</ele>
        <time>2019-05-14T16:03:32Z</time>
      </trkpt>
      <trkpt lat="35.138415160" lon="-106.770965570">
        <ele>1759.000</ele>
        <time>2019-05-14T16:03:35Z</time>
      </trkpt>
      <trkpt lat="35.138432840" lon="-106.770914200">
        <ele>1759.000</ele>
        <time>2019-05-14T16:03:39Z</time>
      </trkpt>
      <trkpt lat="35.138445670" lon="-106.770862890">
        <ele>1759.000</ele>
        <time>2019-05-14T16:03:43Z</time>
      </trkpt>
      <trkpt lat="35.138446440" lon="-106.770811040">
        <ele>1759.000</ele>
        <time>2019-05-14T16:03:47Z</time>
      </trkpt>
      <trkpt lat="35.138464180" lon="-106.770768340">
        <ele>1758.000</ele>
        <time>2019-05-14T16:03:51Z</time>
      </trkpt>
      <trkpt lat="35.138491060" lon="-106.770732620">
        <ele>1758.000</ele>
        <time>2019-05-14T16:03:55Z</time>
      </trkpt>
      <trkpt lat="35.138510170" lon="-106.770689130">
        <ele>1759.000</ele>
        <time>2019-05-14T16:03:58Z</time>
      </trkpt>
      <trkpt lat="35.138540210" lon="-106.770645900">
        <ele>1759.000</ele>
        <time>2019-05-14T16:04:02Z</time>
      </trkpt>
      <trkpt lat="35.138563210" lon="-106.770605750">
        <ele>1758.000</ele>
        <time>2019-05-14T16:04:06Z</time>
      </trkpt>
      <trkpt lat="35.138591210" lon="-106.770563890">
        <ele>1757.000</ele>
        <time>2019-05-14T16:04:10Z</time>
      </trkpt>
      <trkpt lat="35.138618610" lon="-106.770524240">
        <ele>1758.000</ele>
        <time>2019-05-14T16:04:14Z</time>
      </trkpt>
      <trkpt lat="35.138643040" lon="-106.770489450">
        <ele>1758.000</ele>
        <time>2019-05-14T16:04:18Z</time>
      </trkpt>
      <trkpt lat="35.138675690" lon="-106.770452400">
        <ele>1757.000</ele>
        <time>2019-05-14T16:04:22Z</time>
      </trkpt>
      <trkpt lat="35.138709950" lon="-106.770421960">
        <ele>1757.000</ele>
        <time>2019-05-14T16:04:26Z</time>
      </trkpt>
      <trkpt lat="35.138742060" lon="-106.770382080">
        <ele>1757.000</ele>
        <time>2019-05-14T16:04:30Z</time>
      </trkpt>
      <trkpt lat="35.138775470" lon="-106.770347200">
        <ele>1756.000</ele>
        <time>2019-05-14T16:04:34Z</time>
      </trkpt>
      <trkpt lat="35.138812690" lon="-106.770308780">
        <ele>1756.000</ele>
        <time>2019-05-14T16:04:38Z</time>
      </trkpt>
      <trkpt lat="35.138850980" lon="-106.770284280">
        <ele>1755.000</ele>
        <time>2019-05-14T16:04:42Z</time>
      </trkpt>
      <trkpt lat="35.138884330" lon="-106.770261350">
        <ele>1755.000</ele>
        <time>2019-05-14T16:04:46Z</time>
      </trkpt>
      <trkpt lat="35.138925100" lon="-106.770236240">
        <ele>1755.000</ele>
        <time>2019-05-14T16:04:50Z</time>
      </trkpt>
      <trkpt lat="35.138953560" lon="-106.770201740">
        <ele>1755.000</ele>
        <time>2019-05-14T16:04:54Z</time>
      </trkpt>
      <trkpt lat="35.138989070" lon="-106.770178110">
        <ele>1754.000</ele>
        <time>2019-05-14T16:04:58Z</time>
      </trkpt>
      <trkpt lat="35.139025570" lon="-106.770152260">
        <ele>1754.000</ele>
        <time>2019-05-14T16:05:02Z</time>
      </trkpt>
      <trkpt lat="35.139061820" lon="-106.770116390">
        <ele>1754.000</ele>
        <time>2019-05-14T16:05:06Z</time>
      </trkpt>
      <trkpt lat="35.139100350" lon="-106.770081190">
        <ele>1754.000</ele>
        <time>2019-05-14T16:05:10Z</time>
      </trkpt>
      <trkpt lat="35.139132410" lon="-106.770049260">
        <ele>1755.000</ele>
        <time>2019-05-14T16:05:14Z</time>
      </trkpt>
      <trkpt lat="35.139168510" lon="-106.770018910">
        <ele>1753.000</ele>
        <time>2019-05-14T16:05:19Z</time>
      </trkpt>
      <trkpt lat="35.139202990" lon="-106.769990270">
        <ele>1752.000</ele>
        <time>2019-05-14T16:05:24Z</time>
      </trkpt>
      <trkpt lat="35.139239980" lon="-106.769979230">
        <ele>1753.000</ele>
        <time>2019-05-14T16:05:27Z</time>
      </trkpt>
      <trkpt lat="35.139275230" lon="-106.769957700">
        <ele>1753.000</ele>
        <time>2019-05-14T16:05:31Z</time>
      </trkpt>
      <trkpt lat="35.139318490" lon="-106.769932490">
        <ele>1753.000</ele>
        <time>2019-05-14T16:05:36Z</time>
      </trkpt>
      <trkpt lat="35.139361520" lon="-106.769913990">
        <ele>1753.000</ele>
        <time>2019-05-14T16:05:40Z</time>
      </trkpt>
      <trkpt lat="35.139399750" lon="-106.769896960">
        <ele>1753.000</ele>
        <time>2019-05-14T16:05:44Z</time>
      </trkpt>
      <trkpt lat="35.139442610" lon="-106.769893140">
        <ele>1753.000</ele>
        <time>2019-05-14T16:05:48Z</time>
      </trkpt>
      <trkpt lat="35.139487300" lon="-106.769889900">
        <ele>1753.000</ele>
        <time>2019-05-14T16:05:53Z</time>
      </trkpt>
      <trkpt lat="35.139526670" lon="-106.769894190">
        <ele>1753.000</ele>
        <time>2019-05-14T16:06:05Z</time>
      </trkpt>
      <trkpt lat="35.139571410" lon="-106.769896340">
        <ele>1754.000</ele>
        <time>2019-05-14T16:06:09Z</time>
      </trkpt>
      <trkpt lat="35.139607790" lon="-106.769897620">
        <ele>1754.000</ele>
        <time>2019-05-14T16:06:12Z</time>
      </trkpt>
      <trkpt lat="35.139645540" lon="-106.769892950">
        <ele>1754.000</ele>
        <time>2019-05-14T16:06:16Z</time>
      </trkpt>
      <trkpt lat="35.139689810" lon="-106.769900030">
        <ele>1756.000</ele>
        <time>2019-05-14T16:06:20Z</time>
      </trkpt>
      <trkpt lat="35.139730080" lon="-106.769912470">
        <ele>1755.000</ele>
        <time>2019-05-14T16:06:24Z</time>
      </trkpt>
      <trkpt lat="35.139763270" lon="-106.769936190">
        <ele>1755.000</ele>
        <time>2019-05-14T16:06:28Z</time>
      </trkpt>
      <trkpt lat="35.139801710" lon="-106.769956140">
        <ele>1755.000</ele>
        <time>2019-05-14T16:06:32Z</time>
      </trkpt>
      <trkpt lat="35.139836550" lon="-106.769969550">
        <ele>1756.000</ele>
        <time>2019-05-14T16:06:35Z</time>
      </trkpt>
      <trkpt lat="35.139866480" lon="-106.769998670">
        <ele>1756.000</ele>
        <time>2019-05-14T16:06:38Z</time>
      </trkpt>
      <trkpt lat="35.139895540" lon="-106.770029860">
        <ele>1756.000</ele>
        <time>2019-05-14T16:06:42Z</time>
      </trkpt>
      <trkpt lat="35.139919850" lon="-106.770067110">
        <ele>1757.000</ele>
        <time>2019-05-14T16:06:46Z</time>
      </trkpt>
      <trkpt lat="35.139951260" lon="-106.770101570">
        <ele>1756.000</ele>
        <time>2019-05-14T16:06:50Z</time>
      </trkpt>
      <trkpt lat="35.139984510" lon="-106.770129980">
        <ele>1757.000</ele>
        <time>2019-05-14T16:06:54Z</time>
      </trkpt>
      <trkpt lat="35.140021840" lon="-106.770160060">
        <ele>1758.000</ele>
        <time>2019-05-14T16:06:58Z</time>
      </trkpt>
      <trkpt lat="35.140050420" lon="-106.770192120">
        <ele>1758.000</ele>
        <time>2019-05-14T16:07:02Z</time>
      </trkpt>
      <trkpt lat="35.140079430" lon="-106.770230220">
        <ele>1757.000</ele>
        <time>2019-05-14T16:07:06Z</time>
      </trkpt>
      <trkpt lat="35.140109940" lon="-106.770260140">
        <ele>1759.000</ele>
        <time>2019-05-14T16:07:17Z</time>
      </trkpt>
      <trkpt lat="35.140138830" lon="-106.770291980">
        <ele>1758.000</ele>
        <time>2019-05-14T16:07:21Z</time>
      </trkpt>
      <trkpt lat="35.140173000" lon="-106.770330370">
        <ele>1758.000</ele>
        <time>2019-05-14T16:07:25Z</time>
      </trkpt>
      <trkpt lat="35.140204590" lon="-106.770361030">
        <ele>1759.000</ele>
        <time>2019-05-14T16:07:29Z</time>
      </trkpt>
      <trkpt lat="35.140237050" lon="-106.770385330">
        <ele>1759.000</ele>
        <time>2019-05-14T16:07:33Z</time>
      </trkpt>
      <trkpt lat="35.140276060" lon="-106.770410320">
        <ele>1759.000</ele>
        <time>2019-05-14T16:07:37Z</time>
      </trkpt>
      <trkpt lat="35.140310470" lon="-106.770431320">
        <ele>1757.000</ele>
        <time>2019-05-14T16:07:40Z</time>
      </trkpt>
      <trkpt lat="35.140350350" lon="-106.770449230">
        <ele>1755.000</ele>
        <time>2019-05-14T16:07:44Z</time>
      </trkpt>
      <trkpt lat="35.140393500" lon="-106.770452410">
        <ele>1755.000</ele>
        <time>2019-05-14T16:07:48Z</time>
      </trkpt>
      <trkpt lat="35.140427530" lon="-106.770467780">
        <ele>1755.000</ele>
        <time>2019-05-14T16:07:51Z</time>
      </trkpt>
      <trkpt lat="35.140462860" lon="-106.770490910">
        <ele>1755.000</ele>
        <time>2019-05-14T16:07:55Z</time>
      </trkpt>
      <trkpt lat="35.140505350" lon="-106.770499320">
        <ele>1755.000</ele>
        <time>2019-05-14T16:07:59Z</time>
      </trkpt>
      <trkpt lat="35.140542710" lon="-106.770525190">
        <ele>1755.000</ele>
        <time>2019-05-14T16:08:04Z</time>
      </trkpt>
      <trkpt lat="35.140584330" lon="-106.770544760">
        <ele>1754.000</ele>
        <time>2019-05-14T16:08:08Z</time>
      </trkpt>
      <trkpt lat="35.140618130" lon="-106.770560770">
        <ele>1754.000</ele>
        <time>2019-05-14T16:08:11Z</time>
      </trkpt>
      <trkpt lat="35.140662420" lon="-106.770575630">
        <ele>1755.000</ele>
        <time>2019-05-14T16:08:16Z</time>
      </trkpt>
      <trkpt lat="35.140701850" lon="-106.770596520">
        <ele>1756.000</ele>
        <time>2019-05-14T16:08:20Z</time>
      </trkpt>
      <trkpt lat="35.140738240" lon="-106.770615320">
        <ele>1756.000</ele>
        <time>2019-05-14T16:08:24Z</time>
      </trkpt>
      <trkpt lat="35.140777610" lon="-106.770610040">
        <ele>1758.000</ele>
        <time>2019-05-14T16:08:28Z</time>
      </trkpt>
      <trkpt lat="35.140820980" lon="-106.770614560">
        <ele>1757.000</ele>
        <time>2019-05-14T16:08:32Z</time>
      </trkpt>
      <trkpt lat="35.140863370" lon="-106.770614690">
        <ele>1758.000</ele>
        <time>2019-05-14T16:08:36Z</time>
      </trkpt>
      <trkpt lat="35.140901370" lon="-106.770626190">
        <ele>1756.000</ele>
        <time>2019-05-14T16:08:40Z</time>
      </trkpt>
      <trkpt lat="35.140948990" lon="-106.770625920">
        <ele>1756.000</ele>
        <time>2019-05-14T16:08:44Z</time>
      </trkpt>
      <trkpt lat="35.140987760" lon="-106.770618730">
        <ele>1759.000</ele>
        <time>2019-05-14T16:08:48Z</time>
      </trkpt>
      <trkpt lat="35.141033480" lon="-106.770614460">
        <ele>1756.000</ele>
        <time>2019-05-14T16:08:54Z</time>
      </trkpt>
      <trkpt lat="35.141072540" lon="-106.770632690">
        <ele>1758.000</ele>
        <time>2019-05-14T16:08:58Z</time>
      </trkpt>
      <trkpt lat="35.141118570" lon="-106.770630730">
        <ele>1758.000</ele>
        <time>2019-05-14T16:09:03Z</time>
      </trkpt>
      <trkpt lat="35.141161370" lon="-106.770616600">
        <ele>1758.000</ele>
        <time>2019-05-14T16:09:07Z</time>
      </trkpt>
      <trkpt lat="35.141203440" lon="-106.770616920">
        <ele>1759.000</ele>
        <time>2019-05-14T16:09:12Z</time>
      </trkpt>
      <trkpt lat="35.141247030" lon="-106.770605340">
        <ele>1759.000</ele>
        <time>2019-05-14T16:09:16Z</time>
      </trkpt>
      <trkpt lat="35.141292640" lon="-106.770602590">
        <ele>1757.000</ele>
        <time>2019-05-14T16:09:20Z</time>
      </trkpt>
      <trkpt lat="35.141332620" lon="-106.770608020">
        <ele>1756.000</ele>
        <time>2019-05-14T16:09:24Z</time>
      </trkpt>
      <trkpt lat="35.141375690" lon="-106.770599790">
        <ele>1757.000</ele>
        <time>2019-05-14T16:09:29Z</time>
      </trkpt>
      <trkpt lat="35.141419890" lon="-106.770601790">
        <ele>1759.000</ele>
        <time>2019-05-14T16:09:34Z</time>
      </trkpt>
      <trkpt lat="35.141455490" lon="-106.770615120">
        <ele>1759.000</ele>
        <time>2019-05-14T16:09:38Z</time>
      </trkpt>
      <trkpt lat="35.141492090" lon="-106.770613360">
        <ele>1758.000</ele>
        <time>2019-05-14T16:09:41Z</time>
      </trkpt>
      <trkpt lat="35.141533370" lon="-106.770618420">
        <ele>1759.000</ele>
        <time>2019-05-14T16:09:45Z</time>
      </trkpt>
      <trkpt lat="35.141573390" lon="-106.770641770">
        <ele>1761.000</ele>
        <time>2019-05-14T16:09:50Z</time>
      </trkpt>
      <trkpt lat="35.141614570" lon="-106.770647050">
        <ele>1762.000</ele>
        <time>2019-05-14T16:09:55Z</time>
      </trkpt>
      <trkpt lat="35.141653810" lon="-106.770659860">
        <ele>1763.000</ele>
        <time>2019-05-14T16:09:59Z</time>
      </trkpt>
      <trkpt lat="35.141697540" lon="-106.770658640">
        <ele>1765.000</ele>
        <time>2019-05-14T16:10:04Z</time>
      </trkpt>
      <trkpt lat="35.141733100" lon="-106.770676960">
        <ele>1766.000</ele>
        <time>2019-05-14T16:10:09Z</time>
      </trkpt>
      <trkpt lat="35.141769550" lon="-106.770671670">
        <ele>1763.000</ele>
        <time>2019-05-14T16:10:12Z</time>
      </trkpt>
      <trkpt lat="35.141815630" lon="-106.770674680">
        <ele>1765.000</ele>
        <time>2019-05-14T16:10:16Z</time>
      </trkpt>
      <trkpt lat="35.141857380" lon="-106.770678750">
        <ele>1766.000</ele>
        <time>2019-05-14T16:10:20Z</time>
      </trkpt>
      <trkpt lat="35.141894920" lon="-106.770669340">
        <ele>1766.000</ele>
        <time>2019-05-14T16:10:23Z</time>
      </trkpt>
      <trkpt lat="35.141921670" lon="-106.770704310">
        <ele>1767.000</ele>
        <time>2019-05-14T16:10:31Z</time>
      </trkpt>
      <trkpt lat="35.141953780" lon="-106.770724610">
        <ele>1768.000</ele>
        <time>2019-05-14T16:10:35Z</time>
      </trkpt>
      <trkpt lat="35.141979020" lon="-106.770764420">
        <ele>1770.000</ele>
        <time>2019-05-14T16:10:40Z</time>
      </trkpt>
      <trkpt lat="35.142011450" lon="-106.770788450">
        <ele>1770.000</ele>
        <time>2019-05-14T16:10:44Z</time>
      </trkpt>
      <trkpt lat="35.142029400" lon="-106.770831660">
        <ele>1772.000</ele>
        <time>2019-05-14T16:10:50Z</time>
      </trkpt>
      <trkpt lat="35.142046890" lon="-106.770877940">
        <ele>1773.000</ele>
        <time>2019-05-14T16:10:56Z</time>
      </trkpt>
      <trkpt lat="35.142054570" lon="-106.770924860">
        <ele>1774.000</ele>
        <time>2019-05-14T16:11:01Z</time>
      </trkpt>
      <trkpt lat="35.142070340" lon="-106.770969960">
        <ele>1776.000</ele>
        <time>2019-05-14T16:11:07Z</time>
      </trkpt>
      <trkpt lat="35.142111060" lon="-106.770955170">
        <ele>1776.000</ele>
        <time>2019-05-14T16:11:21Z</time>
      </trkpt>
      <trkpt lat="35.142101310" lon="-106.771005460">
        <ele>1778.000</ele>
        <time>2019-05-14T16:11:46Z</time>
      </trkpt>
      <trkpt lat="35.142114250" lon="-106.771048610">
        <ele>1781.000</ele>
        <time>2019-05-14T16:11:53Z</time>
      </trkpt>
      <trkpt lat="35.142104970" lon="-106.771096540">
        <ele>1782.000</ele>
        <time>2019-05-14T16:12:02Z</time>
      </trkpt>
      <trkpt lat="35.142114360" lon="-106.771144060">
        <ele>1782.000</ele>
        <time>2019-05-14T16:12:13Z</time>
      </trkpt>
      <trkpt lat="35.142119310" lon="-106.771195150">
        <ele>1784.000</ele>
        <time>2019-05-14T16:12:18Z</time>
      </trkpt>
      <trkpt lat="35.142114800" lon="-106.771252810">
        <ele>1785.000</ele>
        <time>2019-05-14T16:12:24Z</time>
      </trkpt>
      <trkpt lat="35.142120910" lon="-106.771304410">
        <ele>1786.000</ele>
        <time>2019-05-14T16:12:29Z</time>
      </trkpt>
      <trkpt lat="35.142133980" lon="-106.771349380">
        <ele>1786.000</ele>
        <time>2019-05-14T16:12:34Z</time>
      </trkpt>
      <trkpt lat="35.142139150" lon="-106.771407410">
        <ele>1786.000</ele>
        <time>2019-05-14T16:12:38Z</time>
      </trkpt>
      <trkpt lat="35.142134450" lon="-106.771458500">
        <ele>1786.000</ele>
        <time>2019-05-14T16:12:42Z</time>
      </trkpt>
      <trkpt lat="35.142118070" lon="-106.771512500">
        <ele>1786.000</ele>
        <time>2019-05-14T16:12:47Z</time>
      </trkpt>
      <trkpt lat="35.142109280" lon="-106.771556480">
        <ele>1786.000</ele>
        <time>2019-05-14T16:12:51Z</time>
      </trkpt>
      <trkpt lat="35.142085830" lon="-106.771602660">
        <ele>1787.000</ele>
        <time>2019-05-14T16:12:56Z</time>
      </trkpt>
      <trkpt lat="35.142076060" lon="-106.771653730">
        <ele>1788.000</ele>
        <time>2019-05-14T16:13:01Z</time>
      </trkpt>
      <trkpt lat="35.142066490" lon="-106.771696900">
        <ele>1788.000</ele>
        <time>2019-05-14T16:13:05Z</time>
      </trkpt>
      <trkpt lat="35.142073150" lon="-106.771743420">
        <ele>1788.000</ele>
        <time>2019-05-14T16:13:09Z</time>
      </trkpt>
      <trkpt lat="35.142092500" lon="-106.771793940">
        <ele>1787.000</ele>
        <time>2019-05-14T16:13:13Z</time>
      </trkpt>
      <trkpt lat="35.142113880" lon="-106.771831750">
        <ele>1787.000</ele>
        <time>2019-05-14T16:13:17Z</time>
      </trkpt>
      <trkpt lat="35.142134500" lon="-106.771873360">
        <ele>1787.000</ele>
        <time>2019-05-14T16:13:21Z</time>
      </trkpt>
      <trkpt lat="35.142149120" lon="-106.771916790">
        <ele>1786.000</ele>
        <time>2019-05-14T16:13:25Z</time>
      </trkpt>
      <trkpt lat="35.142166150" lon="-106.771955910">
        <ele>1786.000</ele>
        <time>2019-05-14T16:13:28Z</time>
      </trkpt>
      <trkpt lat="35.142186440" lon="-106.771997210">
        <ele>1786.000</ele>
        <time>2019-05-14T16:13:32Z</time>
      </trkpt>
      <trkpt lat="35.142199690" lon="-106.772038850">
        <ele>1785.000</ele>
        <time>2019-05-14T16:13:35Z</time>
      </trkpt>
      <trkpt lat="35.142220160" lon="-106.772080640">
        <ele>1786.000</ele>
        <time>2019-05-14T16:13:39Z</time>
      </trkpt>
      <trkpt lat="35.142240860" lon="-106.772122630">
        <ele>1786.000</ele>
        <time>2019-05-14T16:13:43Z</time>
      </trkpt>
      <trkpt lat="35.142237090" lon="-106.772179770">
        <ele>1786.000</ele>
        <time>2019-05-14T16:13:47Z</time>
      </trkpt>
      <trkpt lat="35.142242120" lon="-106.772227250">
        <ele>1786.000</ele>
        <time>2019-05-14T16:13:51Z</time>
      </trkpt>
      <trkpt lat="35.142244070" lon="-106.772271130">
        <ele>1786.000</ele>
        <time>2019-05-14T16:13:55Z</time>
      </trkpt>
      <trkpt lat="35.142252580" lon="-106.772323790">
        <ele>1786.000</ele>
        <time>2019-05-14T16:14:00Z</time>
      </trkpt>
      <trkpt lat="35.142253560" lon="-106.772374520">
        <ele>1785.000</ele>
        <time>2019-05-14T16:14:05Z</time>
      </trkpt>
      <trkpt lat="35.142246320" lon="-106.772420430">
        <ele>1785.000</ele>
        <time>2019-05-14T16:14:09Z</time>
      </trkpt>
      <trkpt lat="35.142232250" lon="-106.772466720">
        <ele>1784.000</ele>
        <time>2019-05-14T16:14:13Z</time>
      </trkpt>
      <trkpt lat="35.142210790" lon="-106.772502700">
        <ele>1785.000</ele>
        <time>2019-05-14T16:14:17Z</time>
      </trkpt>
      <trkpt lat="35.142186110" lon="-106.772541720">
        <ele>1785.000</ele>
        <time>2019-05-14T16:14:22Z</time>
      </trkpt>
      <trkpt lat="35.142161780" lon="-106.772581860">
        <ele>1785.000</ele>
        <time>2019-05-14T16:14:27Z</time>
      </trkpt>
      <trkpt lat="35.142129620" lon="-106.772616740">
        <ele>1785.000</ele>
        <time>2019-05-14T16:14:31Z</time>
      </trkpt>
      <trkpt lat="35.142095660" lon="-106.772656330">
        <ele>1786.000</ele>
        <time>2019-05-14T16:14:35Z</time>
      </trkpt>
      <trkpt lat="35.142056380" lon="-106.772682720">
        <ele>1786.000</ele>
        <time>2019-05-14T16:14:39Z</time>
      </trkpt>
      <trkpt lat="35.142019110" lon="-106.772702700">
        <ele>1787.000</ele>
        <time>2019-05-14T16:14:43Z</time>
      </trkpt>
      <trkpt lat="35.141981190" lon="-106.772735900">
        <ele>1786.000</ele>
        <time>2019-05-14T16:14:47Z</time>
      </trkpt>
      <trkpt lat="35.141949680" lon="-106.772759500">
        <ele>1786.000</ele>
        <time>2019-05-14T16:14:50Z</time>
      </trkpt>
      <trkpt lat="35.141912340" lon="-106.772775710">
        <ele>1786.000</ele>
        <time>2019-05-14T16:14:54Z</time>
      </trkpt>
      <trkpt lat="35.141873300" lon="-106.772778130">
        <ele>1786.000</ele>
        <time>2019-05-14T16:14:58Z</time>
      </trkpt>
      <trkpt lat="35.141834480" lon="-106.772789740">
        <ele>1785.000</ele>
        <time>2019-05-14T16:15:02Z</time>
      </trkpt>
      <trkpt lat="35.141797000" lon="-106.772779980">
        <ele>1786.000</ele>
        <time>2019-05-14T16:15:11Z</time>
      </trkpt>
      <trkpt lat="35.141755050" lon="-106.772793310">
        <ele>1785.000</ele>
        <time>2019-05-14T16:15:25Z</time>
      </trkpt>
      <trkpt lat="35.141721030" lon="-106.772821170">
        <ele>1785.000</ele>
        <time>2019-05-14T16:15:45Z</time>
      </trkpt>
      <trkpt lat="35.141687780" lon="-106.772845870">
        <ele>1784.000</ele>
        <time>2019-05-14T16:15:48Z</time>
      </trkpt>
      <trkpt lat="35.141651350" lon="-106.772884030">
        <ele>1783.000</ele>
        <time>2019-05-14T16:15:53Z</time>
      </trkpt>
      <trkpt lat="35.141613230" lon="-106.772908730">
        <ele>1783.000</ele>
        <time>2019-05-14T16:15:57Z</time>
      </trkpt>
      <trkpt lat="35.141586680" lon="-106.772939750">
        <ele>1782.000</ele>
        <time>2019-05-14T16:16:00Z</time>
      </trkpt>
      <trkpt lat="35.141558310" lon="-106.772969770">
        <ele>1780.000</ele>
        <time>2019-05-14T16:16:04Z</time>
      </trkpt>
      <trkpt lat="35.141523460" lon="-106.772999760">
        <ele>1780.000</ele>
        <time>2019-05-14T16:16:08Z</time>
      </trkpt>
      <trkpt lat="35.141487690" lon="-106.773023440">
        <ele>1780.000</ele>
        <time>2019-05-14T16:16:12Z</time>
      </trkpt>
      <trkpt lat="35.141445830" lon="-106.773011420">
        <ele>1779.000</ele>
        <time>2019-05-14T16:16:16Z</time>
      </trkpt>
      <trkpt lat="35.141404330" lon="-106.773019130">
        <ele>1779.000</ele>
        <time>2019-05-14T16:16:20Z</time>
      </trkpt>
      <trkpt lat="35.141364790" lon="-106.773004100">
        <ele>1779.000</ele>
        <time>2019-05-14T16:16:24Z</time>
      </trkpt>
      <trkpt lat="35.141327530" lon="-106.772994840">
        <ele>1779.000</ele>
        <time>2019-05-14T16:16:27Z</time>
      </trkpt>
      <trkpt lat="35.141283160" lon="-106.773003340">
        <ele>1779.000</ele>
        <time>2019-05-14T16:16:31Z</time>
      </trkpt>
      <trkpt lat="35.141246090" lon="-106.773010510">
        <ele>1778.000</ele>
        <time>2019-05-14T16:16:34Z</time>
      </trkpt>
      <trkpt lat="35.141210200" lon="-106.773015090">
        <ele>1779.000</ele>
        <time>2019-05-14T16:16:37Z</time>
      </trkpt>
      <trkpt lat="35.141165990" lon="-106.773024120">
        <ele>1778.000</ele>
        <time>2019-05-14T16:16:41Z</time>
      </trkpt>
      <trkpt lat="35.141131740" lon="-106.773061580">
        <ele>1777.000</ele>
        <time>2019-05-14T16:16:45Z</time>
      </trkpt>
      <trkpt lat="35.141100320" lon="-106.773092050">
        <ele>1777.000</ele>
        <time>2019-05-14T16:16:49Z</time>
      </trkpt>
      <trkpt lat="35.141063740" lon="-106.773117970">
        <ele>1777.000</ele>
        <time>2019-05-14T16:16:54Z</time>
      </trkpt>
      <trkpt lat="35.141036740" lon="-106.773147270">
        <ele>1775.000</ele>
        <time>2019-05-14T16:16:57Z</time>
      </trkpt>
      <trkpt lat="35.141005200" lon="-106.773182200">
        <ele>1774.000</ele>
        <time>2019-05-14T16:17:01Z</time>
      </trkpt>
      <trkpt lat="35.140979740" lon="-106.773221520">
        <ele>1773.000</ele>
        <time>2019-05-14T16:17:05Z</time>
      </trkpt>
      <trkpt lat="35.140953030" lon="-106.773255430">
        <ele>1773.000</ele>
        <time>2019-05-14T16:17:09Z</time>
      </trkpt>
      <trkpt lat="35.140926730" lon="-106.773298830">
        <ele>1772.000</ele>
        <time>2019-05-14T16:17:20Z</time>
      </trkpt>
      <trkpt lat="35.140899800" lon="-106.773339750">
        <ele>1772.000</ele>
        <time>2019-05-14T16:17:24Z</time>
      </trkpt>
      <trkpt lat="35.140877250" lon="-106.773378330">
        <ele>1772.000</ele>
        <time>2019-05-14T16:17:28Z</time>
      </trkpt>
      <trkpt lat="35.140857200" lon="-106.773424510">
        <ele>1771.000</ele>
        <time>2019-05-14T16:17:33Z</time>
      </trkpt>
      <trkpt lat="35.140839560" lon="-106.773466830">
        <ele>1772.000</ele>
        <time>2019-05-14T16:17:37Z</time>
      </trkpt>
      <trkpt lat="35.140820080" lon="-106.773509200">
        <ele>1772.000</ele>
        <time>2019-05-14T16:17:41Z</time>
      </trkpt>
      <trkpt lat="35.140795790" lon="-106.773546130">
        <ele>1773.000</ele>
        <time>2019-05-14T16:17:45Z</time>
      </trkpt>
      <trkpt lat="35.140768980" lon="-106.773590700">
        <ele>1772.000</ele>
        <time>2019-05-14T16:17:50Z</time>
      </trkpt>
      <trkpt lat="35.140740220" lon="-106.773623200">
        <ele>1771.000</ele>
        <time>2019-05-14T16:17:54Z</time>
      </trkpt>
      <trkpt lat="35.140706470" lon="-106.773657930">
        <ele>1769.000</ele>
        <time>2019-05-14T16:17:59Z</time>
      </trkpt>
      <trkpt lat="35.140670200" lon="-106.773680670">
        <ele>1768.000</ele>
        <time>2019-05-14T16:18:03Z</time>
      </trkpt>
      <trkpt lat="35.140641100" lon="-106.773709110">
        <ele>1769.000</ele>
        <time>2019-05-14T16:18:07Z</time>
      </trkpt>
      <trkpt lat="35.140602250" lon="-106.773733110">
        <ele>1768.000</ele>
        <time>2019-05-14T16:18:11Z</time>
      </trkpt>
      <trkpt lat="35.140564530" lon="-106.773754720">
        <ele>1768.000</ele>
        <time>2019-05-14T16:18:15Z</time>
      </trkpt>
      <trkpt lat="35.140521580" lon="-106.773777120">
        <ele>1768.000</ele>
        <time>2019-05-14T16:18:19Z</time>
      </trkpt>
      <trkpt lat="35.140485160" lon="-106.773799820">
        <ele>1767.000</ele>
        <time>2019-05-14T16:18:23Z</time>
      </trkpt>
      <trkpt lat="35.140450680" lon="-106.773818700">
        <ele>1766.000</ele>
        <time>2019-05-14T16:18:26Z</time>
      </trkpt>
      <trkpt lat="35.140411460" lon="-106.773843720">
        <ele>1766.000</ele>
        <time>2019-05-14T16:18:30Z</time>
      </trkpt>
      <trkpt lat="35.140370310" lon="-106.773855920">
        <ele>1765.000</ele>
        <time>2019-05-14T16:18:34Z</time>
      </trkpt>
      <trkpt lat="35.140328660" lon="-106.773862520">
        <ele>1764.000</ele>
        <time>2019-05-14T16:18:38Z</time>
      </trkpt>
      <trkpt lat="35.140289650" lon="-106.773863250">
        <ele>1765.000</ele>
        <time>2019-05-14T16:18:42Z</time>
      </trkpt>
      <trkpt lat="35.140247170" lon="-106.773869730">
        <ele>1765.000</ele>
        <time>2019-05-14T16:18:46Z</time>
      </trkpt>
      <trkpt lat="35.140202080" lon="-106.773864100">
        <ele>1766.000</ele>
        <time>2019-05-14T16:18:50Z</time>
      </trkpt>
      <trkpt lat="35.140162890" lon="-106.773873770">
        <ele>1765.000</ele>
        <time>2019-05-14T16:18:54Z</time>
      </trkpt>
      <trkpt lat="35.140121810" lon="-106.773860630">
        <ele>1765.000</ele>
        <time>2019-05-14T16:18:58Z</time>
      </trkpt>
      <trkpt lat="35.140084740" lon="-106.773852910">
        <ele>1765.000</ele>
        <time>2019-05-14T16:19:02Z</time>
      </trkpt>
      <trkpt lat="35.140043560" lon="-106.773844280">
        <ele>1764.000</ele>
        <time>2019-05-14T16:19:06Z</time>
      </trkpt>
      <trkpt lat="35.140003030" lon="-106.773827700">
        <ele>1765.000</ele>
        <time>2019-05-14T16:19:10Z</time>
      </trkpt>
      <trkpt lat="35.139968340" lon="-106.773807560">
        <ele>1764.000</ele>
        <time>2019-05-14T16:19:14Z</time>
      </trkpt>
      <trkpt lat="35.139929420" lon="-106.773791100">
        <ele>1764.000</ele>
        <time>2019-05-14T16:19:18Z</time>
      </trkpt>
      <trkpt lat="35.139893570" lon="-106.773764270">
        <ele>1764.000</ele>
        <time>2019-05-14T16:19:22Z</time>
      </trkpt>
      <trkpt lat="35.139855970" lon="-106.773748450">
        <ele>1764.000</ele>
        <time>2019-05-14T16:19:26Z</time>
      </trkpt>
      <trkpt lat="35.139816990" lon="-106.773738080">
        <ele>1763.000</ele>
        <time>2019-05-14T16:19:30Z</time>
      </trkpt>
      <trkpt lat="35.139783110" lon="-106.773720800">
        <ele>1762.000</ele>
        <time>2019-05-14T16:19:34Z</time>
      </trkpt>
      <trkpt lat="35.139756500" lon="-106.773690290">
        <ele>1763.000</ele>
        <time>2019-05-14T16:19:37Z</time>
      </trkpt>
      <trkpt lat="35.139728630" lon="-106.773657920">
        <ele>1763.000</ele>
        <time>2019-05-14T16:19:41Z</time>
      </trkpt>
      <trkpt lat="35.139688420" lon="-106.773649160">
        <ele>1763.000</ele>
        <time>2019-05-14T16:19:45Z</time>
      </trkpt>
      <trkpt lat="35.139648420" lon="-106.773638340">
        <ele>1763.000</ele>
        <time>2019-05-14T16:19:49Z</time>
      </trkpt>
      <trkpt lat="35.139614860" lon="-106.773616180">
        <ele>1762.000</ele>
        <time>2019-05-14T16:19:53Z</time>
      </trkpt>
      <trkpt lat="35.139581350" lon="-106.773592530">
        <ele>1761.000</ele>
        <time>2019-05-14T16:19:57Z</time>
      </trkpt>
      <trkpt lat="35.139538790" lon="-106.773587590">
        <ele>1761.000</ele>
        <time>2019-05-14T16:20:02Z</time>
      </trkpt>
      <trkpt lat="35.139496040" lon="-106.773576070">
        <ele>1761.000</ele>
        <time>2019-05-14T16:20:07Z</time>
      </trkpt>
      <trkpt lat="35.139458730" lon="-106.773554630">
        <ele>1760.000</ele>
        <time>2019-05-14T16:20:11Z</time>
      </trkpt>
      <trkpt lat="35.139422060" lon="-106.773547330">
        <ele>1760.000</ele>
        <time>2019-05-14T16:20:15Z</time>
      </trkpt>
      <trkpt lat="35.139386330" lon="-106.773532710">
        <ele>1760.000</ele>
        <time>2019-05-14T16:20:20Z</time>
      </trkpt>
      <trkpt lat="35.139355130" lon="-106.773509610">
        <ele>1761.000</ele>
        <time>2019-05-14T16:20:56Z</time>
      </trkpt>
      <trkpt lat="35.139310670" lon="-106.773504090">
        <ele>1762.000</ele>
        <time>2019-05-14T16:21:00Z</time>
      </trkpt>
      <trkpt lat="35.139267380" lon="-106.773493750">
        <ele>1761.000</ele>
        <time>2019-05-14T16:21:15Z</time>
      </trkpt>
      <trkpt lat="35.139232280" lon="-106.773479940">
        <ele>1760.000</ele>
        <time>2019-05-14T16:21:18Z</time>
      </trkpt>
      <trkpt lat="35.139196170" lon="-106.773471800">
        <ele>1760.000</ele>
        <time>2019-05-14T16:21:21Z</time>
      </trkpt>
      <trkpt lat="35.139153540" lon="-106.773455750">
        <ele>1759.000</ele>
        <time>2019-05-14T16:21:25Z</time>
      </trkpt>
      <trkpt lat="35.139111460" lon="-106.773437620">
        <ele>1760.000</ele>
        <time>2019-05-14T16:21:29Z</time>
      </trkpt>
      <trkpt lat="35.139072070" lon="-106.773416540">
        <ele>1760.000</ele>
        <time>2019-05-14T16:21:32Z</time>
      </trkpt>
      <trkpt lat="35.139034590" lon="-106.773411780">
        <ele>1760.000</ele>
        <time>2019-05-14T16:21:35Z</time>
      </trkpt>
      <trkpt lat="35.138998220" lon="-106.773409330">
        <ele>1759.000</ele>
        <time>2019-05-14T16:21:38Z</time>
      </trkpt>
      <trkpt lat="35.138957490" lon="-106.773395740">
        <ele>1760.000</ele>
        <time>2019-05-14T16:21:41Z</time>
      </trkpt>
      <trkpt lat="35.138912790" lon="-106.773386380">
        <ele>1759.000</ele>
        <time>2019-05-14T16:21:44Z</time>
      </trkpt>
      <trkpt lat="35.138877860" lon="-106.773372100">
        <ele>1759.000</ele>
        <time>2019-05-14T16:21:47Z</time>
      </trkpt>
      <trkpt lat="35.138840400" lon="-106.773361870">
        <ele>1759.000</ele>
        <time>2019-05-14T16:21:50Z</time>
      </trkpt>
      <trkpt lat="35.138802730" lon="-106.773352060">
        <ele>1759.000</ele>
        <time>2019-05-14T16:21:53Z</time>
      </trkpt>
      <trkpt lat="35.138764010" lon="-106.773339160">
        <ele>1759.000</ele>
        <time>2019-05-14T16:21:56Z</time>
      </trkpt>
      <trkpt lat="35.138726180" lon="-106.773312570">
        <ele>1759.000</ele>
        <time>2019-05-14T16:21:59Z</time>
      </trkpt>
      <trkpt lat="35.138690310" lon="-106.773292180">
        <ele>1759.000</ele>
        <time>2019-05-14T16:22:02Z</time>
      </trkpt>
      <trkpt lat="35.138644650" lon="-106.773280800">
        <ele>1759.000</ele>
        <time>2019-05-14T16:22:06Z</time>
      </trkpt>
      <trkpt lat="35.138608750" lon="-106.773285300">
        <ele>1758.000</ele>
        <time>2019-05-14T16:22:09Z</time>
      </trkpt>
      <trkpt lat="35.138571500" lon="-106.773264740">
        <ele>1758.000</ele>
        <time>2019-05-14T16:22:12Z</time>
      </trkpt>
      <trkpt lat="35.138524380" lon="-106.773251210">
        <ele>1758.000</ele>
        <time>2019-05-14T16:22:16Z</time>
      </trkpt>
      <trkpt lat="35.138487440" lon="-106.773201320">
        <ele>1760.000</ele>
        <time>2019-05-14T16:22:19Z</time>
      </trkpt>
      <trkpt lat="35.138450260" lon="-106.773187450">
        <ele>1759.000</ele>
        <time>2019-05-14T16:22:22Z</time>
      </trkpt>
      <trkpt lat="35.138411400" lon="-106.773181450">
        <ele>1758.000</ele>
        <time>2019-05-14T16:22:25Z</time>
      </trkpt>
      <trkpt lat="35.138365560" lon="-106.773165660">
        <ele>1758.000</ele>
        <time>2019-05-14T16:22:28Z</time>
      </trkpt>
      <trkpt lat="35.138322310" lon="-106.773144630">
        <ele>1758.000</ele>
        <time>2019-05-14T16:22:32Z</time>
      </trkpt>
      <trkpt lat="35.138289780" lon="-106.773109180">
        <ele>1758.000</ele>
        <time>2019-05-14T16:22:35Z</time>
      </trkpt>
      <trkpt lat="35.138263250" lon="-106.773069490">
        <ele>1759.000</ele>
        <time>2019-05-14T16:22:38Z</time>
      </trkpt>
      <trkpt lat="35.138221130" lon="-106.773040500">
        <ele>1758.000</ele>
        <time>2019-05-14T16:22:42Z</time>
      </trkpt>
      <trkpt lat="35.138179220" lon="-106.773009740">
        <ele>1758.000</ele>
        <time>2019-05-14T16:22:46Z</time>
      </trkpt>
      <trkpt lat="35.138147690" lon="-106.772987870">
        <ele>1760.000</ele>
        <time>2019-05-14T16:22:51Z</time>
      </trkpt>
      <trkpt lat="35.138115390" lon="-106.772964660">
        <ele>1760.000</ele>
        <time>2019-05-14T16:22:54Z</time>
      </trkpt>
      <trkpt lat="35.138084130" lon="-106.772934050">
        <ele>1759.000</ele>
        <time>2019-05-14T16:22:57Z</time>
      </trkpt>
      <trkpt lat="35.138044220" lon="-106.772899270">
        <ele>1759.000</ele>
        <time>2019-05-14T16:23:01Z</time>
      </trkpt>
      <trkpt lat="35.138010000" lon="-106.772852820">
        <ele>1760.000</ele>
        <time>2019-05-14T16:23:05Z</time>
      </trkpt>
      <trkpt lat="35.137979250" lon="-106.772810830">
        <ele>1760.000</ele>
        <time>2019-05-14T16:23:08Z</time>
      </trkpt>
      <trkpt lat="35.137942400" lon="-106.772786370">
        <ele>1760.000</ele>
        <time>2019-05-14T16:23:11Z</time>
      </trkpt>
      <trkpt lat="35.137910830" lon="-106.772763340">
        <ele>1760.000</ele>
        <time>2019-05-14T16:23:14Z</time>
      </trkpt>
      <trkpt lat="35.137875660" lon="-106.772745160">
        <ele>1760.000</ele>
        <time>2019-05-14T16:23:17Z</time>
      </trkpt>
      <trkpt lat="35.137839990" lon="-106.772726160">
        <ele>1761.000</ele>
        <time>2019-05-14T16:23:20Z</time>
      </trkpt>
      <trkpt lat="35.137808150" lon="-106.772753290">
        <ele>1760.000</ele>
        <time>2019-05-14T16:23:23Z</time>
      </trkpt>
      <trkpt lat="35.137776470" lon="-106.772778790">
        <ele>1760.000</ele>
        <time>2019-05-14T16:23:26Z</time>
      </trkpt>
      <trkpt lat="35.137744670" lon="-106.772819010">
        <ele>1760.000</ele>
        <time>2019-05-14T16:23:30Z</time>
      </trkpt>
      <trkpt lat="35.137719990" lon="-106.772851810">
        <ele>1759.000</ele>
        <time>2019-05-14T16:23:33Z</time>
      </trkpt>
      <trkpt lat="35.137694400" lon="-106.772895420">
        <ele>1759.000</ele>
        <time>2019-05-14T16:23:37Z</time>
      </trkpt>
      <trkpt lat="35.137662040" lon="-106.772934740">
        <ele>1758.000</ele>
        <time>2019-05-14T16:23:41Z</time>
      </trkpt>
      <trkpt lat="35.137645310" lon="-106.772973910">
        <ele>1759.000</ele>
        <time>2019-05-14T16:23:44Z</time>
      </trkpt>
      <trkpt lat="35.137619370" lon="-106.773012670">
        <ele>1758.000</ele>
        <time>2019-05-14T16:23:48Z</time>
      </trkpt>
      <trkpt lat="35.137600400" lon="-106.773051100">
        <ele>1758.000</ele>
        <time>2019-05-14T16:23:51Z</time>
      </trkpt>
      <trkpt lat="35.137581450" lon="-106.773102200">
        <ele>1757.000</ele>
        <time>2019-05-14T16:23:55Z</time>
      </trkpt>
      <trkpt lat="35.137564630" lon="-106.773142490">
        <ele>1758.000</ele>
        <time>2019-05-14T16:23:59Z</time>
      </trkpt>
      <trkpt lat="35.137539030" lon="-106.773182460">
        <ele>1758.000</ele>
        <time>2019-05-14T16:24:03Z</time>
      </trkpt>
      <trkpt lat="35.137510780" lon="-106.773222100">
        <ele>1758.000</ele>
        <time>2019-05-14T16:24:07Z</time>
      </trkpt>
      <trkpt lat="35.137490330" lon="-106.773266710">
        <ele>1758.000</ele>
        <time>2019-05-14T16:24:11Z</time>
      </trkpt>
      <trkpt lat="35.137463810" lon="-106.773308470">
        <ele>1759.000</ele>
        <time>2019-05-14T16:24:15Z</time>
      </trkpt>
      <trkpt lat="35.137442770" lon="-106.773345370">
        <ele>1759.000</ele>
        <time>2019-05-14T16:24:19Z</time>
      </trkpt>
      <trkpt lat="35.137420630" lon="-106.773385690">
        <ele>1759.000</ele>
        <time>2019-05-14T16:24:23Z</time>
      </trkpt>
      <trkpt lat="35.137404850" lon="-106.773428160">
        <ele>1759.000</ele>
        <time>2019-05-14T16:24:26Z</time>
      </trkpt>
      <trkpt lat="35.137381550" lon="-106.773478350">
        <ele>1758.000</ele>
        <time>2019-05-14T16:24:30Z</time>
      </trkpt>
      <trkpt lat="35.137357990" lon="-106.773522990">
        <ele>1759.000</ele>
        <time>2019-05-14T16:24:35Z</time>
      </trkpt>
      <trkpt lat="35.137333900" lon="-106.773562940">
        <ele>1759.000</ele>
        <time>2019-05-14T16:24:39Z</time>
      </trkpt>
      <trkpt lat="35.137306120" lon="-106.773603280">
        <ele>1760.000</ele>
        <time>2019-05-14T16:24:43Z</time>
      </trkpt>
      <trkpt lat="35.137286190" lon="-106.773644800">
        <ele>1759.000</ele>
        <time>2019-05-14T16:24:47Z</time>
      </trkpt>
      <trkpt lat="35.137258250" lon="-106.773682680">
        <ele>1759.000</ele>
        <time>2019-05-14T16:24:51Z</time>
      </trkpt>
      <trkpt lat="35.137231920" lon="-106.773730760">
        <ele>1759.000</ele>
        <time>2019-05-14T16:24:55Z</time>
      </trkpt>
      <trkpt lat="35.137206170" lon="-106.773765890">
        <ele>1758.000</ele>
        <time>2019-05-14T16:24:59Z</time>
      </trkpt>
      <trkpt lat="35.137179380" lon="-106.773796800">
        <ele>1758.000</ele>
        <time>2019-05-14T16:25:03Z</time>
      </trkpt>
      <trkpt lat="35.137156600" lon="-106.773836830">
        <ele>1757.000</ele>
        <time>2019-05-14T16:25:07Z</time>
      </trkpt>
      <trkpt lat="35.137131460" lon="-106.773877050">
        <ele>1757.000</ele>
        <time>2019-05-14T16:25:11Z</time>
      </trkpt>
      <trkpt lat="35.137106800" lon="-106.773914310">
        <ele>1757.000</ele>
        <time>2019-05-14T16:25:15Z</time>
      </trkpt>
      <trkpt lat="35.137081970" lon="-106.773954130">
        <ele>1757.000</ele>
        <time>2019-05-14T16:25:19Z</time>
      </trkpt>
      <trkpt lat="35.137058120" lon="-106.773990030">
        <ele>1758.000</ele>
        <time>2019-05-14T16:25:23Z</time>
      </trkpt>
      <trkpt lat="35.137041510" lon="-106.774034420">
        <ele>1757.000</ele>
        <time>2019-05-14T16:25:27Z</time>
      </trkpt>
      <trkpt lat="35.137017260" lon="-106.774075940">
        <ele>1757.000</ele>
        <time>2019-05-14T16:25:31Z</time>
      </trkpt>
      <trkpt lat="35.136994610" lon="-106.774116700">
        <ele>1757.000</ele>
        <time>2019-05-14T16:25:35Z</time>
      </trkpt>
      <trkpt lat="35.136967950" lon="-106.774154260">
        <ele>1756.000</ele>
        <time>2019-05-14T16:25:40Z</time>
      </trkpt>
      <trkpt lat="35.136947180" lon="-106.774192940">
        <ele>1757.000</ele>
        <time>2019-05-14T16:25:44Z</time>
      </trkpt>
      <trkpt lat="35.136926740" lon="-106.774230540">
        <ele>1756.000</ele>
        <time>2019-05-14T16:25:47Z</time>
      </trkpt>
      <trkpt lat="35.136905300" lon="-106.774277020">
        <ele>1756.000</ele>
        <time>2019-05-14T16:25:51Z</time>
      </trkpt>
      <trkpt lat="35.136877120" lon="-106.774321280">
        <ele>1756.000</ele>
        <time>2019-05-14T16:25:55Z</time>
      </trkpt>
      <trkpt lat="35.136849920" lon="-106.774370440">
        <ele>1756.000</ele>
        <time>2019-05-14T16:26:00Z</time>
      </trkpt>
      <trkpt lat="35.136825950" lon="-106.774409700">
        <ele>1756.000</ele>
        <time>2019-05-14T16:26:04Z</time>
      </trkpt>
      <trkpt lat="35.136804890" lon="-106.774450770">
        <ele>1756.000</ele>
        <time>2019-05-14T16:26:08Z</time>
      </trkpt>
      <trkpt lat="35.136784020" lon="-106.774487850">
        <ele>1755.000</ele>
        <time>2019-05-14T16:26:11Z</time>
      </trkpt>
      <trkpt lat="35.136759340" lon="-106.774529410">
        <ele>1755.000</ele>
        <time>2019-05-14T16:26:16Z</time>
      </trkpt>
      <trkpt lat="35.136737460" lon="-106.774569240">
        <ele>1755.000</ele>
        <time>2019-05-14T16:26:20Z</time>
      </trkpt>
      <trkpt lat="35.136711310" lon="-106.774615620">
        <ele>1755.000</ele>
        <time>2019-05-14T16:26:24Z</time>
      </trkpt>
      <trkpt lat="35.136687730" lon="-106.774656540">
        <ele>1755.000</ele>
        <time>2019-05-14T16:26:28Z</time>
      </trkpt>
      <trkpt lat="35.136671570" lon="-106.774702440">
        <ele>1755.000</ele>
        <time>2019-05-14T16:26:32Z</time>
      </trkpt>
      <trkpt lat="35.136651030" lon="-106.774746400">
        <ele>1754.000</ele>
        <time>2019-05-14T16:26:36Z</time>
      </trkpt>
      <trkpt lat="35.136622250" lon="-106.774789800">
        <ele>1755.000</ele>
        <time>2019-05-14T16:26:41Z</time>
      </trkpt>
      <trkpt lat="35.136600530" lon="-106.774830420">
        <ele>1755.000</ele>
        <time>2019-05-14T16:26:45Z</time>
      </trkpt>
      <trkpt lat="35.136574150" lon="-106.774868300">
        <ele>1756.000</ele>
        <time>2019-05-14T16:26:49Z</time>
      </trkpt>
      <trkpt lat="35.136550290" lon="-106.774907200">
        <ele>1756.000</ele>
        <time>2019-05-14T16:26:53Z</time>
      </trkpt>
      <trkpt lat="35.136531630" lon="-106.774952810">
        <ele>1756.000</ele>
        <time>2019-05-14T16:26:57Z</time>
      </trkpt>
      <trkpt lat="35.136508760" lon="-106.774994410">
        <ele>1756.000</ele>
        <time>2019-05-14T16:27:01Z</time>
      </trkpt>
      <trkpt lat="35.136484440" lon="-106.775039000">
        <ele>1756.000</ele>
        <time>2019-05-14T16:27:05Z</time>
      </trkpt>
      <trkpt lat="35.136465710" lon="-106.775080830">
        <ele>1755.000</ele>
        <time>2019-05-14T16:27:09Z</time>
      </trkpt>
      <trkpt lat="35.136438270" lon="-106.775122040">
        <ele>1755.000</ele>
        <time>2019-05-14T16:27:13Z</time>
      </trkpt>
      <trkpt lat="35.136413330" lon="-106.775161320">
        <ele>1755.000</ele>
        <time>2019-05-14T16:27:17Z</time>
      </trkpt>
      <trkpt lat="35.136391940" lon="-106.775203670">
        <ele>1755.000</ele>
        <time>2019-05-14T16:27:21Z</time>
      </trkpt>
      <trkpt lat="35.136365910" lon="-106.775245830">
        <ele>1755.000</ele>
        <time>2019-05-14T16:27:25Z</time>
      </trkpt>
      <trkpt lat="35.136341260" lon="-106.775288090">
        <ele>1755.000</ele>
        <time>2019-05-14T16:27:29Z</time>
      </trkpt>
      <trkpt lat="35.136315590" lon="-106.775322300">
        <ele>1754.000</ele>
        <time>2019-05-14T16:27:33Z</time>
      </trkpt>
      <trkpt lat="35.136294730" lon="-106.775364930">
        <ele>1754.000</ele>
        <time>2019-05-14T16:27:37Z</time>
      </trkpt>
      <trkpt lat="35.136268630" lon="-106.775404870">
        <ele>1754.000</ele>
        <time>2019-05-14T16:27:41Z</time>
      </trkpt>
      <trkpt lat="35.136246330" lon="-106.775451630">
        <ele>1753.000</ele>
        <time>2019-05-14T16:27:45Z</time>
      </trkpt>
      <trkpt lat="35.136217660" lon="-106.775483290">
        <ele>1753.000</ele>
        <time>2019-05-14T16:27:49Z</time>
      </trkpt>
      <trkpt lat="35.136200170" lon="-106.775524190">
        <ele>1753.000</ele>
        <time>2019-05-14T16:27:53Z</time>
      </trkpt>
      <trkpt lat="35.136177750" lon="-106.775563310">
        <ele>1753.000</ele>
        <time>2019-05-14T16:27:57Z</time>
      </trkpt>
      <trkpt lat="35.136152310" lon="-106.775604230">
        <ele>1754.000</ele>
        <time>2019-05-14T16:28:01Z</time>
      </trkpt>
      <trkpt lat="35.136128550" lon="-106.775644980">
        <ele>1754.000</ele>
        <time>2019-05-14T16:28:05Z</time>
      </trkpt>
      <trkpt lat="35.136103610" lon="-106.775678470">
        <ele>1755.000</ele>
        <time>2019-05-14T16:28:19Z</time>
      </trkpt>
      <trkpt lat="35.136072830" lon="-106.775705040">
        <ele>1755.000</ele>
        <time>2019-05-14T16:28:22Z</time>
      </trkpt>
      <trkpt lat="35.136050360" lon="-106.775742070">
        <ele>1755.000</ele>
        <time>2019-05-14T16:28:25Z</time>
      </trkpt>
      <trkpt lat="35.136025580" lon="-106.775777560">
        <ele>1755.000</ele>
        <time>2019-05-14T16:28:28Z</time>
      </trkpt>
      <trkpt lat="35.135998940" lon="-106.775821250">
        <ele>1755.000</ele>
        <time>2019-05-14T16:28:32Z</time>
      </trkpt>
      <trkpt lat="35.135968000" lon="-106.775858520">
        <ele>1755.000</ele>
        <time>2019-05-14T16:28:36Z</time>
      </trkpt>
      <trkpt lat="35.135948420" lon="-106.775903740">
        <ele>1755.000</ele>
        <time>2019-05-14T16:28:40Z</time>
      </trkpt>
      <trkpt lat="35.135928430" lon="-106.775942010">
        <ele>1754.000</ele>
        <time>2019-05-14T16:28:44Z</time>
      </trkpt>
      <trkpt lat="35.135904860" lon="-106.775977590">
        <ele>1754.000</ele>
        <time>2019-05-14T16:28:47Z</time>
      </trkpt>
      <trkpt lat="35.135878520" lon="-106.776023130">
        <ele>1753.000</ele>
        <time>2019-05-14T16:28:51Z</time>
      </trkpt>
      <trkpt lat="35.135863570" lon="-106.776069370">
        <ele>1753.000</ele>
        <time>2019-05-14T16:28:55Z</time>
      </trkpt>
      <trkpt lat="35.135831150" lon="-106.776097120">
        <ele>1754.000</ele>
        <time>2019-05-14T16:29:04Z</time>
      </trkpt>
      <trkpt lat="35.135806280" lon="-106.776143480">
        <ele>1754.000</ele>
        <time>2019-05-14T16:29:08Z</time>
      </trkpt>
      <trkpt lat="35.135782120" lon="-106.776195920">
        <ele>1754.000</ele>
        <time>2019-05-14T16:29:12Z</time>
      </trkpt>
      <trkpt lat="35.135758010" lon="-106.776244530">
        <ele>1754.000</ele>
        <time>2019-05-14T16:29:16Z</time>
      </trkpt>
      <trkpt lat="35.135731160" lon="-106.776291150">
        <ele>1754.000</ele>
        <time>2019-05-14T16:29:20Z</time>
      </trkpt>
      <trkpt lat="35.135711610" lon="-106.776332760">
        <ele>1754.000</ele>
        <time>2019-05-14T16:29:24Z</time>
      </trkpt>
      <trkpt lat="35.135695180" lon="-106.776378690">
        <ele>1753.000</ele>
        <time>2019-05-14T16:29:28Z</time>
      </trkpt>
      <trkpt lat="35.135676010" lon="-106.776418060">
        <ele>1752.000</ele>
        <time>2019-05-14T16:29:32Z</time>
      </trkpt>
      <trkpt lat="35.135656230" lon="-106.776466100">
        <ele>1752.000</ele>
        <time>2019-05-14T16:29:36Z</time>
      </trkpt>
      <trkpt lat="35.135631360" lon="-106.776500130">
        <ele>1752.000</ele>
        <time>2019-05-14T16:29:40Z</time>
      </trkpt>
      <trkpt lat="35.135609630" lon="-106.776548260">
        <ele>1752.000</ele>
        <time>2019-05-14T16:29:44Z</time>
      </trkpt>
      <trkpt lat="35.135588550" lon="-106.776595630">
        <ele>1752.000</ele>
        <time>2019-05-14T16:29:48Z</time>
      </trkpt>
      <trkpt lat="35.135563830" lon="-106.776640960">
        <ele>1752.000</ele>
        <time>2019-05-14T16:29:52Z</time>
      </trkpt>
      <trkpt lat="35.135543570" lon="-106.776679420">
        <ele>1752.000</ele>
        <time>2019-05-14T16:29:55Z</time>
      </trkpt>
      <trkpt lat="35.135521820" lon="-106.776718770">
        <ele>1752.000</ele>
        <time>2019-05-14T16:29:59Z</time>
      </trkpt>
      <trkpt lat="35.135503010" lon="-106.776760650">
        <ele>1752.000</ele>
        <time>2019-05-14T16:30:02Z</time>
      </trkpt>
      <trkpt lat="35.135481390" lon="-106.776805790">
        <ele>1752.000</ele>
        <time>2019-05-14T16:30:06Z</time>
      </trkpt>
      <trkpt lat="35.135460790" lon="-106.776854370">
        <ele>1752.000</ele>
        <time>2019-05-14T16:30:10Z</time>
      </trkpt>
      <trkpt lat="35.135432630" lon="-106.776895160">
        <ele>1751.000</ele>
        <time>2019-05-14T16:30:14Z</time>
      </trkpt>
      <trkpt lat="35.135401870" lon="-106.776934230">
        <ele>1751.000</ele>
        <time>2019-05-14T16:30:18Z</time>
      </trkpt>
      <trkpt lat="35.135382660" lon="-106.776981590">
        <ele>1751.000</ele>
        <time>2019-05-14T16:30:23Z</time>
      </trkpt>
      <trkpt lat="35.135360460" lon="-106.777026350">
        <ele>1750.000</ele>
        <time>2019-05-14T16:30:27Z</time>
      </trkpt>
      <trkpt lat="35.135337510" lon="-106.777066110">
        <ele>1751.000</ele>
        <time>2019-05-14T16:30:31Z</time>
      </trkpt>
      <trkpt lat="35.135309850" lon="-106.777109030">
        <ele>1750.000</ele>
        <time>2019-05-14T16:30:35Z</time>
      </trkpt>
      <trkpt lat="35.135285420" lon="-106.777150020">
        <ele>1750.000</ele>
        <time>2019-05-14T16:30:39Z</time>
      </trkpt>
      <trkpt lat="35.135257480" lon="-106.777189850">
        <ele>1750.000</ele>
        <time>2019-05-14T16:30:43Z</time>
      </trkpt>
      <trkpt lat="35.135230960" lon="-106.777233300">
        <ele>1749.000</ele>
        <time>2019-05-14T16:30:47Z</time>
      </trkpt>
      <trkpt lat="35.135205370" lon="-106.777278730">
        <ele>1749.000</ele>
        <time>2019-05-14T16:30:51Z</time>
      </trkpt>
      <trkpt lat="35.135186580" lon="-106.777326790">
        <ele>1749.000</ele>
        <time>2019-05-14T16:30:55Z</time>
      </trkpt>
      <trkpt lat="35.135164920" lon="-106.777364200">
        <ele>1748.000</ele>
        <time>2019-05-14T16:30:58Z</time>
      </trkpt>
      <trkpt lat="35.135140140" lon="-106.777402860">
        <ele>1748.000</ele>
        <time>2019-05-14T16:31:02Z</time>
      </trkpt>
      <trkpt lat="35.135118340" lon="-106.777445400">
        <ele>1748.000</ele>
        <time>2019-05-14T16:31:06Z</time>
      </trkpt>
      <trkpt lat="35.135089770" lon="-106.777481430">
        <ele>1747.000</ele>
        <time>2019-05-14T16:31:10Z</time>
      </trkpt>
      <trkpt lat="35.135056890" lon="-106.777517420">
        <ele>1747.000</ele>
        <time>2019-05-14T16:31:14Z</time>
      </trkpt>
      <trkpt lat="35.135036040" lon="-106.777564220">
        <ele>1747.000</ele>
        <time>2019-05-14T16:31:18Z</time>
      </trkpt>
      <trkpt lat="35.135010630" lon="-106.777599560">
        <ele>1747.000</ele>
        <time>2019-05-14T16:31:22Z</time>
      </trkpt>
      <trkpt lat="35.134986870" lon="-106.777638590">
        <ele>1747.000</ele>
        <time>2019-05-14T16:31:26Z</time>
      </trkpt>
      <trkpt lat="35.134965220" lon="-106.777682360">
        <ele>1748.000</ele>
        <time>2019-05-14T16:31:30Z</time>
      </trkpt>
      <trkpt lat="35.134934450" lon="-106.777721800">
        <ele>1748.000</ele>
        <time>2019-05-14T16:31:34Z</time>
      </trkpt>
      <trkpt lat="35.134913080" lon="-106.777758250">
        <ele>1748.000</ele>
        <time>2019-05-14T16:31:38Z</time>
      </trkpt>
      <trkpt lat="35.134892020" lon="-106.777800440">
        <ele>1748.000</ele>
        <time>2019-05-14T16:31:42Z</time>
      </trkpt>
      <trkpt lat="35.134861850" lon="-106.777840370">
        <ele>1748.000</ele>
        <time>2019-05-14T16:31:46Z</time>
      </trkpt>
      <trkpt lat="35.134839000" lon="-106.777883490">
        <ele>1749.000</ele>
        <time>2019-05-14T16:31:50Z</time>
      </trkpt>
      <trkpt lat="35.134815930" lon="-106.777926080">
        <ele>1749.000</ele>
        <time>2019-05-14T16:31:54Z</time>
      </trkpt>
      <trkpt lat="35.134790040" lon="-106.777973190">
        <ele>1749.000</ele>
        <time>2019-05-14T16:31:58Z</time>
      </trkpt>
      <trkpt lat="35.134774320" lon="-106.778016540">
        <ele>1748.000</ele>
        <time>2019-05-14T16:32:02Z</time>
      </trkpt>
      <trkpt lat="35.134757310" lon="-106.778066040">
        <ele>1748.000</ele>
        <time>2019-05-14T16:32:06Z</time>
      </trkpt>
      <trkpt lat="35.134734310" lon="-106.778112070">
        <ele>1747.000</ele>
        <time>2019-05-14T16:32:10Z</time>
      </trkpt>
      <trkpt lat="35.134712470" lon="-106.778154330">
        <ele>1748.000</ele>
        <time>2019-05-14T16:32:14Z</time>
      </trkpt>
      <trkpt lat="35.134694050" lon="-106.778207020">
        <ele>1747.000</ele>
        <time>2019-05-14T16:32:18Z</time>
      </trkpt>
      <trkpt lat="35.134674130" lon="-106.778244750">
        <ele>1748.000</ele>
        <time>2019-05-14T16:32:22Z</time>
      </trkpt>
      <trkpt lat="35.134653010" lon="-106.778286790">
        <ele>1748.000</ele>
        <time>2019-05-14T16:32:26Z</time>
      </trkpt>
      <trkpt lat="35.134623800" lon="-106.778325060">
        <ele>1748.000</ele>
        <time>2019-05-14T16:32:31Z</time>
      </trkpt>
      <trkpt lat="35.134606490" lon="-106.778364270">
        <ele>1748.000</ele>
        <time>2019-05-14T16:32:34Z</time>
      </trkpt>
      <trkpt lat="35.134583790" lon="-106.778405430">
        <ele>1747.000</ele>
        <time>2019-05-14T16:32:38Z</time>
      </trkpt>
      <trkpt lat="35.134561750" lon="-106.778445000">
        <ele>1747.000</ele>
        <time>2019-05-14T16:32:42Z</time>
      </trkpt>
      <trkpt lat="35.134537560" lon="-106.778481560">
        <ele>1746.000</ele>
        <time>2019-05-14T16:32:46Z</time>
      </trkpt>
      <trkpt lat="35.134506630" lon="-106.778512450">
        <ele>1747.000</ele>
        <time>2019-05-14T16:32:49Z</time>
      </trkpt>
      <trkpt lat="35.134485950" lon="-106.778558570">
        <ele>1747.000</ele>
        <time>2019-05-14T16:32:53Z</time>
      </trkpt>
      <trkpt lat="35.134460150" lon="-106.778602820">
        <ele>1747.000</ele>
        <time>2019-05-14T16:32:57Z</time>
      </trkpt>
      <trkpt lat="35.134435360" lon="-106.778648640">
        <ele>1747.000</ele>
        <time>2019-05-14T16:33:01Z</time>
      </trkpt>
      <trkpt lat="35.134408600" lon="-106.778687310">
        <ele>1748.000</ele>
        <time>2019-05-14T16:33:05Z</time>
      </trkpt>
      <trkpt lat="35.134383940" lon="-106.778730760">
        <ele>1748.000</ele>
        <time>2019-05-14T16:33:09Z</time>
      </trkpt>
      <trkpt lat="35.134360850" lon="-106.778764590">
        <ele>1748.000</ele>
        <time>2019-05-14T16:33:40Z</time>
      </trkpt>
      <trkpt lat="35.134337040" lon="-106.778808420">
        <ele>1748.000</ele>
        <time>2019-05-14T16:33:44Z</time>
      </trkpt>
      <trkpt lat="35.134317010" lon="-106.778851670">
        <ele>1748.000</ele>
        <time>2019-05-14T16:33:48Z</time>
      </trkpt>
      <trkpt lat="35.134297320" lon="-106.778900590">
        <ele>1748.000</ele>
        <time>2019-05-14T16:33:52Z</time>
      </trkpt>
      <trkpt lat="35.134278130" lon="-106.778943690">
        <ele>1747.000</ele>
        <time>2019-05-14T16:33:56Z</time>
      </trkpt>
      <trkpt lat="35.134249620" lon="-106.778990540">
        <ele>1747.000</ele>
        <time>2019-05-14T16:34:00Z</time>
      </trkpt>
      <trkpt lat="35.134228810" lon="-106.779033030">
        <ele>1747.000</ele>
        <time>2019-05-14T16:34:04Z</time>
      </trkpt>
      <trkpt lat="35.134202860" lon="-106.779063820">
        <ele>1748.000</ele>
        <time>2019-05-14T16:34:16Z</time>
      </trkpt>
      <trkpt lat="35.134189580" lon="-106.779112650">
        <ele>1748.000</ele>
        <time>2019-05-14T16:34:20Z</time>
      </trkpt>
      <trkpt lat="35.134166740" lon="-106.779154800">
        <ele>1747.000</ele>
        <time>2019-05-14T16:34:24Z</time>
      </trkpt>
      <trkpt lat="35.134155760" lon="-106.779205740">
        <ele>1748.000</ele>
        <time>2019-05-14T16:34:28Z</time>
      </trkpt>
      <trkpt lat="35.134142140" lon="-106.779248290">
        <ele>1748.000</ele>
        <time>2019-05-14T16:34:31Z</time>
      </trkpt>
      <trkpt lat="35.134126360" lon="-106.779299920">
        <ele>1748.000</ele>
        <time>2019-05-14T16:34:35Z</time>
      </trkpt>
      <trkpt lat="35.134109910" lon="-106.779339530">
        <ele>1747.000</ele>
        <time>2019-05-14T16:34:38Z</time>
      </trkpt>
      <trkpt lat="35.134090090" lon="-106.779381470">
        <ele>1747.000</ele>
        <time>2019-05-14T16:34:41Z</time>
      </trkpt>
      <trkpt lat="35.134077030" lon="-106.779432240">
        <ele>1747.000</ele>
        <time>2019-05-14T16:34:45Z</time>
      </trkpt>
      <trkpt lat="35.134057050" lon="-106.779471150">
        <ele>1748.000</ele>
        <time>2019-05-14T16:34:48Z</time>
      </trkpt>
      <trkpt lat="35.134026920" lon="-106.779517920">
        <ele>1748.000</ele>
        <time>2019-05-14T16:34:52Z</time>
      </trkpt>
      <trkpt lat="35.134005220" lon="-106.779559910">
        <ele>1747.000</ele>
        <time>2019-05-14T16:34:57Z</time>
      </trkpt>
      <trkpt lat="35.133968900" lon="-106.779601070">
        <ele>1747.000</ele>
        <time>2019-05-14T16:35:01Z</time>
      </trkpt>
      <trkpt lat="35.133947950" lon="-106.779639290">
        <ele>1747.000</ele>
        <time>2019-05-14T16:35:04Z</time>
      </trkpt>
      <trkpt lat="35.133916910" lon="-106.779680540">
        <ele>1747.000</ele>
        <time>2019-05-14T16:35:08Z</time>
      </trkpt>
      <trkpt lat="35.133891730" lon="-106.779715000">
        <ele>1747.000</ele>
        <time>2019-05-14T16:35:11Z</time>
      </trkpt>
      <trkpt lat="35.133863590" lon="-106.779757940">
        <ele>1746.000</ele>
        <time>2019-05-14T16:35:15Z</time>
      </trkpt>
      <trkpt lat="35.133826560" lon="-106.779798230">
        <ele>1746.000</ele>
        <time>2019-05-14T16:35:19Z</time>
      </trkpt>
      <trkpt lat="35.133800670" lon="-106.779832370">
        <ele>1746.000</ele>
        <time>2019-05-14T16:35:22Z</time>
      </trkpt>
      <trkpt lat="35.133778220" lon="-106.779880770">
        <ele>1746.000</ele>
        <time>2019-05-14T16:35:26Z</time>
      </trkpt>
      <trkpt lat="35.133755080" lon="-106.779921070">
        <ele>1746.000</ele>
        <time>2019-05-14T16:35:29Z</time>
      </trkpt>
      <trkpt lat="35.133734200" lon="-106.779957790">
        <ele>1746.000</ele>
        <time>2019-05-14T16:35:32Z</time>
      </trkpt>
      <trkpt lat="35.133718500" lon="-106.780001480">
        <ele>1745.000</ele>
        <time>2019-05-14T16:35:35Z</time>
      </trkpt>
      <trkpt lat="35.133688870" lon="-106.780047070">
        <ele>1745.000</ele>
        <time>2019-05-14T16:35:39Z</time>
      </trkpt>
      <trkpt lat="35.133671850" lon="-106.780093980">
        <ele>1745.000</ele>
        <time>2019-05-14T16:35:58Z</time>
      </trkpt>
      <trkpt lat="35.133645100" lon="-106.780131190">
        <ele>1745.000</ele>
        <time>2019-05-14T16:36:01Z</time>
      </trkpt>
      <trkpt lat="35.133616020" lon="-106.780179150">
        <ele>1745.000</ele>
        <time>2019-05-14T16:36:05Z</time>
      </trkpt>
      <trkpt lat="35.133597440" lon="-106.780217480">
        <ele>1745.000</ele>
        <time>2019-05-14T16:36:08Z</time>
      </trkpt>
      <trkpt lat="35.133571360" lon="-106.780263470">
        <ele>1746.000</ele>
        <time>2019-05-14T16:36:12Z</time>
      </trkpt>
      <trkpt lat="35.133552120" lon="-106.780316730">
        <ele>1745.000</ele>
        <time>2019-05-14T16:36:16Z</time>
      </trkpt>
      <trkpt lat="35.133530370" lon="-106.780356020">
        <ele>1745.000</ele>
        <time>2019-05-14T16:36:20Z</time>
      </trkpt>
      <trkpt lat="35.133504250" lon="-106.780396920">
        <ele>1745.000</ele>
        <time>2019-05-14T16:36:23Z</time>
      </trkpt>
      <trkpt lat="35.133478600" lon="-106.780433680">
        <ele>1745.000</ele>
        <time>2019-05-14T16:36:26Z</time>
      </trkpt>
      <trkpt lat="35.133449190" lon="-106.780461850">
        <ele>1745.000</ele>
        <time>2019-05-14T16:36:29Z</time>
      </trkpt>
      <trkpt lat="35.133412940" lon="-106.780490400">
        <ele>1745.000</ele>
        <time>2019-05-14T16:36:32Z</time>
      </trkpt>
      <trkpt lat="35.133378630" lon="-106.780511560">
        <ele>1745.000</ele>
        <time>2019-05-14T16:36:35Z</time>
      </trkpt>
      <trkpt lat="35.133345760" lon="-106.780531840">
        <ele>1745.000</ele>
        <time>2019-05-14T16:36:38Z</time>
      </trkpt>
      <trkpt lat="35.133310890" lon="-106.780552250">
        <ele>1745.000</ele>
        <time>2019-05-14T16:36:41Z</time>
      </trkpt>
      <trkpt lat="35.133272320" lon="-106.780565230">
        <ele>1744.000</ele>
        <time>2019-05-14T16:36:44Z</time>
      </trkpt>
      <trkpt lat="35.133232540" lon="-106.780581230">
        <ele>1744.000</ele>
        <time>2019-05-14T16:36:47Z</time>
      </trkpt>
      <trkpt lat="35.133184520" lon="-106.780591870">
        <ele>1744.000</ele>
        <time>2019-05-14T16:36:51Z</time>
      </trkpt>
      <trkpt lat="35.133146080" lon="-106.780595250">
        <ele>1745.000</ele>
        <time>2019-05-14T16:36:54Z</time>
      </trkpt>
      <trkpt lat="35.133103330" lon="-106.780604410">
        <ele>1745.000</ele>
        <time>2019-05-14T16:36:57Z</time>
      </trkpt>
      <trkpt lat="35.133066620" lon="-106.780616860">
        <ele>1746.000</ele>
        <time>2019-05-14T16:37:00Z</time>
      </trkpt>
      <trkpt lat="35.133025030" lon="-106.780630510">
        <ele>1746.000</ele>
        <time>2019-05-14T16:37:04Z</time>
      </trkpt>
      <trkpt lat="35.132989600" lon="-106.780641690">
        <ele>1747.000</ele>
        <time>2019-05-14T16:37:07Z</time>
      </trkpt>
      <trkpt lat="35.132948180" lon="-106.780643350">
        <ele>1747.000</ele>
        <time>2019-05-14T16:37:11Z</time>
      </trkpt>
      <trkpt lat="35.132904700" lon="-106.780656240">
        <ele>1746.000</ele>
        <time>2019-05-14T16:37:15Z</time>
      </trkpt>
      <trkpt lat="35.132870170" lon="-106.780669100">
        <ele>1746.000</ele>
        <time>2019-05-14T16:37:18Z</time>
      </trkpt>
      <trkpt lat="35.132829090" lon="-106.780674400">
        <ele>1746.000</ele>
        <time>2019-05-14T16:37:22Z</time>
      </trkpt>
      <trkpt lat="35.132787860" lon="-106.780676230">
        <ele>1747.000</ele>
        <time>2019-05-14T16:37:26Z</time>
      </trkpt>
      <trkpt lat="35.132742400" lon="-106.780676180">
        <ele>1746.000</ele>
        <time>2019-05-14T16:37:30Z</time>
      </trkpt>
      <trkpt lat="35.132698570" lon="-106.780677250">
        <ele>1746.000</ele>
        <time>2019-05-14T16:37:34Z</time>
      </trkpt>
      <trkpt lat="35.132654660" lon="-106.780676090">
        <ele>1746.000</ele>
        <time>2019-05-14T16:37:38Z</time>
      </trkpt>
      <trkpt lat="35.132611040" lon="-106.780678320">
        <ele>1745.000</ele>
        <time>2019-05-14T16:37:42Z</time>
      </trkpt>
      <trkpt lat="35.132568270" lon="-106.780669810">
        <ele>1746.000</ele>
        <time>2019-05-14T16:37:46Z</time>
      </trkpt>
      <trkpt lat="35.132526620" lon="-106.780668140">
        <ele>1745.000</ele>
        <time>2019-05-14T16:37:50Z</time>
      </trkpt>
      <trkpt lat="35.132479640" lon="-106.780669250">
        <ele>1746.000</ele>
        <time>2019-05-14T16:37:54Z</time>
      </trkpt>
      <trkpt lat="35.132433570" lon="-106.780673270">
        <ele>1745.000</ele>
        <time>2019-05-14T16:37:58Z</time>
      </trkpt>
      <trkpt lat="35.132388710" lon="-106.780676080">
        <ele>1744.000</ele>
        <time>2019-05-14T16:38:02Z</time>
      </trkpt>
      <trkpt lat="35.132345810" lon="-106.780669650">
        <ele>1744.000</ele>
        <time>2019-05-14T16:38:06Z</time>
      </trkpt>
      <trkpt lat="35.132305780" lon="-106.780660800">
        <ele>1744.000</ele>
        <time>2019-05-14T16:38:10Z</time>
      </trkpt>
      <trkpt lat="35.132269440" lon="-106.780660450">
        <ele>1745.000</ele>
        <time>2019-05-14T16:38:13Z</time>
      </trkpt>
      <trkpt lat="35.132228360" lon="-106.780654490">
        <ele>1744.000</ele>
        <time>2019-05-14T16:38:17Z</time>
      </trkpt>
      <trkpt lat="35.132182160" lon="-106.780655650">
        <ele>1744.000</ele>
        <time>2019-05-14T16:38:21Z</time>
      </trkpt>
      <trkpt lat="35.132137190" lon="-106.780657000">
        <ele>1745.000</ele>
        <time>2019-05-14T16:38:25Z</time>
      </trkpt>
      <trkpt lat="35.132094580" lon="-106.780659390">
        <ele>1746.000</ele>
        <time>2019-05-14T16:38:29Z</time>
      </trkpt>
      <trkpt lat="35.132053340" lon="-106.780658950">
        <ele>1746.000</ele>
        <time>2019-05-14T16:38:33Z</time>
      </trkpt>
      <trkpt lat="35.132016640" lon="-106.780680500">
        <ele>1745.000</ele>
        <time>2019-05-14T16:38:37Z</time>
      </trkpt>
      <trkpt lat="35.131978090" lon="-106.780680560">
        <ele>1745.000</ele>
        <time>2019-05-14T16:38:40Z</time>
      </trkpt>
      <trkpt lat="35.131930200" lon="-106.780673870">
        <ele>1745.000</ele>
        <time>2019-05-14T16:38:44Z</time>
      </trkpt>
      <trkpt lat="35.131892360" lon="-106.780680180">
        <ele>1744.000</ele>
        <time>2019-05-14T16:38:47Z</time>
      </trkpt>
      <trkpt lat="35.131853060" lon="-106.780665400">
        <ele>1744.000</ele>
        <time>2019-05-14T16:38:51Z</time>
      </trkpt>
      <trkpt lat="35.131811760" lon="-106.780667360">
        <ele>1743.000</ele>
        <time>2019-05-14T16:38:55Z</time>
      </trkpt>
      <trkpt lat="35.131773980" lon="-106.780665060">
        <ele>1743.000</ele>
        <time>2019-05-14T16:38:58Z</time>
      </trkpt>
      <trkpt lat="35.131733780" lon="-106.780668670">
        <ele>1743.000</ele>
        <time>2019-05-14T16:39:02Z</time>
      </trkpt>
      <trkpt lat="35.131697230" lon="-106.780675090">
        <ele>1743.000</ele>
        <time>2019-05-14T16:39:06Z</time>
      </trkpt>
      <trkpt lat="35.131658230" lon="-106.780674830">
        <ele>1744.000</ele>
        <time>2019-05-14T16:39:10Z</time>
      </trkpt>
      <trkpt lat="35.131614170" lon="-106.780674180">
        <ele>1744.000</ele>
        <time>2019-05-14T16:39:14Z</time>
      </trkpt>
      <trkpt lat="35.131572340" lon="-106.780670670">
        <ele>1744.000</ele>
        <time>2019-05-14T16:39:18Z</time>
      </trkpt>
      <trkpt lat="35.131530040" lon="-106.780670000">
        <ele>1744.000</ele>
        <time>2019-05-14T16:39:22Z</time>
      </trkpt>
      <trkpt lat="35.131489880" lon="-106.780668150">
        <ele>1744.000</ele>
        <time>2019-05-14T16:39:26Z</time>
      </trkpt>
      <trkpt lat="35.131446470" lon="-106.780673890">
        <ele>1744.000</ele>
        <time>2019-05-14T16:39:30Z</time>
      </trkpt>
      <trkpt lat="35.131398980" lon="-106.780662010">
        <ele>1744.000</ele>
        <time>2019-05-14T16:39:34Z</time>
      </trkpt>
      <trkpt lat="35.131355050" lon="-106.780666200">
        <ele>1745.000</ele>
        <time>2019-05-14T16:39:38Z</time>
      </trkpt>
      <trkpt lat="35.131309710" lon="-106.780661140">
        <ele>1745.000</ele>
        <time>2019-05-14T16:39:42Z</time>
      </trkpt>
      <trkpt lat="35.131270130" lon="-106.780644000">
        <ele>1744.000</ele>
        <time>2019-05-14T16:40:12Z</time>
      </trkpt>
      <trkpt lat="35.131224020" lon="-106.780642960">
        <ele>1744.000</ele>
        <time>2019-05-14T16:40:16Z</time>
      </trkpt>
      <trkpt lat="35.131178260" lon="-106.780642920">
        <ele>1743.000</ele>
        <time>2019-05-14T16:40:20Z</time>
      </trkpt>
      <trkpt lat="35.131131900" lon="-106.780647420">
        <ele>1743.000</ele>
        <time>2019-05-14T16:40:24Z</time>
      </trkpt>
      <trkpt lat="35.131086450" lon="-106.780649220">
        <ele>1743.000</ele>
        <time>2019-05-14T16:40:28Z</time>
      </trkpt>
      <trkpt lat="35.131045810" lon="-106.780638590">
        <ele>1743.000</ele>
        <time>2019-05-14T16:40:32Z</time>
      </trkpt>
      <trkpt lat="35.131002740" lon="-106.780623160">
        <ele>1744.000</ele>
        <time>2019-05-14T16:40:36Z</time>
      </trkpt>
      <trkpt lat="35.130958360" lon="-106.780611650">
        <ele>1744.000</ele>
        <time>2019-05-14T16:40:40Z</time>
      </trkpt>
      <trkpt lat="35.130920150" lon="-106.780612920">
        <ele>1744.000</ele>
        <time>2019-05-14T16:40:44Z</time>
      </trkpt>
      <trkpt lat="35.130876380" lon="-106.780600980">
        <ele>1744.000</ele>
        <time>2019-05-14T16:40:55Z</time>
      </trkpt>
      <trkpt lat="35.130840270" lon="-106.780579530">
        <ele>1744.000</ele>
        <time>2019-05-14T16:41:00Z</time>
      </trkpt>
      <trkpt lat="35.130805140" lon="-106.780606480">
        <ele>1744.000</ele>
        <time>2019-05-14T16:41:06Z</time>
      </trkpt>
      <trkpt lat="35.130781230" lon="-106.780649440">
        <ele>1745.000</ele>
        <time>2019-05-14T16:41:13Z</time>
      </trkpt>
      <trkpt lat="35.130749810" lon="-106.780672540">
        <ele>1745.000</ele>
        <time>2019-05-14T16:41:17Z</time>
      </trkpt>
      <trkpt lat="35.130705590" lon="-106.780661690">
        <ele>1746.000</ele>
        <time>2019-05-14T16:41:28Z</time>
      </trkpt>
      <trkpt lat="35.130676420" lon="-106.780624370">
        <ele>1746.000</ele>
        <time>2019-05-14T16:41:32Z</time>
      </trkpt>
      <trkpt lat="35.130651340" lon="-106.780583480">
        <ele>1745.000</ele>
        <time>2019-05-14T16:41:36Z</time>
      </trkpt>
      <trkpt lat="35.130619680" lon="-106.780549140">
        <ele>1745.000</ele>
        <time>2019-05-14T16:41:40Z</time>
      </trkpt>
      <trkpt lat="35.130630280" lon="-106.780495340">
        <ele>1745.000</ele>
        <time>2019-05-14T16:41:45Z</time>
      </trkpt>
      <trkpt lat="35.130650540" lon="-106.780451060">
        <ele>1746.000</ele>
        <time>2019-05-14T16:41:49Z</time>
      </trkpt>
      <trkpt lat="35.130678050" lon="-106.780413000">
        <ele>1747.000</ele>
        <time>2019-05-14T16:41:53Z</time>
      </trkpt>
      <trkpt lat="35.130695220" lon="-106.780373890">
        <ele>1747.000</ele>
        <time>2019-05-14T16:41:56Z</time>
      </trkpt>
      <trkpt lat="35.130719940" lon="-106.780325990">
        <ele>1747.000</ele>
        <time>2019-05-14T16:42:00Z</time>
      </trkpt>
      <trkpt lat="35.130740860" lon="-106.780282680">
        <ele>1747.000</ele>
        <time>2019-05-14T16:42:04Z</time>
      </trkpt>
      <trkpt lat="35.130774620" lon="-106.780266090">
        <ele>1745.000</ele>
        <time>2019-05-14T16:42:59Z</time>
      </trkpt>
      <trkpt lat="35.130782060" lon="-106.780258600">
        <ele>1746.000</ele>
        <time>2019-05-14T16:43:34Z</time>
      </trkpt>
    </trkseg>
  </trk>
</gpx>
